ftp/pub/palmer/observations_modified/2019/August/AR190801_AWS2.txt

Download

Sample DateTime	Unit Id	WS Avg 2min	WD Avg 2min	WGS 10min	WGD 10min	Air Temp	Rel Humidity	Dew Point	Pyranometer	Quantum	Air Pressure	Snow Level	Rainfall	PW Current	Visibility	CBase 1	CBase 2	CBase 3	Vert Vis
2019/08/01 00:00:00	AWS2	6.60	92	7.92	89	M	M	M	NA	NA	1008.8	NA	NA		M	NA	NA	NA	NA
2019/08/01 00:01:00	AWS2	5.97	87	7.92	89	M	M	M	NA	NA	1009.0	NA	NA		M	NA	NA	NA	NA
2019/08/01 00:02:00	AWS2	5.36	89	7.92	89	M	M	M	NA	NA	1008.9	NA	NA		M	NA	NA	NA	NA
2019/08/01 00:03:00	AWS2	5.83	91	7.92	89	M	M	M	NA	NA	1008.9	NA	NA		M	NA	NA	NA	NA
2019/08/01 00:04:00	AWS2	6.11	92	7.92	89	M	M	M	NA	NA	1008.6	NA	NA		M	NA	NA	NA	NA
2019/08/01 00:05:00	AWS2	6.07	89	7.92	89	M	M	M	NA	NA	1008.8	NA	NA		M	NA	NA	NA	NA
2019/08/01 00:06:00	AWS2	5.91	82	7.92	89	M	M	M	NA	NA	1008.7	NA	NA		M	NA	NA	NA	NA
2019/08/01 00:07:00	AWS2	5.56	82	7.92	89	M	M	M	NA	NA	1009.0	NA	NA		M	NA	NA	NA	NA
2019/08/01 00:08:00	AWS2	5.17	91	7.20	95	M	M	M	NA	NA	1008.8	NA	NA		M	NA	NA	NA	NA
2019/08/01 00:09:00	AWS2	4.91	87	7.20	95	M	M	M	NA	NA	1009.0	NA	NA		M	NA	NA	NA	NA
2019/08/01 00:10:00	AWS2	5.25	72	6.94	87	M	M	M	NA	NA	1008.7	NA	NA		M	NA	NA	NA	NA
2019/08/01 00:11:00	AWS2	5.39	69	6.94	87	M	M	M	NA	NA	1008.8	NA	NA		M	NA	NA	NA	NA
2019/08/01 00:12:00	AWS2	5.49	73	6.94	87	M	M	M	NA	NA	1008.5	NA	NA		M	NA	NA	NA	NA
2019/08/01 00:13:00	AWS2	5.50	73	6.94	87	M	M	M	NA	NA	1008.8	NA	NA		M	NA	NA	NA	NA
2019/08/01 00:14:00	AWS2	5.09	63	6.94	87	M	M	M	NA	NA	1008.5	NA	NA		M	NA	NA	NA	NA
2019/08/01 00:15:00	AWS2	4.71	58	6.43	85	M	M	M	NA	NA	1009.0	NA	NA		M	NA	NA	NA	NA
2019/08/01 00:16:00	AWS2	4.32	52	6.43	85	M	M	M	NA	NA	1008.6	NA	NA		M	NA	NA	NA	NA
2019/08/01 00:17:00	AWS2	4.52	46	6.43	85	M	M	M	NA	NA	1008.8	NA	NA		M	NA	NA	NA	NA
2019/08/01 00:18:00	AWS2	4.93	50	6.43	85	M	M	M	NA	NA	1008.6	NA	NA		M	NA	NA	NA	NA
2019/08/01 00:19:00	AWS2	4.83	47	6.43	85	M	M	M	NA	NA	1008.8	NA	NA		M	NA	NA	NA	NA
2019/08/01 00:20:00	AWS2	4.69	38	6.43	85	M	M	M	NA	NA	1008.6	NA	NA		M	NA	NA	NA	NA
2019/08/01 00:21:00	AWS2	4.52	42	6.43	85	M	M	M	NA	NA	1009.1	NA	NA		M	NA	NA	NA	NA
2019/08/01 00:22:00	AWS2	4.70	53	6.17	68	M	M	M	NA	NA	1008.7	NA	NA		M	NA	NA	NA	NA
2019/08/01 00:23:00	AWS2	4.76	57	6.17	68	M	M	M	NA	NA	1008.7	NA	NA		M	NA	NA	NA	NA
2019/08/01 00:24:00	AWS2	5.02	55	6.64	50	M	M	M	NA	NA	1008.3	NA	NA		M	NA	NA	NA	NA
2019/08/01 00:25:00	AWS2	5.87	55	6.64	50	M	M	M	NA	NA	1008.7	NA	NA		M	NA	NA	NA	NA
2019/08/01 00:26:00	AWS2	5.43	57	6.64	50	M	M	M	NA	NA	1008.9	NA	NA		M	NA	NA	NA	NA
2019/08/01 00:27:00	AWS2	4.16	57	6.64	50	M	M	M	NA	NA	1008.8	NA	NA		M	NA	NA	NA	NA
2019/08/01 00:28:00	AWS2	3.64	48	6.64	50	M	M	M	NA	NA	1009.1	NA	NA		M	NA	NA	NA	NA
2019/08/01 00:29:00	AWS2	3.62	34	6.64	50	M	M	M	NA	NA	1008.9	NA	NA		M	NA	NA	NA	NA
2019/08/01 00:30:00	AWS2	3.66	30	6.64	50	M	M	M	NA	NA	1008.9	NA	NA		M	NA	NA	NA	NA
2019/08/01 00:31:00	AWS2	5.04	29	7.25	30	M	M	M	NA	NA	1008.6	NA	NA		M	NA	NA	NA	NA
2019/08/01 00:32:00	AWS2	5.85	28	7.25	30	M	M	M	NA	NA	1008.9	NA	NA		M	NA	NA	NA	NA
2019/08/01 00:33:00	AWS2	6.51	24	8.75	18	M	M	M	NA	NA	1008.4	NA	NA		M	NA	NA	NA	NA
2019/08/01 00:34:00	AWS2	8.04	24	9.41	32	M	M	M	NA	NA	1008.2	NA	NA		M	NA	NA	NA	NA
2019/08/01 00:35:00	AWS2	8.34	27	9.41	32	M	M	M	NA	NA	1008.6	NA	NA		M	NA	NA	NA	NA
2019/08/01 00:36:00	AWS2	8.08	27	9.41	35	M	M	M	NA	NA	1008.4	NA	NA		M	NA	NA	NA	NA
2019/08/01 00:37:00	AWS2	8.59	30	10.34	28	M	M	M	NA	NA	1008.2	NA	NA		M	NA	NA	NA	NA
2019/08/01 00:38:00	AWS2	8.57	28	10.34	28	M	M	M	NA	NA	1008.6	NA	NA		M	NA	NA	NA	NA
2019/08/01 00:39:00	AWS2	7.41	26	10.34	28	M	M	M	NA	NA	1008.8	NA	NA		M	NA	NA	NA	NA
2019/08/01 00:40:00	AWS2	7.11	26	10.34	28	M	M	M	NA	NA	1008.3	NA	NA		M	NA	NA	NA	NA
2019/08/01 00:41:00	AWS2	7.02	23	10.34	28	M	M	M	NA	NA	1008.7	NA	NA		M	NA	NA	NA	NA
2019/08/01 00:42:00	AWS2	7.58	17	10.34	28	M	M	M	NA	NA	1008.2	NA	NA		M	NA	NA	NA	NA
2019/08/01 00:43:00	AWS2	7.75	19	10.34	28	M	M	M	NA	NA	1008.4	NA	NA		M	NA	NA	NA	NA
2019/08/01 00:44:00	AWS2	7.38	23	10.34	28	M	M	M	NA	NA	1008.5	NA	NA		M	NA	NA	NA	NA
2019/08/01 00:45:00	AWS2	7.98	25	10.34	28	M	M	M	NA	NA	1008.2	NA	NA		M	NA	NA	NA	NA
2019/08/01 00:46:00	AWS2	8.24	27	10.34	28	M	M	M	NA	NA	1008.5	NA	NA		M	NA	NA	NA	NA
2019/08/01 00:47:00	AWS2	7.63	21	9.11	16	M	M	M	NA	NA	1008.4	NA	NA		M	NA	NA	NA	NA
2019/08/01 00:48:00	AWS2	7.53	19	9.11	16	M	M	M	NA	NA	1008.4	NA	NA		M	NA	NA	NA	NA
2019/08/01 00:49:00	AWS2	7.69	21	9.11	16	M	M	M	NA	NA	1008.4	NA	NA		M	NA	NA	NA	NA
2019/08/01 00:50:00	AWS2	7.61	22	9.11	16	M	M	M	NA	NA	1008.3	NA	NA		M	NA	NA	NA	NA
2019/08/01 00:51:00	AWS2	6.95	23	9.11	16	M	M	M	NA	NA	1008.6	NA	NA		M	NA	NA	NA	NA
2019/08/01 00:52:00	AWS2	6.54	21	9.05	27	M	M	M	NA	NA	1008.5	NA	NA		M	NA	NA	NA	NA
2019/08/01 00:53:00	AWS2	7.23	21	9.05	27	M	M	M	NA	NA	1008.2	NA	NA		M	NA	NA	NA	NA
2019/08/01 00:54:00	AWS2	8.11	22	9.77	24	M	M	M	NA	NA	1008.4	NA	NA		M	NA	NA	NA	NA
2019/08/01 00:55:00	AWS2	8.04	22	9.77	24	M	M	M	NA	NA	1008.6	NA	NA		M	NA	NA	NA	NA
2019/08/01 00:56:00	AWS2	7.79	20	9.77	24	M	M	M	NA	NA	1008.7	NA	NA		M	NA	NA	NA	NA
2019/08/01 00:57:00	AWS2	8.25	22	9.77	24	M	M	M	NA	NA	1008.3	NA	NA		M	NA	NA	NA	NA
2019/08/01 00:58:00	AWS2	8.15	26	9.77	24	M	M	M	NA	NA	1008.6	NA	NA		M	NA	NA	NA	NA
2019/08/01 00:59:00	AWS2	8.31	25	9.77	24	M	M	M	NA	NA	1008.6	NA	NA		M	NA	NA	NA	NA
2019/08/01 01:00:00	AWS2	8.43	20	9.77	24	M	M	M	NA	NA	1008.9	NA	NA		M	NA	NA	NA	NA
2019/08/01 01:01:00	AWS2	8.26	21	9.77	24	M	M	M	NA	NA	1008.4	NA	NA		M	NA	NA	NA	NA
2019/08/01 01:02:00	AWS2	8.37	21	9.77	24	M	M	M	NA	NA	1008.6	NA	NA		M	NA	NA	NA	NA
2019/08/01 01:03:00	AWS2	8.65	17	10.08	19	M	M	M	NA	NA	1008.4	NA	NA		M	NA	NA	NA	NA
2019/08/01 01:04:00	AWS2	8.89	17	10.08	19	M	M	M	NA	NA	1008.4	NA	NA		M	NA	NA	NA	NA
2019/08/01 01:05:00	AWS2	9.02	18	10.39	14	M	M	M	NA	NA	1008.5	NA	NA		M	NA	NA	NA	NA
2019/08/01 01:06:00	AWS2	9.50	17	10.91	21	M	M	M	NA	NA	1008.4	NA	NA		M	NA	NA	NA	NA
2019/08/01 01:07:00	AWS2	9.84	17	10.91	21	M	M	M	NA	NA	1008.2	NA	NA		M	NA	NA	NA	NA
2019/08/01 01:08:00	AWS2	9.78	18	10.91	21	M	M	M	NA	NA	1008.5	NA	NA		M	NA	NA	NA	NA
2019/08/01 01:09:00	AWS2	9.64	22	10.91	21	M	M	M	NA	NA	1008.4	NA	NA		M	NA	NA	NA	NA
2019/08/01 01:10:00	AWS2	9.19	23	10.91	21	M	M	M	NA	NA	1008.5	NA	NA		M	NA	NA	NA	NA
2019/08/01 01:11:00	AWS2	9.42	19	11.21	26	M	M	M	NA	NA	1008.6	NA	NA		M	NA	NA	NA	NA
2019/08/01 01:12:00	AWS2	10.03	23	11.32	27	M	M	M	NA	NA	1008.2	NA	NA		M	NA	NA	NA	NA
2019/08/01 01:13:00	AWS2	10.19	29	11.32	27	M	M	M	NA	NA	1008.4	NA	NA		M	NA	NA	NA	NA
2019/08/01 01:14:00	AWS2	9.77	30	11.32	27	M	M	M	NA	NA	1008.3	NA	NA		M	NA	NA	NA	NA
2019/08/01 01:15:00	AWS2	9.19	28	11.32	27	M	M	M	NA	NA	1008.4	NA	NA		M	NA	NA	NA	NA
2019/08/01 01:16:00	AWS2	9.24	29	11.32	27	M	M	M	NA	NA	1008.5	NA	NA		M	NA	NA	NA	NA
2019/08/01 01:17:00	AWS2	9.01	32	11.32	27	M	M	M	NA	NA	1008.3	NA	NA		M	NA	NA	NA	NA
2019/08/01 01:18:00	AWS2	8.65	28	11.32	27	M	M	M	NA	NA	1008.6	NA	NA		M	NA	NA	NA	NA
2019/08/01 01:19:00	AWS2	9.29	21	11.73	24	M	M	M	NA	NA	1008.6	NA	NA		M	NA	NA	NA	NA
2019/08/01 01:20:00	AWS2	10.49	18	11.94	22	M	M	M	NA	NA	1007.7	NA	NA		M	NA	NA	NA	NA
2019/08/01 01:21:00	AWS2	10.65	17	11.94	22	M	M	M	NA	NA	1008.5	NA	NA		M	NA	NA	NA	NA
2019/08/01 01:22:00	AWS2	9.92	16	11.94	22	M	M	M	NA	NA	1008.1	NA	NA		M	NA	NA	NA	NA
2019/08/01 01:23:00	AWS2	10.00	12	11.94	22	M	M	M	NA	NA	1008.2	NA	NA		M	NA	NA	NA	NA
2019/08/01 01:24:00	AWS2	10.59	13	11.94	22	M	M	M	NA	NA	1008.4	NA	NA		M	NA	NA	NA	NA
2019/08/01 01:25:00	AWS2	10.61	14	11.94	22	M	M	M	NA	NA	1008.2	NA	NA		M	NA	NA	NA	NA
2019/08/01 01:26:00	AWS2	10.49	15	11.94	22	M	M	M	NA	NA	1008.2	NA	NA		M	NA	NA	NA	NA
2019/08/01 01:27:00	AWS2	10.36	18	11.94	22	M	M	M	NA	NA	1008.1	NA	NA		M	NA	NA	NA	NA
2019/08/01 01:28:00	AWS2	10.41	20	11.94	22	M	M	M	NA	NA	1008.2	NA	NA		M	NA	NA	NA	NA
2019/08/01 01:29:00	AWS2	10.50	19	11.94	22	M	M	M	NA	NA	1008.3	NA	NA		M	NA	NA	NA	NA
2019/08/01 01:30:00	AWS2	9.69	21	11.88	14	M	M	M	NA	NA	1008.6	NA	NA		M	NA	NA	NA	NA
2019/08/01 01:31:00	AWS2	8.77	26	11.88	14	M	M	M	NA	NA	1008.7	NA	NA		M	NA	NA	NA	NA
2019/08/01 01:32:00	AWS2	8.39	30	11.88	14	M	M	M	NA	NA	1008.7	NA	NA		M	NA	NA	NA	NA
2019/08/01 01:33:00	AWS2	8.27	32	11.88	14	M	M	M	NA	NA	1008.6	NA	NA		M	NA	NA	NA	NA
2019/08/01 01:34:00	AWS2	8.29	29	11.88	14	M	M	M	NA	NA	1008.6	NA	NA		M	NA	NA	NA	NA
2019/08/01 01:35:00	AWS2	8.47	26	11.88	14	M	M	M	NA	NA	1008.6	NA	NA		M	NA	NA	NA	NA
2019/08/01 01:36:00	AWS2	8.57	25	11.88	14	M	M	M	NA	NA	1008.5	NA	NA		M	NA	NA	NA	NA
2019/08/01 01:37:00	AWS2	8.62	26	11.88	14	M	M	M	NA	NA	1008.5	NA	NA		M	NA	NA	NA	NA
2019/08/01 01:38:00	AWS2	8.62	24	11.01	23	M	M	M	NA	NA	1008.2	NA	NA		M	NA	NA	NA	NA
2019/08/01 01:39:00	AWS2	8.99	21	10.55	21	M	M	M	NA	NA	1008.4	NA	NA		M	NA	NA	NA	NA
2019/08/01 01:40:00	AWS2	9.92	15	11.37	9	M	M	M	NA	NA	1008.3	NA	NA		M	NA	NA	NA	NA
2019/08/01 01:41:00	AWS2	11.09	11	12.71	12	M	M	M	NA	NA	1008.0	NA	NA		M	NA	NA	NA	NA
2019/08/01 01:42:00	AWS2	11.57	13	12.96	13	M	M	M	NA	NA	1008.0	NA	NA		M	NA	NA	NA	NA
2019/08/01 01:43:00	AWS2	10.60	14	12.96	13	M	M	M	NA	NA	1008.2	NA	NA		M	NA	NA	NA	NA
2019/08/01 01:44:00	AWS2	9.75	14	12.96	13	M	M	M	NA	NA	1008.4	NA	NA		M	NA	NA	NA	NA
2019/08/01 01:45:00	AWS2	9.27	16	12.96	13	M	M	M	NA	NA	1008.5	NA	NA		M	NA	NA	NA	NA
2019/08/01 01:46:00	AWS2	10.25	17	12.96	13	M	M	M	NA	NA	1007.8	NA	NA		M	NA	NA	NA	NA
2019/08/01 01:47:00	AWS2	11.55	14	12.96	13	M	M	M	NA	NA	1008.0	NA	NA		M	NA	NA	NA	NA
2019/08/01 01:48:00	AWS2	11.14	11	12.96	13	M	M	M	NA	NA	1008.1	NA	NA		M	NA	NA	NA	NA
2019/08/01 01:49:00	AWS2	10.34	11	12.96	13	M	M	M	NA	NA	1008.2	NA	NA		M	NA	NA	NA	NA
2019/08/01 01:50:00	AWS2	9.50	15	12.96	13	M	M	M	NA	NA	1007.8	NA	NA		M	NA	NA	NA	NA
2019/08/01 01:51:00	AWS2	9.26	18	12.96	13	M	M	M	NA	NA	1008.5	NA	NA		M	NA	NA	NA	NA
2019/08/01 01:52:00	AWS2	9.54	15	12.40	13	M	M	M	NA	NA	1008.3	NA	NA		M	NA	NA	NA	NA
2019/08/01 01:53:00	AWS2	9.69	11	12.40	13	M	M	M	NA	NA	1008.2	NA	NA		M	NA	NA	NA	NA
2019/08/01 01:54:00	AWS2	10.00	10	12.40	13	M	M	M	NA	NA	1008.3	NA	NA		M	NA	NA	NA	NA
2019/08/01 01:55:00	AWS2	10.33	11	12.40	13	M	M	M	NA	NA	1008.3	NA	NA		M	NA	NA	NA	NA
2019/08/01 01:56:00	AWS2	9.42	11	12.19	19	M	M	M	NA	NA	1008.5	NA	NA		M	NA	NA	NA	NA
2019/08/01 01:57:00	AWS2	8.88	12	12.14	14	M	M	M	NA	NA	1008.2	NA	NA		M	NA	NA	NA	NA
2019/08/01 01:58:00	AWS2	9.32	11	12.14	14	M	M	M	NA	NA	1008.1	NA	NA		M	NA	NA	NA	NA
2019/08/01 01:59:00	AWS2	9.32	10	12.14	14	M	M	M	NA	NA	1008.3	NA	NA		M	NA	NA	NA	NA
2019/08/01 02:00:00	AWS2	9.38	14	12.14	14	M	M	M	NA	NA	1008.6	NA	NA		M	NA	NA	NA	NA
2019/08/01 02:01:00	AWS2	9.25	19	12.14	14	M	M	M	NA	NA	1008.0	NA	NA		M	NA	NA	NA	NA
2019/08/01 02:02:00	AWS2	8.99	17	12.14	14	M	M	M	NA	NA	1008.2	NA	NA		M	NA	NA	NA	NA
2019/08/01 02:03:00	AWS2	9.57	9	12.14	14	M	M	M	NA	NA	1008.2	NA	NA		M	NA	NA	NA	NA
2019/08/01 02:04:00	AWS2	9.83	9	11.21	16	M	M	M	NA	NA	1008.4	NA	NA		M	NA	NA	NA	NA
2019/08/01 02:05:00	AWS2	9.75	13	11.01	13	M	M	M	NA	NA	1008.0	NA	NA		M	NA	NA	NA	NA
2019/08/01 02:06:00	AWS2	10.61	12	12.14	8	M	M	M	NA	NA	1008.1	NA	NA		M	NA	NA	NA	NA
2019/08/01 02:07:00	AWS2	10.94	12	12.45	14	M	M	M	NA	NA	1008.1	NA	NA		M	NA	NA	NA	NA
2019/08/01 02:08:00	AWS2	11.32	12	12.81	9	M	M	M	NA	NA	1008.0	NA	NA		M	NA	NA	NA	NA
2019/08/01 02:09:00	AWS2	11.66	10	12.81	9	M	M	M	NA	NA	1007.9	NA	NA		M	NA	NA	NA	NA
2019/08/01 02:10:00	AWS2	11.49	15	12.81	17	M	M	M	NA	NA	1007.8	NA	NA		M	NA	NA	NA	NA
2019/08/01 02:11:00	AWS2	11.61	16	12.81	17	M	M	M	NA	NA	1008.0	NA	NA		M	NA	NA	NA	NA
2019/08/01 02:12:00	AWS2	11.61	11	12.81	17	M	M	M	NA	NA	1007.8	NA	NA		M	NA	NA	NA	NA
2019/08/01 02:13:00	AWS2	10.83	10	12.81	17	M	M	M	NA	NA	1007.8	NA	NA		M	NA	NA	NA	NA
2019/08/01 02:14:00	AWS2	10.26	12	12.81	17	M	M	M	NA	NA	1008.2	NA	NA		M	NA	NA	NA	NA
2019/08/01 02:15:00	AWS2	10.95	18	13.02	20	M	M	M	NA	NA	1007.8	NA	NA		M	NA	NA	NA	NA
2019/08/01 02:16:00	AWS2	11.45	22	13.02	22	M	M	M	NA	NA	1007.7	NA	NA		M	NA	NA	NA	NA
2019/08/01 02:17:00	AWS2	11.07	23	13.02	22	M	M	M	NA	NA	1007.7	NA	NA		M	NA	NA	NA	NA
2019/08/01 02:18:00	AWS2	10.56	20	13.02	22	M	M	M	NA	NA	1008.3	NA	NA		M	NA	NA	NA	NA
2019/08/01 02:19:00	AWS2	10.71	22	13.02	22	M	M	M	NA	NA	1007.5	NA	NA		M	NA	NA	NA	NA
2019/08/01 02:20:00	AWS2	10.98	23	13.02	22	M	M	M	NA	NA	1007.7	NA	NA		M	NA	NA	NA	NA
2019/08/01 02:21:00	AWS2	10.01	19	13.02	22	M	M	M	NA	NA	1008.0	NA	NA		M	NA	NA	NA	NA
2019/08/01 02:22:00	AWS2	9.63	15	13.02	22	M	M	M	NA	NA	1008.1	NA	NA		M	NA	NA	NA	NA
2019/08/01 02:23:00	AWS2	10.15	12	13.02	22	M	M	M	NA	NA	1007.9	NA	NA		M	NA	NA	NA	NA
2019/08/01 02:24:00	AWS2	9.98	16	13.02	22	M	M	M	NA	NA	1008.3	NA	NA		M	NA	NA	NA	NA
2019/08/01 02:25:00	AWS2	9.75	19	13.02	22	M	M	M	NA	NA	1008.4	NA	NA		M	NA	NA	NA	NA
2019/08/01 02:26:00	AWS2	9.91	16	12.19	25	M	M	M	NA	NA	1008.1	NA	NA		M	NA	NA	NA	NA
2019/08/01 02:27:00	AWS2	10.22	15	11.88	30	M	M	M	NA	NA	1008.4	NA	NA		M	NA	NA	NA	NA
2019/08/01 02:28:00	AWS2	10.00	17	11.88	30	M	M	M	NA	NA	1008.2	NA	NA		M	NA	NA	NA	NA
2019/08/01 02:29:00	AWS2	10.09	19	11.83	27	M	M	M	NA	NA	1007.9	NA	NA		M	NA	NA	NA	NA
2019/08/01 02:30:00	AWS2	9.82	17	11.47	15	M	M	M	NA	NA	1008.3	NA	NA		M	NA	NA	NA	NA
2019/08/01 02:31:00	AWS2	10.39	17	12.66	20	M	M	M	NA	NA	1007.5	NA	NA		M	NA	NA	NA	NA
2019/08/01 02:32:00	AWS2	11.75	18	12.81	18	M	M	M	NA	NA	1007.8	NA	NA		M	NA	NA	NA	NA
2019/08/01 02:33:00	AWS2	11.88	16	12.86	14	M	M	M	NA	NA	1007.7	NA	NA		M	NA	NA	NA	NA
2019/08/01 02:34:00	AWS2	11.94	16	13.43	13	M	M	M	NA	NA	1007.8	NA	NA		M	NA	NA	NA	NA
2019/08/01 02:35:00	AWS2	11.53	21	13.43	13	M	M	M	NA	NA	1008.1	NA	NA		M	NA	NA	NA	NA
2019/08/01 02:36:00	AWS2	11.18	17	13.43	13	M	M	M	NA	NA	1007.7	NA	NA		M	NA	NA	NA	NA
2019/08/01 02:37:00	AWS2	11.32	11	13.43	13	M	M	M	NA	NA	1007.8	NA	NA		M	NA	NA	NA	NA
2019/08/01 02:38:00	AWS2	11.47	13	13.43	13	M	M	M	NA	NA	1007.6	NA	NA		M	NA	NA	NA	NA
2019/08/01 02:39:00	AWS2	11.47	18	13.43	13	M	M	M	NA	NA	1007.7	NA	NA		M	NA	NA	NA	NA
2019/08/01 02:40:00	AWS2	11.21	18	13.43	13	M	M	M	NA	NA	1008.0	NA	NA		M	NA	NA	NA	NA
2019/08/01 02:41:00	AWS2	11.70	11	13.43	13	M	M	M	NA	NA	1007.4	NA	NA		M	NA	NA	NA	NA
2019/08/01 02:42:00	AWS2	11.65	13	13.43	13	M	M	M	NA	NA	1008.0	NA	NA		M	NA	NA	NA	NA
2019/08/01 02:43:00	AWS2	11.21	19	13.43	13	M	M	M	NA	NA	1007.9	NA	NA		M	NA	NA	NA	NA
2019/08/01 02:44:00	AWS2	10.65	14	13.12	6	M	M	M	NA	NA	1008.3	NA	NA		M	NA	NA	NA	NA
2019/08/01 02:45:00	AWS2	10.73	13	13.12	6	M	M	M	NA	NA	1007.2	NA	NA		M	NA	NA	NA	NA
2019/08/01 02:46:00	AWS2	12.14	13	13.63	7	M	M	M	NA	NA	1007.6	NA	NA		M	NA	NA	NA	NA
2019/08/01 02:47:00	AWS2	12.92	12	14.25	17	M	M	M	NA	NA	1007.5	NA	NA		M	NA	NA	NA	NA
2019/08/01 02:48:00	AWS2	11.88	16	14.25	17	M	M	M	NA	NA	1008.0	NA	NA		M	NA	NA	NA	NA
2019/08/01 02:49:00	AWS2	10.37	15	14.25	17	M	M	M	NA	NA	1007.8	NA	NA		M	NA	NA	NA	NA
2019/08/01 02:50:00	AWS2	11.35	8	14.25	17	M	M	M	NA	NA	1007.5	NA	NA		M	NA	NA	NA	NA
2019/08/01 02:51:00	AWS2	12.45	5	15.28	4	M	M	M	NA	NA	1007.5	NA	NA		M	NA	NA	NA	NA
2019/08/01 02:52:00	AWS2	12.61	5	15.28	4	M	M	M	NA	NA	1007.4	NA	NA		M	NA	NA	NA	NA
2019/08/01 02:53:00	AWS2	12.73	8	15.28	4	M	M	M	NA	NA	1007.4	NA	NA		M	NA	NA	NA	NA
2019/08/01 02:54:00	AWS2	12.26	13	15.28	4	M	M	M	NA	NA	1007.3	NA	NA		M	NA	NA	NA	NA
2019/08/01 02:55:00	AWS2	12.05	15	15.28	4	M	M	M	NA	NA	1007.4	NA	NA		M	NA	NA	NA	NA
2019/08/01 02:56:00	AWS2	13.04	12	15.28	4	M	M	M	NA	NA	1007.0	NA	NA		M	NA	NA	NA	NA
2019/08/01 02:57:00	AWS2	13.45	9	15.28	4	M	M	M	NA	NA	1007.6	NA	NA		M	NA	NA	NA	NA
2019/08/01 02:58:00	AWS2	12.12	11	15.28	4	M	M	M	NA	NA	1007.6	NA	NA		M	NA	NA	NA	NA
2019/08/01 02:59:00	AWS2	11.47	14	15.28	4	M	M	M	NA	NA	1007.2	NA	NA		M	NA	NA	NA	NA
2019/08/01 03:00:00	AWS2	11.49	18	15.28	4	M	M	M	NA	NA	1007.4	NA	NA		M	NA	NA	NA	NA
2019/08/01 03:01:00	AWS2	12.60	13	15.38	13	M	M	M	NA	NA	1007.0	NA	NA		M	NA	NA	NA	NA
2019/08/01 03:02:00	AWS2	13.87	8	15.38	13	M	M	M	NA	NA	1007.2	NA	NA		M	NA	NA	NA	NA
2019/08/01 03:03:00	AWS2	13.67	10	15.38	13	M	M	M	NA	NA	1007.4	NA	NA		M	NA	NA	NA	NA
2019/08/01 03:04:00	AWS2	13.50	9	15.38	13	M	M	M	NA	NA	1007.3	NA	NA		M	NA	NA	NA	NA
2019/08/01 03:05:00	AWS2	13.13	8	15.38	13	M	M	M	NA	NA	1006.9	NA	NA		M	NA	NA	NA	NA
2019/08/01 03:06:00	AWS2	13.25	9	15.38	13	M	M	M	NA	NA	1006.9	NA	NA		M	NA	NA	NA	NA
2019/08/01 03:07:00	AWS2	12.91	13	15.38	13	M	M	M	NA	NA	1007.6	NA	NA		M	NA	NA	NA	NA
2019/08/01 03:08:00	AWS2	11.72	14	15.38	13	M	M	M	NA	NA	1007.5	NA	NA		M	NA	NA	NA	NA
2019/08/01 03:09:00	AWS2	11.45	10	15.38	13	M	M	M	NA	NA	1007.0	NA	NA		M	NA	NA	NA	NA
2019/08/01 03:10:00	AWS2	12.50	8	15.38	13	M	M	M	NA	NA	1007.1	NA	NA		M	NA	NA	NA	NA
2019/08/01 03:11:00	AWS2	12.22	14	14.71	7	M	M	M	NA	NA	1007.2	NA	NA		M	NA	NA	NA	NA
2019/08/01 03:12:00	AWS2	11.69	19	14.71	7	M	M	M	NA	NA	1007.1	NA	NA		M	NA	NA	NA	NA
2019/08/01 03:13:00	AWS2	12.68	16	14.71	7	M	M	M	NA	NA	1007.0	NA	NA		M	NA	NA	NA	NA
2019/08/01 03:14:00	AWS2	12.88	15	14.71	29	M	M	M	NA	NA	1007.0	NA	NA		M	NA	NA	NA	NA
2019/08/01 03:15:00	AWS2	12.39	18	14.71	29	M	M	M	NA	NA	1007.5	NA	NA		M	NA	NA	NA	NA
2019/08/01 03:16:00	AWS2	12.97	18	15.48	6	M	M	M	NA	NA	1006.8	NA	NA		M	NA	NA	NA	NA
2019/08/01 03:17:00	AWS2	13.08	13	15.48	6	M	M	M	NA	NA	1007.0	NA	NA		M	NA	NA	NA	NA
2019/08/01 03:18:00	AWS2	12.66	9	15.48	6	M	M	M	NA	NA	1007.0	NA	NA		M	NA	NA	NA	NA
2019/08/01 03:19:00	AWS2	13.22	13	15.48	6	M	M	M	NA	NA	1007.1	NA	NA		M	NA	NA	NA	NA
2019/08/01 03:20:00	AWS2	13.30	15	15.48	6	M	M	M	NA	NA	1007.3	NA	NA		M	NA	NA	NA	NA
2019/08/01 03:21:00	AWS2	12.88	21	15.48	6	M	M	M	NA	NA	1007.3	NA	NA		M	NA	NA	NA	NA
2019/08/01 03:22:00	AWS2	12.76	20	15.48	6	M	M	M	NA	NA	1007.1	NA	NA		M	NA	NA	NA	NA
2019/08/01 03:23:00	AWS2	13.38	16	15.48	6	M	M	M	NA	NA	1006.9	NA	NA		M	NA	NA	NA	NA
2019/08/01 03:24:00	AWS2	13.57	19	15.48	6	M	M	M	NA	NA	1007.2	NA	NA		M	NA	NA	NA	NA
2019/08/01 03:25:00	AWS2	13.01	21	15.48	6	M	M	M	NA	NA	1007.2	NA	NA		M	NA	NA	NA	NA
2019/08/01 03:26:00	AWS2	12.22	21	15.28	16	M	M	M	NA	NA	1007.1	NA	NA		M	NA	NA	NA	NA
2019/08/01 03:27:00	AWS2	11.69	17	15.28	16	M	M	M	NA	NA	1007.7	NA	NA		M	NA	NA	NA	NA
2019/08/01 03:28:00	AWS2	11.98	17	15.28	16	M	M	M	NA	NA	1007.9	NA	NA		M	NA	NA	NA	NA
2019/08/01 03:29:00	AWS2	12.13	21	14.87	22	M	M	M	NA	NA	1008.0	NA	NA		M	NA	NA	NA	NA
2019/08/01 03:30:00	AWS2	11.81	21	14.87	22	M	M	M	NA	NA	1007.6	NA	NA		M	NA	NA	NA	NA
2019/08/01 03:31:00	AWS2	12.19	19	14.87	22	M	M	M	NA	NA	1007.6	NA	NA		M	NA	NA	NA	NA
2019/08/01 03:32:00	AWS2	12.36	18	14.87	22	M	M	M	NA	NA	1008.0	NA	NA		M	NA	NA	NA	NA
2019/08/01 03:33:00	AWS2	12.33	18	14.87	22	M	M	M	NA	NA	1007.9	NA	NA		M	NA	NA	NA	NA
2019/08/01 03:34:00	AWS2	11.62	17	14.04	20	M	M	M	NA	NA	1007.9	NA	NA		M	NA	NA	NA	NA
2019/08/01 03:35:00	AWS2	12.14	16	15.54	11	M	M	M	NA	NA	1007.4	NA	NA		M	NA	NA	NA	NA
2019/08/01 03:36:00	AWS2	13.34	16	15.54	11	M	M	M	NA	NA	1007.7	NA	NA		M	NA	NA	NA	NA
2019/08/01 03:37:00	AWS2	12.28	21	15.54	11	M	M	M	NA	NA	1008.1	NA	NA		M	NA	NA	NA	NA
2019/08/01 03:38:00	AWS2	11.66	22	15.54	11	M	M	M	NA	NA	1008.0	NA	NA		M	NA	NA	NA	NA
2019/08/01 03:39:00	AWS2	12.66	17	15.54	11	M	M	M	NA	NA	1007.5	NA	NA		M	NA	NA	NA	NA
2019/08/01 03:40:00	AWS2	13.00	19	15.54	11	M	M	M	NA	NA	1007.9	NA	NA		M	NA	NA	NA	NA
2019/08/01 03:41:00	AWS2	12.02	25	15.54	11	M	M	M	NA	NA	1008.1	NA	NA		M	NA	NA	NA	NA
2019/08/01 03:42:00	AWS2	11.71	24	15.54	11	M	M	M	NA	NA	1007.9	NA	NA		M	NA	NA	NA	NA
2019/08/01 03:43:00	AWS2	11.69	22	15.54	11	M	M	M	NA	NA	1007.6	NA	NA		M	NA	NA	NA	NA
2019/08/01 03:44:00	AWS2	10.74	19	15.54	11	M	M	M	NA	NA	1008.1	NA	NA		M	NA	NA	NA	NA
2019/08/01 03:45:00	AWS2	10.30	19	15.07	10	M	M	M	NA	NA	1008.1	NA	NA		M	NA	NA	NA	NA
2019/08/01 03:46:00	AWS2	11.57	13	15.28	8	M	M	M	NA	NA	1007.8	NA	NA		M	NA	NA	NA	NA
2019/08/01 03:47:00	AWS2	12.31	8	15.28	8	M	M	M	NA	NA	1007.8	NA	NA		M	NA	NA	NA	NA
2019/08/01 03:48:00	AWS2	11.80	16	15.28	8	M	M	M	NA	NA	1007.9	NA	NA		M	NA	NA	NA	NA
2019/08/01 03:49:00	AWS2	11.89	22	15.28	8	M	M	M	NA	NA	1008.2	NA	NA		M	NA	NA	NA	NA
2019/08/01 03:50:00	AWS2	12.48	21	15.28	8	M	M	M	NA	NA	1007.7	NA	NA		M	NA	NA	NA	NA
2019/08/01 03:51:00	AWS2	12.77	22	15.28	8	M	M	M	NA	NA	1007.6	NA	NA		M	NA	NA	NA	NA
2019/08/01 03:52:00	AWS2	13.00	22	15.28	8	M	M	M	NA	NA	1008.0	NA	NA		M	NA	NA	NA	NA
2019/08/01 03:53:00	AWS2	12.91	19	15.28	8	M	M	M	NA	NA	1007.5	NA	NA		M	NA	NA	NA	NA
2019/08/01 03:54:00	AWS2	13.10	20	15.28	8	M	M	M	NA	NA	1007.6	NA	NA		M	NA	NA	NA	NA
2019/08/01 03:55:00	AWS2	13.61	24	15.28	8	M	M	M	NA	NA	1007.4	NA	NA		M	NA	NA	NA	NA
2019/08/01 03:56:00	AWS2	12.41	25	15.18	28	M	M	M	NA	NA	1008.0	NA	NA		M	NA	NA	NA	NA
2019/08/01 03:57:00	AWS2	11.74	20	15.18	28	M	M	M	NA	NA	1007.4	NA	NA		M	NA	NA	NA	NA
2019/08/01 03:58:00	AWS2	12.30	15	15.18	28	M	M	M	NA	NA	1007.3	NA	NA		M	NA	NA	NA	NA
2019/08/01 03:59:00	AWS2	12.35	18	15.18	28	M	M	M	NA	NA	1007.7	NA	NA		M	NA	NA	NA	NA
2019/08/01 04:00:00	AWS2	11.71	24	15.18	28	M	M	M	NA	NA	1007.9	NA	NA		M	NA	NA	NA	NA
2019/08/01 04:01:00	AWS2	11.84	24	15.18	28	M	M	M	NA	NA	1007.3	NA	NA		M	NA	NA	NA	NA
2019/08/01 04:02:02	AWS2	12.13	23	15.18	28	M	M	M	NA	NA	M	NA	NA		M	NA	NA	NA	NA
2019/08/01 04:03:00	AWS2	11.89	20	15.18	28	M	M	M	NA	NA	1007.9	NA	NA		M	NA	NA	NA	NA
2019/08/01 04:04:00	AWS2	12.02	23	15.18	28	M	M	M	NA	NA	1007.1	NA	NA		M	NA	NA	NA	NA
2019/08/01 04:05:00	AWS2	12.85	23	14.35	25	M	M	M	NA	NA	1007.3	NA	NA		M	NA	NA	NA	NA
2019/08/01 04:06:00	AWS2	12.15	22	14.30	17	M	M	M	NA	NA	1007.5	NA	NA		M	NA	NA	NA	NA
2019/08/01 04:07:00	AWS2	12.13	19	14.46	19	M	M	M	NA	NA	1007.2	NA	NA		M	NA	NA	NA	NA
2019/08/01 04:08:00	AWS2	11.35	25	14.46	19	M	M	M	NA	NA	1007.9	NA	NA		M	NA	NA	NA	NA
2019/08/01 04:09:00	AWS2	9.32	28	14.46	19	M	M	M	NA	NA	1007.5	NA	NA		M	NA	NA	NA	NA
2019/08/01 04:10:00	AWS2	10.41	22	14.46	19	M	M	M	NA	NA	1007.0	NA	NA		M	NA	NA	NA	NA
2019/08/01 04:11:00	AWS2	12.05	20	14.46	19	M	M	M	NA	NA	1006.7	NA	NA		M	NA	NA	NA	NA
2019/08/01 04:12:00	AWS2	11.72	20	14.46	19	M	M	M	NA	NA	1007.3	NA	NA		M	NA	NA	NA	NA
2019/08/01 04:13:01	AWS2	12.06	21	14.46	19	M	M	M	NA	NA	1007.6	NA	NA		M	NA	NA	NA	NA
2019/08/01 04:14:01	AWS2	12.10	17	14.46	19	M	M	M	NA	NA	1007.4	NA	NA		M	NA	NA	NA	NA
2019/08/01 04:15:01	AWS2	11.24	11	14.46	19	M	M	M	NA	NA	1008.0	NA	NA		M	NA	NA	NA	NA
2019/08/01 04:16:01	AWS2	11.43	14	14.46	19	M	M	M	NA	NA	1007.8	NA	NA		M	NA	NA	NA	NA
2019/08/01 04:17:01	AWS2	12.42	16	14.25	15	M	M	M	NA	NA	1007.7	NA	NA		M	NA	NA	NA	NA
2019/08/01 04:18:01	AWS2	12.19	17	14.25	15	M	M	M	NA	NA	1007.9	NA	NA		M	NA	NA	NA	NA
2019/08/01 04:19:01	AWS2	12.05	18	14.25	15	M	M	M	NA	NA	1007.6	NA	NA		M	NA	NA	NA	NA
2019/08/01 04:20:01	AWS2	12.18	17	14.25	15	M	M	M	NA	NA	1007.4	NA	NA		M	NA	NA	NA	NA
2019/08/01 04:21:01	AWS2	11.91	16	14.25	15	M	M	M	NA	NA	1007.9	NA	NA		M	NA	NA	NA	NA
2019/08/01 04:22:01	AWS2	11.55	18	14.25	15	M	M	M	NA	NA	1008.0	NA	NA		M	NA	NA	NA	NA
2019/08/01 04:23:01	AWS2	10.87	18	14.25	15	M	M	M	NA	NA	1008.1	NA	NA		M	NA	NA	NA	NA
2019/08/01 04:24:01	AWS2	11.36	14	14.25	15	M	M	M	NA	NA	1007.8	NA	NA		M	NA	NA	NA	NA
2019/08/01 04:25:01	AWS2	11.85	8	14.25	15	M	M	M	NA	NA	1007.9	NA	NA		M	NA	NA	NA	NA
2019/08/01 04:26:01	AWS2	11.60	6	13.89	14	M	M	M	NA	NA	1007.7	NA	NA		M	NA	NA	NA	NA
2019/08/01 04:27:01	AWS2	11.66	9	13.43	15	M	M	M	NA	NA	1008.0	NA	NA		M	NA	NA	NA	NA
2019/08/01 04:28:01	AWS2	11.26	13	13.43	15	M	M	M	NA	NA	1008.1	NA	NA		M	NA	NA	NA	NA
2019/08/01 04:29:01	AWS2	10.35	14	13.43	15	M	M	M	NA	NA	1008.3	NA	NA		M	NA	NA	NA	NA
2019/08/01 04:30:01	AWS2	10.39	12	13.43	15	M	M	M	NA	NA	1007.9	NA	NA		M	NA	NA	NA	NA
2019/08/01 04:31:01	AWS2	11.48	10	13.43	15	M	M	M	NA	NA	1007.8	NA	NA		M	NA	NA	NA	NA
2019/08/01 04:32:01	AWS2	11.80	11	13.43	15	M	M	M	NA	NA	1007.7	NA	NA		M	NA	NA	NA	NA
2019/08/01 04:33:01	AWS2	11.44	15	13.43	15	M	M	M	NA	NA	1007.6	NA	NA		M	NA	NA	NA	NA
2019/08/01 04:34:01	AWS2	10.59	17	13.27	20	M	M	M	NA	NA	1008.2	NA	NA		M	NA	NA	NA	NA
2019/08/01 04:35:01	AWS2	11.00	15	13.27	20	M	M	M	NA	NA	1007.8	NA	NA		M	NA	NA	NA	NA
2019/08/01 04:36:01	AWS2	12.05	13	13.27	20	M	M	M	NA	NA	1007.8	NA	NA		M	NA	NA	NA	NA
2019/08/01 04:37:01	AWS2	12.34	11	13.27	13	M	M	M	NA	NA	1007.9	NA	NA		M	NA	NA	NA	NA
2019/08/01 04:38:01	AWS2	11.95	14	13.27	13	M	M	M	NA	NA	1008.0	NA	NA		M	NA	NA	NA	NA
2019/08/01 04:39:01	AWS2	10.53	15	13.27	13	M	M	M	NA	NA	1008.1	NA	NA		M	NA	NA	NA	NA
2019/08/01 04:40:01	AWS2	11.32	13	14.04	11	M	M	M	NA	NA	1007.8	NA	NA		M	NA	NA	NA	NA
2019/08/01 04:41:01	AWS2	12.64	13	14.04	11	M	M	M	NA	NA	1007.7	NA	NA		M	NA	NA	NA	NA
2019/08/01 04:42:01	AWS2	11.17	16	14.04	11	M	M	M	NA	NA	1008.3	NA	NA		M	NA	NA	NA	NA
2019/08/01 04:43:01	AWS2	11.01	13	14.04	11	M	M	M	NA	NA	1007.9	NA	NA		M	NA	NA	NA	NA
2019/08/01 04:44:01	AWS2	12.16	6	14.04	11	M	M	M	NA	NA	1007.7	NA	NA		M	NA	NA	NA	NA
2019/08/01 04:45:01	AWS2	11.90	5	14.04	11	M	M	M	NA	NA	1008.0	NA	NA		M	NA	NA	NA	NA
2019/08/01 04:46:01	AWS2	11.71	8	14.04	11	M	M	M	NA	NA	1008.0	NA	NA		M	NA	NA	NA	NA
2019/08/01 04:47:01	AWS2	11.50	8	14.04	11	M	M	M	NA	NA	1008.1	NA	NA		M	NA	NA	NA	NA
2019/08/01 04:48:01	AWS2	11.42	11	14.04	11	M	M	M	NA	NA	1008.2	NA	NA		M	NA	NA	NA	NA
2019/08/01 04:49:01	AWS2	11.78	15	14.04	11	M	M	M	NA	NA	1008.0	NA	NA		M	NA	NA	NA	NA
2019/08/01 04:50:01	AWS2	11.64	13	13.89	1	M	M	M	NA	NA	1008.0	NA	NA		M	NA	NA	NA	NA
2019/08/01 04:51:01	AWS2	11.68	13	13.89	1	M	M	M	NA	NA	1007.8	NA	NA		M	NA	NA	NA	NA
2019/08/01 04:52:01	AWS2	11.96	14	13.89	1	M	M	M	NA	NA	1007.9	NA	NA		M	NA	NA	NA	NA
2019/08/01 04:53:01	AWS2	11.74	17	13.89	1	M	M	M	NA	NA	1007.6	NA	NA		M	NA	NA	NA	NA
2019/08/01 04:54:01	AWS2	11.64	15	13.74	20	M	M	M	NA	NA	1007.7	NA	NA		M	NA	NA	NA	NA
2019/08/01 04:55:00	AWS2	11.53	12	13.74	20	M	M	M	NA	NA	1008.0	NA	NA		M	NA	NA	NA	NA
2019/08/01 04:56:00	AWS2	11.59	13	13.74	20	M	M	M	NA	NA	1007.7	NA	NA		M	NA	NA	NA	NA
2019/08/01 04:57:00	AWS2	11.26	14	13.74	20	M	M	M	NA	NA	1006.8	NA	NA		M	NA	NA	NA	NA
2019/08/01 04:58:00	AWS2	10.47	13	13.74	20	M	M	M	NA	NA	1008.0	NA	NA		M	NA	NA	NA	NA
2019/08/01 04:59:01	AWS2	11.50	11	14.30	9	M	M	M	NA	NA	1007.3	NA	NA		M	NA	NA	NA	NA
2019/08/01 05:00:00	AWS2	12.41	14	14.30	9	M	M	M	NA	NA	1007.2	NA	NA		M	NA	NA	NA	NA
2019/08/01 05:01:00	AWS2	12.63	18	14.30	9	M	M	M	NA	NA	1007.1	NA	NA		M	NA	NA	NA	NA
2019/08/01 05:02:00	AWS2	12.26	20	14.30	9	M	M	M	NA	NA	1007.3	NA	NA		M	NA	NA	NA	NA
2019/08/01 05:03:00	AWS2	11.95	22	14.30	9	M	M	M	NA	NA	1007.3	NA	NA		M	NA	NA	NA	NA
2019/08/01 05:04:00	AWS2	12.24	18	14.30	9	M	M	M	NA	NA	1007.4	NA	NA		M	NA	NA	NA	NA
2019/08/01 05:05:01	AWS2	11.92	16	14.30	9	M	M	M	NA	NA	1007.8	NA	NA		M	NA	NA	NA	NA
2019/08/01 05:06:00	AWS2	11.46	20	14.30	9	M	M	M	NA	NA	1007.5	NA	NA		M	NA	NA	NA	NA
2019/08/01 05:07:00	AWS2	10.87	19	14.30	9	M	M	M	NA	NA	1007.0	NA	NA		M	NA	NA	NA	NA
2019/08/01 05:08:00	AWS2	11.17	16	14.30	9	M	M	M	NA	NA	1007.7	NA	NA		M	NA	NA	NA	NA
2019/08/01 05:09:00	AWS2	11.49	16	13.79	16	M	M	M	NA	NA	1007.2	NA	NA		M	NA	NA	NA	NA
2019/08/01 05:10:00	AWS2	11.03	18	13.79	16	M	M	M	NA	NA	1007.3	NA	NA		M	NA	NA	NA	NA
2019/08/01 05:11:00	AWS2	10.20	22	13.58	19	M	M	M	NA	NA	1007.9	NA	NA		M	NA	NA	NA	NA
2019/08/01 05:12:00	AWS2	9.53	24	13.58	19	M	M	M	NA	NA	1007.1	NA	NA		M	NA	NA	NA	NA
2019/08/01 05:13:00	AWS2	9.33	21	12.91	14	M	M	M	NA	NA	1007.7	NA	NA		M	NA	NA	NA	NA
2019/08/01 05:14:00	AWS2	9.46	17	12.60	6	M	M	M	NA	NA	1007.1	NA	NA		M	NA	NA	NA	NA
2019/08/01 05:15:00	AWS2	10.31	19	12.60	6	M	M	M	NA	NA	1007.6	NA	NA		M	NA	NA	NA	NA
2019/08/01 05:16:00	AWS2	10.57	24	12.60	6	M	M	M	NA	NA	1008.2	NA	NA		M	NA	NA	NA	NA
2019/08/01 05:17:00	AWS2	10.49	23	12.60	6	M	M	M	NA	NA	1007.6	NA	NA		M	NA	NA	NA	NA
2019/08/01 05:18:00	AWS2	11.14	18	12.60	6	M	M	M	NA	NA	1007.5	NA	NA		M	NA	NA	NA	NA
2019/08/01 05:19:00	AWS2	11.21	18	12.71	23	M	M	M	NA	NA	1007.9	NA	NA		M	NA	NA	NA	NA
2019/08/01 05:20:00	AWS2	10.39	23	12.71	23	M	M	M	NA	NA	1008.2	NA	NA		M	NA	NA	NA	NA
2019/08/01 05:21:00	AWS2	9.79	24	12.71	23	M	M	M	NA	NA	1008.1	NA	NA		M	NA	NA	NA	NA
2019/08/01 05:22:00	AWS2	10.23	24	12.71	23	M	M	M	NA	NA	1008.0	NA	NA		M	NA	NA	NA	NA
2019/08/01 05:23:00	AWS2	11.00	24	12.71	23	M	M	M	NA	NA	1008.0	NA	NA		M	NA	NA	NA	NA
2019/08/01 05:24:00	AWS2	10.83	24	12.71	23	M	M	M	NA	NA	1008.2	NA	NA		M	NA	NA	NA	NA
2019/08/01 05:25:00	AWS2	10.70	26	12.71	23	M	M	M	NA	NA	1008.1	NA	NA		M	NA	NA	NA	NA
2019/08/01 05:26:00	AWS2	10.62	26	12.71	23	M	M	M	NA	NA	1008.0	NA	NA		M	NA	NA	NA	NA
2019/08/01 05:27:00	AWS2	10.84	24	12.86	25	M	M	M	NA	NA	1008.0	NA	NA		M	NA	NA	NA	NA
2019/08/01 05:28:00	AWS2	11.13	24	12.86	25	M	M	M	NA	NA	1007.9	NA	NA		M	NA	NA	NA	NA
2019/08/01 05:29:00	AWS2	9.98	22	12.86	25	M	M	M	NA	NA	1008.2	NA	NA		M	NA	NA	NA	NA
2019/08/01 05:30:00	AWS2	9.67	21	12.86	25	M	M	M	NA	NA	1008.2	NA	NA		M	NA	NA	NA	NA
2019/08/01 05:31:00	AWS2	10.59	24	12.86	25	M	M	M	NA	NA	1007.8	NA	NA		M	NA	NA	NA	NA
2019/08/01 05:32:00	AWS2	10.85	25	12.86	25	M	M	M	NA	NA	1008.2	NA	NA		M	NA	NA	NA	NA
2019/08/01 05:33:00	AWS2	9.92	23	12.86	25	M	M	M	NA	NA	1008.1	NA	NA		M	NA	NA	NA	NA
2019/08/01 05:34:00	AWS2	9.38	21	12.86	25	M	M	M	NA	NA	1008.3	NA	NA		M	NA	NA	NA	NA
2019/08/01 05:35:00	AWS2	9.55	18	12.86	25	M	M	M	NA	NA	1008.0	NA	NA		M	NA	NA	NA	NA
2019/08/01 05:36:00	AWS2	9.85	16	12.86	25	M	M	M	NA	NA	1007.9	NA	NA		M	NA	NA	NA	NA
2019/08/01 05:37:00	AWS2	10.32	19	11.94	23	M	M	M	NA	NA	1008.0	NA	NA		M	NA	NA	NA	NA
2019/08/01 05:38:00	AWS2	10.11	24	11.94	23	M	M	M	NA	NA	1007.8	NA	NA		M	NA	NA	NA	NA
2019/08/01 05:39:00	AWS2	9.31	22	11.94	23	M	M	M	NA	NA	1008.1	NA	NA		M	NA	NA	NA	NA
2019/08/01 05:40:00	AWS2	9.30	22	11.94	23	M	M	M	NA	NA	1007.8	NA	NA		M	NA	NA	NA	NA
2019/08/01 05:41:00	AWS2	10.21	25	11.94	23	M	M	M	NA	NA	1007.8	NA	NA		M	NA	NA	NA	NA
2019/08/01 05:42:00	AWS2	10.52	23	11.68	18	M	M	M	NA	NA	1008.0	NA	NA		M	NA	NA	NA	NA
2019/08/01 05:43:00	AWS2	10.59	22	12.04	22	M	M	M	NA	NA	1007.7	NA	NA		M	NA	NA	NA	NA
2019/08/01 05:44:00	AWS2	10.18	21	12.04	22	M	M	M	NA	NA	1008.0	NA	NA		M	NA	NA	NA	NA
2019/08/01 05:45:00	AWS2	9.71	21	12.04	22	M	M	M	NA	NA	1008.0	NA	NA		M	NA	NA	NA	NA
2019/08/01 05:46:00	AWS2	10.18	18	12.04	22	M	M	M	NA	NA	1008.1	NA	NA		M	NA	NA	NA	NA
2019/08/01 05:47:00	AWS2	10.38	17	12.04	22	M	M	M	NA	NA	1007.7	NA	NA		M	NA	NA	NA	NA
2019/08/01 05:48:00	AWS2	9.88	16	12.04	22	M	M	M	NA	NA	1007.7	NA	NA		M	NA	NA	NA	NA
2019/08/01 05:49:00	AWS2	10.24	17	12.04	22	M	M	M	NA	NA	1007.9	NA	NA		M	NA	NA	NA	NA
2019/08/01 05:50:00	AWS2	10.59	19	12.14	12	M	M	M	NA	NA	1007.8	NA	NA		M	NA	NA	NA	NA
2019/08/01 05:51:00	AWS2	10.65	16	13.17	12	M	M	M	NA	NA	1007.8	NA	NA		M	NA	NA	NA	NA
2019/08/01 05:52:00	AWS2	11.73	13	13.32	11	M	M	M	NA	NA	1007.5	NA	NA		M	NA	NA	NA	NA
2019/08/01 05:53:00	AWS2	11.06	13	13.32	11	M	M	M	NA	NA	1007.8	NA	NA		M	NA	NA	NA	NA
2019/08/01 05:54:00	AWS2	10.43	19	13.32	11	M	M	M	NA	NA	1007.7	NA	NA		M	NA	NA	NA	NA
2019/08/01 05:55:00	AWS2	10.47	20	13.32	11	M	M	M	NA	NA	1007.8	NA	NA		M	NA	NA	NA	NA
2019/08/01 05:56:00	AWS2	10.05	18	13.32	11	M	M	M	NA	NA	1008.2	NA	NA		M	NA	NA	NA	NA
2019/08/01 05:57:00	AWS2	10.55	21	13.32	11	M	M	M	NA	NA	1007.8	NA	NA		M	NA	NA	NA	NA
2019/08/01 05:58:00	AWS2	10.80	22	13.32	11	M	M	M	NA	NA	1007.7	NA	NA		M	NA	NA	NA	NA
2019/08/01 05:59:00	AWS2	10.78	21	13.32	11	M	M	M	NA	NA	1008.1	NA	NA		M	NA	NA	NA	NA
2019/08/01 06:00:00	AWS2	10.27	20	13.32	11	M	M	M	NA	NA	1007.7	NA	NA		M	NA	NA	NA	NA
2019/08/01 06:01:00	AWS2	9.37	17	13.32	11	M	M	M	NA	NA	1008.3	NA	NA		M	NA	NA	NA	NA
2019/08/01 06:02:00	AWS2	10.22	15	12.24	28	M	M	M	NA	NA	1007.6	NA	NA		M	NA	NA	NA	NA
2019/08/01 06:03:00	AWS2	11.14	15	12.24	28	M	M	M	NA	NA	1008.1	NA	NA		M	NA	NA	NA	NA
2019/08/01 06:04:00	AWS2	10.99	18	12.24	28	M	M	M	NA	NA	1008.1	NA	NA		M	NA	NA	NA	NA
2019/08/01 06:05:00	AWS2	10.82	22	12.24	28	M	M	M	NA	NA	1008.1	NA	NA		M	NA	NA	NA	NA
2019/08/01 06:06:00	AWS2	10.27	27	12.24	28	M	M	M	NA	NA	1008.2	NA	NA		M	NA	NA	NA	NA
2019/08/01 06:07:00	AWS2	10.57	27	12.45	23	M	M	M	NA	NA	1008.2	NA	NA		M	NA	NA	NA	NA
2019/08/01 06:08:00	AWS2	10.55	24	12.45	23	M	M	M	NA	NA	1007.8	NA	NA		M	NA	NA	NA	NA
2019/08/01 06:09:00	AWS2	10.50	23	12.76	21	M	M	M	NA	NA	1008.0	NA	NA		M	NA	NA	NA	NA
2019/08/01 06:10:00	AWS2	10.70	18	12.76	21	M	M	M	NA	NA	1008.2	NA	NA		M	NA	NA	NA	NA
2019/08/01 06:11:00	AWS2	10.28	13	12.76	21	M	M	M	NA	NA	1008.2	NA	NA		M	NA	NA	NA	NA
2019/08/01 06:12:00	AWS2	9.90	11	12.76	21	M	M	M	NA	NA	1008.3	NA	NA		M	NA	NA	NA	NA
2019/08/01 06:13:00	AWS2	9.56	13	12.76	21	M	M	M	NA	NA	1008.2	NA	NA		M	NA	NA	NA	NA
2019/08/01 06:14:00	AWS2	9.74	18	12.76	21	M	M	M	NA	NA	1007.7	NA	NA		M	NA	NA	NA	NA
2019/08/01 06:15:00	AWS2	9.95	14	12.76	21	M	M	M	NA	NA	1008.4	NA	NA		M	NA	NA	NA	NA
2019/08/01 06:16:00	AWS2	9.32	14	12.76	21	M	M	M	NA	NA	1008.3	NA	NA		M	NA	NA	NA	NA
2019/08/01 06:17:00	AWS2	8.90	25	12.76	21	M	M	M	NA	NA	1008.4	NA	NA		M	NA	NA	NA	NA
2019/08/01 06:18:00	AWS2	9.18	28	12.76	21	M	M	M	NA	NA	1008.3	NA	NA		M	NA	NA	NA	NA
2019/08/01 06:19:00	AWS2	9.69	26	11.57	18	M	M	M	NA	NA	1008.3	NA	NA		M	NA	NA	NA	NA
2019/08/01 06:20:00	AWS2	10.19	26	11.42	13	M	M	M	NA	NA	1008.1	NA	NA		M	NA	NA	NA	NA
2019/08/01 06:21:00	AWS2	10.07	27	11.42	13	M	M	M	NA	NA	1008.2	NA	NA		M	NA	NA	NA	NA
2019/08/01 06:22:00	AWS2	9.68	26	11.21	26	M	M	M	NA	NA	1008.2	NA	NA		M	NA	NA	NA	NA
2019/08/01 06:23:00	AWS2	9.86	25	11.21	26	M	M	M	NA	NA	1008.3	NA	NA		M	NA	NA	NA	NA
2019/08/01 06:24:00	AWS2	10.45	25	11.32	30	M	M	M	NA	NA	1007.8	NA	NA		M	NA	NA	NA	NA
2019/08/01 06:25:00	AWS2	9.98	20	11.32	30	M	M	M	NA	NA	1008.2	NA	NA		M	NA	NA	NA	NA
2019/08/01 06:26:00	AWS2	9.45	21	11.32	30	M	M	M	NA	NA	1008.3	NA	NA		M	NA	NA	NA	NA
2019/08/01 06:27:00	AWS2	9.40	28	11.32	30	M	M	M	NA	NA	1008.2	NA	NA		M	NA	NA	NA	NA
2019/08/01 06:28:00	AWS2	9.27	29	11.32	30	M	M	M	NA	NA	1007.7	NA	NA		M	NA	NA	NA	NA
2019/08/01 06:29:00	AWS2	9.23	30	11.32	30	M	M	M	NA	NA	1008.1	NA	NA		M	NA	NA	NA	NA
2019/08/01 06:30:00	AWS2	9.50	28	11.83	20	M	M	M	NA	NA	1007.8	NA	NA		M	NA	NA	NA	NA
2019/08/01 06:31:00	AWS2	10.33	23	11.83	20	M	M	M	NA	NA	1008.2	NA	NA		M	NA	NA	NA	NA
2019/08/01 06:32:00	AWS2	10.89	26	11.88	30	M	M	M	NA	NA	1008.1	NA	NA		M	NA	NA	NA	NA
2019/08/01 06:33:00	AWS2	11.36	25	12.55	32	M	M	M	NA	NA	1007.8	NA	NA		M	NA	NA	NA	NA
2019/08/01 06:34:00	AWS2	11.01	21	12.55	32	M	M	M	NA	NA	1008.1	NA	NA		M	NA	NA	NA	NA
2019/08/01 06:35:00	AWS2	10.31	23	12.55	32	M	M	M	NA	NA	1008.1	NA	NA		M	NA	NA	NA	NA
2019/08/01 06:36:00	AWS2	10.56	25	12.55	32	M	M	M	NA	NA	1008.2	NA	NA		M	NA	NA	NA	NA
2019/08/01 06:37:00	AWS2	10.87	24	12.55	32	M	M	M	NA	NA	1008.1	NA	NA		M	NA	NA	NA	NA
2019/08/01 06:38:00	AWS2	10.84	22	12.55	32	M	M	M	NA	NA	1008.1	NA	NA		M	NA	NA	NA	NA
2019/08/01 06:39:00	AWS2	10.84	23	12.55	32	M	M	M	NA	NA	1008.2	NA	NA		M	NA	NA	NA	NA
2019/08/01 06:40:00	AWS2	10.35	18	12.55	32	M	M	M	NA	NA	1007.9	NA	NA		M	NA	NA	NA	NA
2019/08/01 06:41:00	AWS2	10.38	14	12.55	18	M	M	M	NA	NA	1007.8	NA	NA		M	NA	NA	NA	NA
2019/08/01 06:42:00	AWS2	10.96	14	12.55	18	M	M	M	NA	NA	1008.2	NA	NA		M	NA	NA	NA	NA
2019/08/01 06:43:00	AWS2	10.63	15	12.55	18	M	M	M	NA	NA	1008.1	NA	NA		M	NA	NA	NA	NA
2019/08/01 06:44:00	AWS2	10.50	15	12.55	18	M	M	M	NA	NA	1007.6	NA	NA		M	NA	NA	NA	NA
2019/08/01 06:45:00	AWS2	10.40	17	12.55	18	M	M	M	NA	NA	1008.1	NA	NA		M	NA	NA	NA	NA
2019/08/01 06:46:00	AWS2	10.22	22	12.55	18	M	M	M	NA	NA	1007.8	NA	NA		M	NA	NA	NA	NA
2019/08/01 06:47:00	AWS2	10.46	25	12.55	18	M	M	M	NA	NA	1008.1	NA	NA		M	NA	NA	NA	NA
2019/08/01 06:48:00	AWS2	10.56	27	12.55	18	M	M	M	NA	NA	1008.1	NA	NA		M	NA	NA	NA	NA
2019/08/01 06:49:00	AWS2	10.15	27	12.55	18	M	M	M	NA	NA	1008.2	NA	NA		M	NA	NA	NA	NA
2019/08/01 06:50:00	AWS2	10.42	28	12.55	18	M	M	M	NA	NA	1008.1	NA	NA		M	NA	NA	NA	NA
2019/08/01 06:51:00	AWS2	10.85	27	12.45	12	M	M	M	NA	NA	1007.9	NA	NA		M	NA	NA	NA	NA
2019/08/01 06:52:00	AWS2	11.05	26	12.24	24	M	M	M	NA	NA	1007.9	NA	NA		M	NA	NA	NA	NA
2019/08/01 06:53:00	AWS2	11.66	25	13.38	24	M	M	M	NA	NA	1007.7	NA	NA		M	NA	NA	NA	NA
2019/08/01 06:54:00	AWS2	12.15	26	13.38	24	M	M	M	NA	NA	1007.8	NA	NA		M	NA	NA	NA	NA
2019/08/01 06:55:00	AWS2	12.18	26	13.38	24	M	M	M	NA	NA	1007.9	NA	NA		M	NA	NA	NA	NA
2019/08/01 06:56:00	AWS2	12.16	28	14.04	33	M	M	M	NA	NA	1007.5	NA	NA		M	NA	NA	NA	NA
2019/08/01 06:57:00	AWS2	12.32	28	14.04	33	M	M	M	NA	NA	1007.7	NA	NA		M	NA	NA	NA	NA
2019/08/01 06:58:00	AWS2	12.46	24	14.04	33	M	M	M	NA	NA	1007.4	NA	NA		M	NA	NA	NA	NA
2019/08/01 06:59:00	AWS2	12.33	24	14.04	33	M	M	M	NA	NA	1007.5	NA	NA		M	NA	NA	NA	NA
2019/08/01 07:00:00	AWS2	11.21	30	14.04	33	M	M	M	NA	NA	1007.6	NA	NA		M	NA	NA	NA	NA
2019/08/01 07:01:00	AWS2	10.26	32	14.04	33	M	M	M	NA	NA	1007.3	NA	NA		M	NA	NA	NA	NA
2019/08/01 07:02:00	AWS2	11.54	28	14.15	28	M	M	M	NA	NA	1007.4	NA	NA		M	NA	NA	NA	NA
2019/08/01 07:03:00	AWS2	12.59	24	14.15	28	M	M	M	NA	NA	1007.4	NA	NA		M	NA	NA	NA	NA
2019/08/01 07:04:00	AWS2	11.97	27	14.15	28	M	M	M	NA	NA	1007.3	NA	NA		M	NA	NA	NA	NA
2019/08/01 07:05:00	AWS2	12.01	32	14.15	28	M	M	M	NA	NA	1007.5	NA	NA		M	NA	NA	NA	NA
2019/08/01 07:06:00	AWS2	12.47	28	14.15	28	M	M	M	NA	NA	1007.4	NA	NA		M	NA	NA	NA	NA
2019/08/01 07:07:00	AWS2	12.19	23	14.15	28	M	M	M	NA	NA	1007.4	NA	NA		M	NA	NA	NA	NA
2019/08/01 07:08:00	AWS2	11.93	22	14.15	28	M	M	M	NA	NA	1007.5	NA	NA		M	NA	NA	NA	NA
2019/08/01 07:09:00	AWS2	12.32	24	14.15	28	M	M	M	NA	NA	1007.3	NA	NA		M	NA	NA	NA	NA
2019/08/01 07:10:00	AWS2	12.68	26	14.15	28	M	M	M	NA	NA	1007.2	NA	NA		M	NA	NA	NA	NA
2019/08/01 07:11:00	AWS2	12.13	26	14.15	28	M	M	M	NA	NA	1007.2	NA	NA		M	NA	NA	NA	NA
2019/08/01 07:12:00	AWS2	11.32	26	14.04	28	M	M	M	NA	NA	1007.3	NA	NA		M	NA	NA	NA	NA
2019/08/01 07:13:00	AWS2	11.68	28	14.04	28	M	M	M	NA	NA	1007.6	NA	NA		M	NA	NA	NA	NA
2019/08/01 07:14:00	AWS2	11.52	26	14.04	28	M	M	M	NA	NA	1007.6	NA	NA		M	NA	NA	NA	NA
2019/08/01 07:15:00	AWS2	10.70	27	14.04	28	M	M	M	NA	NA	1007.4	NA	NA		M	NA	NA	NA	NA
2019/08/01 07:16:00	AWS2	11.16	28	14.04	28	M	M	M	NA	NA	1007.3	NA	NA		M	NA	NA	NA	NA
2019/08/01 07:17:00	AWS2	12.01	24	14.04	28	M	M	M	NA	NA	1007.1	NA	NA		M	NA	NA	NA	NA
2019/08/01 07:18:00	AWS2	11.25	24	14.04	28	M	M	M	NA	NA	1007.4	NA	NA		M	NA	NA	NA	NA
2019/08/01 07:19:00	AWS2	10.03	29	14.04	28	M	M	M	NA	NA	1007.8	NA	NA		M	NA	NA	NA	NA
2019/08/01 07:20:00	AWS2	10.43	30	13.32	27	M	M	M	NA	NA	1007.4	NA	NA		M	NA	NA	NA	NA
2019/08/01 07:21:00	AWS2	11.68	28	13.32	27	M	M	M	NA	NA	1007.2	NA	NA		M	NA	NA	NA	NA
2019/08/01 07:22:00	AWS2	12.35	28	13.38	27	M	M	M	NA	NA	1006.9	NA	NA		M	NA	NA	NA	NA
2019/08/01 07:23:00	AWS2	12.21	26	13.74	28	M	M	M	NA	NA	1007.3	NA	NA		M	NA	NA	NA	NA
2019/08/01 07:24:00	AWS2	12.27	27	13.74	28	M	M	M	NA	NA	1006.7	NA	NA		M	NA	NA	NA	NA
2019/08/01 07:25:00	AWS2	11.77	25	13.74	28	M	M	M	NA	NA	1007.6	NA	NA		M	NA	NA	NA	NA
2019/08/01 07:26:00	AWS2	11.32	25	13.74	28	M	M	M	NA	NA	1006.9	NA	NA		M	NA	NA	NA	NA
2019/08/01 07:27:00	AWS2	11.42	29	13.74	28	M	M	M	NA	NA	1007.1	NA	NA		M	NA	NA	NA	NA
2019/08/01 07:28:00	AWS2	11.13	29	13.74	28	M	M	M	NA	NA	1007.4	NA	NA		M	NA	NA	NA	NA
2019/08/01 07:29:00	AWS2	11.30	25	13.74	28	M	M	M	NA	NA	1007.5	NA	NA		M	NA	NA	NA	NA
2019/08/01 07:30:00	AWS2	11.49	26	13.74	28	M	M	M	NA	NA	1007.2	NA	NA		M	NA	NA	NA	NA
2019/08/01 07:31:00	AWS2	11.82	30	13.74	28	M	M	M	NA	NA	1007.0	NA	NA		M	NA	NA	NA	NA
2019/08/01 07:32:00	AWS2	12.36	32	13.74	28	M	M	M	NA	NA	1007.1	NA	NA		M	NA	NA	NA	NA
2019/08/01 07:33:00	AWS2	12.95	29	13.99	27	M	M	M	NA	NA	1006.2	NA	NA		M	NA	NA	NA	NA
2019/08/01 07:34:00	AWS2	12.39	26	13.99	27	M	M	M	NA	NA	1007.3	NA	NA		M	NA	NA	NA	NA
2019/08/01 07:35:00	AWS2	11.94	27	13.99	27	M	M	M	NA	NA	1007.2	NA	NA		M	NA	NA	NA	NA
2019/08/01 07:36:00	AWS2	11.71	29	13.99	27	M	M	M	NA	NA	1007.4	NA	NA		M	NA	NA	NA	NA
2019/08/01 07:37:00	AWS2	10.65	28	13.99	27	M	M	M	NA	NA	1007.4	NA	NA		M	NA	NA	NA	NA
2019/08/01 07:38:00	AWS2	10.66	26	13.99	27	M	M	M	NA	NA	1007.2	NA	NA		M	NA	NA	NA	NA
2019/08/01 07:39:00	AWS2	10.24	29	13.99	27	M	M	M	NA	NA	1007.6	NA	NA		M	NA	NA	NA	NA
2019/08/01 07:40:00	AWS2	9.16	27	13.99	27	M	M	M	NA	NA	1007.7	NA	NA		M	NA	NA	NA	NA
2019/08/01 07:41:00	AWS2	10.04	21	13.99	27	M	M	M	NA	NA	1007.0	NA	NA		M	NA	NA	NA	NA
2019/08/01 07:42:00	AWS2	10.38	20	13.99	27	M	M	M	NA	NA	1007.3	NA	NA		M	NA	NA	NA	NA
2019/08/01 07:43:00	AWS2	10.16	20	13.12	29	M	M	M	NA	NA	1007.1	NA	NA		M	NA	NA	NA	NA
2019/08/01 07:44:00	AWS2	11.06	21	13.12	29	M	M	M	NA	NA	1007.0	NA	NA		M	NA	NA	NA	NA
2019/08/01 07:45:00	AWS2	11.15	25	12.50	34	M	M	M	NA	NA	1007.1	NA	NA		M	NA	NA	NA	NA
2019/08/01 07:46:00	AWS2	10.97	24	12.45	19	M	M	M	NA	NA	1007.1	NA	NA		M	NA	NA	NA	NA
2019/08/01 07:47:00	AWS2	11.94	22	13.74	27	M	M	M	NA	NA	1007.0	NA	NA		M	NA	NA	NA	NA
2019/08/01 07:48:00	AWS2	12.39	25	13.74	27	M	M	M	NA	NA	1006.8	NA	NA		M	NA	NA	NA	NA
2019/08/01 07:49:00	AWS2	11.79	24	13.74	27	M	M	M	NA	NA	1006.6	NA	NA		M	NA	NA	NA	NA
2019/08/01 07:50:00	AWS2	11.11	20	13.74	27	M	M	M	NA	NA	1007.3	NA	NA		M	NA	NA	NA	NA
2019/08/01 07:51:00	AWS2	10.96	18	13.74	27	M	M	M	NA	NA	1007.2	NA	NA		M	NA	NA	NA	NA
2019/08/01 07:52:00	AWS2	11.30	18	13.74	27	M	M	M	NA	NA	1007.3	NA	NA		M	NA	NA	NA	NA
2019/08/01 07:53:00	AWS2	10.97	21	13.74	27	M	M	M	NA	NA	1007.1	NA	NA		M	NA	NA	NA	NA
2019/08/01 07:54:00	AWS2	10.51	27	13.74	27	M	M	M	NA	NA	1006.9	NA	NA		M	NA	NA	NA	NA
2019/08/01 07:55:00	AWS2	10.50	27	13.74	27	M	M	M	NA	NA	1007.1	NA	NA		M	NA	NA	NA	NA
2019/08/01 07:56:00	AWS2	10.89	24	13.74	27	M	M	M	NA	NA	1007.2	NA	NA		M	NA	NA	NA	NA
2019/08/01 07:57:00	AWS2	11.39	25	14.20	28	M	M	M	NA	NA	1006.9	NA	NA		M	NA	NA	NA	NA
2019/08/01 07:58:00	AWS2	11.41	25	14.20	28	M	M	M	NA	NA	1006.5	NA	NA		M	NA	NA	NA	NA
2019/08/01 07:59:00	AWS2	10.93	23	14.20	28	M	M	M	NA	NA	1007.1	NA	NA		M	NA	NA	NA	NA
2019/08/01 08:00:00	AWS2	10.54	22	14.20	28	M	M	M	NA	NA	1007.0	NA	NA		M	NA	NA	NA	NA
2019/08/01 08:01:00	AWS2	10.09	23	14.20	28	M	M	M	NA	NA	1007.2	NA	NA		M	NA	NA	NA	NA
2019/08/01 08:02:00	AWS2	10.38	27	14.20	28	M	M	M	NA	NA	1007.2	NA	NA		M	NA	NA	NA	NA
2019/08/01 08:03:00	AWS2	10.89	29	14.20	28	M	M	M	NA	NA	1007.2	NA	NA		M	NA	NA	NA	NA
2019/08/01 08:04:00	AWS2	11.20	28	14.20	28	M	M	M	NA	NA	1006.9	NA	NA		M	NA	NA	NA	NA
2019/08/01 08:05:00	AWS2	12.02	26	14.20	28	M	M	M	NA	NA	1007.0	NA	NA		M	NA	NA	NA	NA
2019/08/01 08:06:00	AWS2	11.51	24	14.20	28	M	M	M	NA	NA	1007.2	NA	NA		M	NA	NA	NA	NA
2019/08/01 08:07:00	AWS2	10.83	26	13.27	23	M	M	M	NA	NA	1007.1	NA	NA		M	NA	NA	NA	NA
2019/08/01 08:08:00	AWS2	11.25	26	13.27	23	M	M	M	NA	NA	1007.1	NA	NA		M	NA	NA	NA	NA
2019/08/01 08:09:00	AWS2	11.08	24	13.27	23	M	M	M	NA	NA	1007.1	NA	NA		M	NA	NA	NA	NA
2019/08/01 08:10:00	AWS2	10.77	21	13.27	23	M	M	M	NA	NA	1006.8	NA	NA		M	NA	NA	NA	NA
2019/08/01 08:11:00	AWS2	10.38	14	13.27	23	M	M	M	NA	NA	1007.3	NA	NA		M	NA	NA	NA	NA
2019/08/01 08:12:00	AWS2	10.84	16	13.27	23	M	M	M	NA	NA	1006.7	NA	NA		M	NA	NA	NA	NA
2019/08/01 08:13:00	AWS2	11.53	21	13.27	23	M	M	M	NA	NA	1006.6	NA	NA		M	NA	NA	NA	NA
2019/08/01 08:14:00	AWS2	11.40	22	13.27	23	M	M	M	NA	NA	1006.7	NA	NA		M	NA	NA	NA	NA
2019/08/01 08:15:00	AWS2	11.65	21	13.02	19	M	M	M	NA	NA	1006.6	NA	NA		M	NA	NA	NA	NA
2019/08/01 08:16:00	AWS2	11.60	18	13.02	19	M	M	M	NA	NA	1006.9	NA	NA		M	NA	NA	NA	NA
2019/08/01 08:17:00	AWS2	11.03	16	13.02	19	M	M	M	NA	NA	1006.9	NA	NA		M	NA	NA	NA	NA
2019/08/01 08:18:00	AWS2	10.28	18	13.02	19	M	M	M	NA	NA	1007.0	NA	NA		M	NA	NA	NA	NA
2019/08/01 08:19:00	AWS2	11.11	23	13.58	25	M	M	M	NA	NA	1006.8	NA	NA		M	NA	NA	NA	NA
2019/08/01 08:20:00	AWS2	12.13	23	13.58	25	M	M	M	NA	NA	1006.6	NA	NA		M	NA	NA	NA	NA
2019/08/01 08:21:00	AWS2	11.47	19	13.58	25	M	M	M	NA	NA	1006.6	NA	NA		M	NA	NA	NA	NA
2019/08/01 08:22:00	AWS2	11.57	21	13.58	25	M	M	M	NA	NA	1006.8	NA	NA		M	NA	NA	NA	NA
2019/08/01 08:23:00	AWS2	11.77	23	13.58	25	M	M	M	NA	NA	1006.8	NA	NA		M	NA	NA	NA	NA
2019/08/01 08:24:00	AWS2	11.68	20	13.58	25	M	M	M	NA	NA	1006.6	NA	NA		M	NA	NA	NA	NA
2019/08/01 08:25:00	AWS2	11.70	17	13.58	25	M	M	M	NA	NA	1006.9	NA	NA		M	NA	NA	NA	NA
2019/08/01 08:26:00	AWS2	11.72	19	13.58	25	M	M	M	NA	NA	1006.2	NA	NA		M	NA	NA	NA	NA
2019/08/01 08:27:00	AWS2	11.60	23	13.58	25	M	M	M	NA	NA	1006.8	NA	NA		M	NA	NA	NA	NA
2019/08/01 08:28:00	AWS2	10.99	24	13.58	25	M	M	M	NA	NA	1006.7	NA	NA		M	NA	NA	NA	NA
2019/08/01 08:29:00	AWS2	11.12	27	13.48	16	M	M	M	NA	NA	1006.5	NA	NA		M	NA	NA	NA	NA
2019/08/01 08:30:00	AWS2	11.59	28	13.48	16	M	M	M	NA	NA	1006.6	NA	NA		M	NA	NA	NA	NA
2019/08/01 08:31:00	AWS2	11.62	25	12.86	20	M	M	M	NA	NA	1006.6	NA	NA		M	NA	NA	NA	NA
2019/08/01 08:32:00	AWS2	11.08	20	12.86	20	M	M	M	NA	NA	1006.8	NA	NA		M	NA	NA	NA	NA
2019/08/01 08:33:00	AWS2	10.74	18	12.86	20	M	M	M	NA	NA	1006.5	NA	NA		M	NA	NA	NA	NA
2019/08/01 08:34:00	AWS2	11.05	16	12.81	25	M	M	M	NA	NA	1006.3	NA	NA		M	NA	NA	NA	NA
2019/08/01 08:35:00	AWS2	10.74	14	12.81	25	M	M	M	NA	NA	1006.2	NA	NA		M	NA	NA	NA	NA
2019/08/01 08:36:00	AWS2	10.50	18	12.60	18	M	M	M	NA	NA	1006.5	NA	NA		M	NA	NA	NA	NA
2019/08/01 08:37:00	AWS2	11.13	18	12.71	9	M	M	M	NA	NA	1006.4	NA	NA		M	NA	NA	NA	NA
2019/08/01 08:38:00	AWS2	11.61	15	12.71	9	M	M	M	NA	NA	1006.1	NA	NA		M	NA	NA	NA	NA
2019/08/01 08:39:00	AWS2	11.39	14	12.71	9	M	M	M	NA	NA	1006.3	NA	NA		M	NA	NA	NA	NA
2019/08/01 08:40:00	AWS2	11.17	18	12.71	9	M	M	M	NA	NA	1006.0	NA	NA		M	NA	NA	NA	NA
2019/08/01 08:41:00	AWS2	11.33	22	12.71	9	M	M	M	NA	NA	1006.2	NA	NA		M	NA	NA	NA	NA
2019/08/01 08:42:00	AWS2	11.55	24	12.71	9	M	M	M	NA	NA	1006.2	NA	NA		M	NA	NA	NA	NA
2019/08/01 08:43:00	AWS2	11.97	24	12.91	23	M	M	M	NA	NA	1006.2	NA	NA		M	NA	NA	NA	NA
2019/08/01 08:44:00	AWS2	11.71	21	12.91	23	M	M	M	NA	NA	1005.9	NA	NA		M	NA	NA	NA	NA
2019/08/01 08:45:00	AWS2	11.30	22	12.91	23	M	M	M	NA	NA	1006.2	NA	NA		M	NA	NA	NA	NA
2019/08/01 08:46:00	AWS2	11.77	24	13.17	30	M	M	M	NA	NA	1006.1	NA	NA		M	NA	NA	NA	NA
2019/08/01 08:47:00	AWS2	11.29	22	13.17	30	M	M	M	NA	NA	1006.4	NA	NA		M	NA	NA	NA	NA
2019/08/01 08:48:00	AWS2	11.17	22	13.17	30	M	M	M	NA	NA	1006.2	NA	NA		M	NA	NA	NA	NA
2019/08/01 08:49:00	AWS2	11.78	21	13.17	30	M	M	M	NA	NA	1006.3	NA	NA		M	NA	NA	NA	NA
2019/08/01 08:50:00	AWS2	11.48	17	13.17	30	M	M	M	NA	NA	1005.9	NA	NA		M	NA	NA	NA	NA
2019/08/01 08:51:00	AWS2	11.03	14	13.17	30	M	M	M	NA	NA	1006.5	NA	NA		M	NA	NA	NA	NA
2019/08/01 08:52:00	AWS2	10.90	17	13.17	30	M	M	M	NA	NA	1006.0	NA	NA		M	NA	NA	NA	NA
2019/08/01 08:53:00	AWS2	11.01	18	13.17	30	M	M	M	NA	NA	1006.2	NA	NA		M	NA	NA	NA	NA
2019/08/01 08:54:00	AWS2	11.27	19	13.17	30	M	M	M	NA	NA	1006.0	NA	NA		M	NA	NA	NA	NA
2019/08/01 08:55:00	AWS2	10.44	24	13.17	30	M	M	M	NA	NA	1006.6	NA	NA		M	NA	NA	NA	NA
2019/08/01 08:56:00	AWS2	9.80	26	12.91	14	M	M	M	NA	NA	1005.9	NA	NA		M	NA	NA	NA	NA
2019/08/01 08:57:00	AWS2	10.29	27	12.91	14	M	M	M	NA	NA	1006.6	NA	NA		M	NA	NA	NA	NA
2019/08/01 08:58:00	AWS2	11.16	25	12.91	14	M	M	M	NA	NA	1006.3	NA	NA		M	NA	NA	NA	NA
2019/08/01 08:59:00	AWS2	11.34	22	12.91	14	M	M	M	NA	NA	1005.8	NA	NA		M	NA	NA	NA	NA
2019/08/01 09:00:00	AWS2	10.71	25	12.81	26	M	M	M	NA	NA	1006.4	NA	NA		M	NA	NA	NA	NA
2019/08/01 09:01:00	AWS2	10.25	28	12.81	26	M	M	M	NA	NA	1006.5	NA	NA		M	NA	NA	NA	NA
2019/08/01 09:02:00	AWS2	10.23	28	12.81	26	M	M	M	NA	NA	1006.3	NA	NA		M	NA	NA	NA	NA
2019/08/01 09:03:00	AWS2	10.64	26	12.81	26	M	M	M	NA	NA	1006.1	NA	NA		M	NA	NA	NA	NA
2019/08/01 09:04:00	AWS2	10.89	23	13.22	24	M	M	M	NA	NA	1006.5	NA	NA		M	NA	NA	NA	NA
2019/08/01 09:05:00	AWS2	11.34	27	13.22	24	M	M	M	NA	NA	1006.2	NA	NA		M	NA	NA	NA	NA
2019/08/01 09:06:00	AWS2	11.57	30	13.22	24	M	M	M	NA	NA	1005.6	NA	NA		M	NA	NA	NA	NA
2019/08/01 09:07:00	AWS2	10.94	29	13.22	24	M	M	M	NA	NA	1006.1	NA	NA		M	NA	NA	NA	NA
2019/08/01 09:08:00	AWS2	9.99	32	13.22	24	M	M	M	NA	NA	1006.5	NA	NA		M	NA	NA	NA	NA
2019/08/01 09:09:00	AWS2	9.12	33	13.22	24	M	M	M	NA	NA	1006.4	NA	NA		M	NA	NA	NA	NA
2019/08/01 09:10:00	AWS2	9.32	30	13.22	24	M	M	M	NA	NA	1006.3	NA	NA		M	NA	NA	NA	NA
2019/08/01 09:11:00	AWS2	9.65	28	13.22	24	M	M	M	NA	NA	1006.2	NA	NA		M	NA	NA	NA	NA
2019/08/01 09:12:00	AWS2	9.89	28	13.22	24	M	M	M	NA	NA	1006.3	NA	NA		M	NA	NA	NA	NA
2019/08/01 09:13:00	AWS2	10.43	27	13.22	24	M	M	M	NA	NA	1006.2	NA	NA		M	NA	NA	NA	NA
2019/08/01 09:14:00	AWS2	10.16	26	13.12	28	M	M	M	NA	NA	1006.3	NA	NA		M	NA	NA	NA	NA
2019/08/01 09:15:00	AWS2	9.38	27	13.12	28	M	M	M	NA	NA	1006.5	NA	NA		M	NA	NA	NA	NA
2019/08/01 09:16:00	AWS2	9.46	28	11.88	26	M	M	M	NA	NA	1005.9	NA	NA		M	NA	NA	NA	NA
2019/08/01 09:17:00	AWS2	9.85	27	11.88	26	M	M	M	NA	NA	1006.3	NA	NA		M	NA	NA	NA	NA
2019/08/01 09:18:00	AWS2	9.58	28	11.88	26	M	M	M	NA	NA	1006.2	NA	NA		M	NA	NA	NA	NA
2019/08/01 09:19:00	AWS2	9.03	30	11.88	26	M	M	M	NA	NA	1006.4	NA	NA		M	NA	NA	NA	NA
2019/08/01 09:20:00	AWS2	9.08	30	11.88	26	M	M	M	NA	NA	1006.2	NA	NA		M	NA	NA	NA	NA
2019/08/01 09:21:00	AWS2	9.81	30	11.88	26	M	M	M	NA	NA	1006.4	NA	NA		M	NA	NA	NA	NA
2019/08/01 09:22:00	AWS2	9.64	27	11.88	26	M	M	M	NA	NA	1005.9	NA	NA		M	NA	NA	NA	NA
2019/08/01 09:23:00	AWS2	9.10	25	11.88	26	M	M	M	NA	NA	1006.4	NA	NA		M	NA	NA	NA	NA
2019/08/01 09:24:00	AWS2	9.30	29	11.11	33	M	M	M	NA	NA	1006.2	NA	NA		M	NA	NA	NA	NA
2019/08/01 09:25:00	AWS2	9.48	31	11.11	33	M	M	M	NA	NA	1006.4	NA	NA		M	NA	NA	NA	NA
2019/08/01 09:26:00	AWS2	9.46	30	10.96	32	M	M	M	NA	NA	1006.3	NA	NA		M	NA	NA	NA	NA
2019/08/01 09:27:00	AWS2	9.23	31	12.19	29	M	M	M	NA	NA	1006.4	NA	NA		M	NA	NA	NA	NA
2019/08/01 09:28:00	AWS2	9.63	30	12.19	29	M	M	M	NA	NA	1006.1	NA	NA		M	NA	NA	NA	NA
2019/08/01 09:29:00	AWS2	10.19	26	12.19	29	M	M	M	NA	NA	1006.1	NA	NA		M	NA	NA	NA	NA
2019/08/01 09:30:00	AWS2	9.83	26	12.19	29	M	M	M	NA	NA	1006.3	NA	NA		M	NA	NA	NA	NA
2019/08/01 09:31:00	AWS2	9.89	22	12.19	29	M	M	M	NA	NA	1005.7	NA	NA		M	NA	NA	NA	NA
2019/08/01 09:32:00	AWS2	10.11	18	12.19	29	M	M	M	NA	NA	1005.8	NA	NA		M	NA	NA	NA	NA
2019/08/01 09:33:03	AWS2	10.02	15	12.19	29	M	M	M	NA	NA	1005.6	NA	NA		M	NA	NA	NA	NA
2019/08/01 09:34:00	AWS2	9.15	17	12.19	29	M	M	M	NA	NA	1006.0	NA	NA		M	NA	NA	NA	NA
2019/08/01 09:35:00	AWS2	8.72	18	12.19	29	M	M	M	NA	NA	1006.3	NA	NA		M	NA	NA	NA	NA
2019/08/01 09:36:00	AWS2	9.13	19	12.19	29	M	M	M	NA	NA	1005.8	NA	NA		M	NA	NA	NA	NA
2019/08/01 09:37:00	AWS2	9.76	17	12.19	29	M	M	M	NA	NA	1006.0	NA	NA		M	NA	NA	NA	NA
2019/08/01 09:38:00	AWS2	9.96	16	12.14	22	M	M	M	NA	NA	1006.0	NA	NA		M	NA	NA	NA	NA
2019/08/01 09:39:00	AWS2	9.67	22	12.14	22	M	M	M	NA	NA	1006.1	NA	NA		M	NA	NA	NA	NA
2019/08/01 09:40:00	AWS2	9.35	24	12.14	22	M	M	M	NA	NA	1006.3	NA	NA		M	NA	NA	NA	NA
2019/08/01 09:41:00	AWS2	9.16	27	12.14	22	M	M	M	NA	NA	1006.0	NA	NA		M	NA	NA	NA	NA
2019/08/01 09:42:00	AWS2	9.30	26	12.14	22	M	M	M	NA	NA	1006.0	NA	NA		M	NA	NA	NA	NA
2019/08/01 09:43:00	AWS2	9.41	22	12.14	22	M	M	M	NA	NA	1005.7	NA	NA		M	NA	NA	NA	NA
2019/08/01 09:44:00	AWS2	9.63	22	12.14	22	M	M	M	NA	NA	1005.7	NA	NA		M	NA	NA	NA	NA
2019/08/01 09:45:00	AWS2	9.97	23	12.14	22	M	M	M	NA	NA	1005.7	NA	NA		M	NA	NA	NA	NA
2019/08/01 09:46:00	AWS2	10.49	23	12.14	22	M	M	M	NA	NA	1005.6	NA	NA		M	NA	NA	NA	NA
2019/08/01 09:47:00	AWS2	10.75	22	12.55	10	M	M	M	NA	NA	1005.3	NA	NA		M	NA	NA	NA	NA
2019/08/01 09:48:00	AWS2	11.19	25	12.91	33	M	M	M	NA	NA	1005.4	NA	NA		M	NA	NA	NA	NA
2019/08/01 09:49:00	AWS2	11.56	26	12.91	33	M	M	M	NA	NA	1005.5	NA	NA		M	NA	NA	NA	NA
2019/08/01 09:50:00	AWS2	11.15	27	12.91	33	M	M	M	NA	NA	1005.3	NA	NA		M	NA	NA	NA	NA
2019/08/01 09:51:00	AWS2	10.86	26	12.91	33	M	M	M	NA	NA	1005.6	NA	NA		M	NA	NA	NA	NA
2019/08/01 09:52:00	AWS2	10.80	23	12.91	33	M	M	M	NA	NA	1005.7	NA	NA		M	NA	NA	NA	NA
2019/08/01 09:53:00	AWS2	11.03	24	12.91	33	M	M	M	NA	NA	1005.3	NA	NA		M	NA	NA	NA	NA
2019/08/01 09:54:00	AWS2	11.38	24	12.91	33	M	M	M	NA	NA	1005.2	NA	NA		M	NA	NA	NA	NA
2019/08/01 09:55:00	AWS2	11.61	24	12.91	33	M	M	M	NA	NA	1005.4	NA	NA		M	NA	NA	NA	NA
2019/08/01 09:56:00	AWS2	11.21	20	12.91	33	M	M	M	NA	NA	1005.6	NA	NA		M	NA	NA	NA	NA
2019/08/01 09:57:00	AWS2	10.50	17	12.91	33	M	M	M	NA	NA	1005.2	NA	NA		M	NA	NA	NA	NA
2019/08/01 09:58:00	AWS2	10.41	22	12.60	26	M	M	M	NA	NA	1005.5	NA	NA		M	NA	NA	NA	NA
2019/08/01 09:59:00	AWS2	10.87	24	12.45	27	M	M	M	NA	NA	1005.0	NA	NA		M	NA	NA	NA	NA
2019/08/01 10:00:00	AWS2	10.69	21	12.45	27	M	M	M	NA	NA	1004.9	NA	NA		M	NA	NA	NA	NA
2019/08/01 10:01:00	AWS2	10.71	22	12.24	25	M	M	M	NA	NA	1004.6	NA	NA		M	NA	NA	NA	NA
2019/08/01 10:02:00	AWS2	11.33	25	12.60	25	M	M	M	NA	NA	1005.3	NA	NA		M	NA	NA	NA	NA
2019/08/01 10:03:00	AWS2	11.91	24	13.53	22	M	M	M	NA	NA	1004.9	NA	NA		M	NA	NA	NA	NA
2019/08/01 10:04:00	AWS2	12.09	18	13.53	22	M	M	M	NA	NA	1005.1	NA	NA		M	NA	NA	NA	NA
2019/08/01 10:05:00	AWS2	11.73	15	13.53	22	M	M	M	NA	NA	1005.0	NA	NA		M	NA	NA	NA	NA
2019/08/01 10:06:00	AWS2	11.59	15	13.53	22	M	M	M	NA	NA	1005.4	NA	NA		M	NA	NA	NA	NA
2019/08/01 10:07:00	AWS2	11.20	17	13.53	22	M	M	M	NA	NA	1005.4	NA	NA		M	NA	NA	NA	NA
2019/08/01 10:08:00	AWS2	10.84	20	13.53	22	M	M	M	NA	NA	1004.8	NA	NA		M	NA	NA	NA	NA
2019/08/01 10:09:00	AWS2	10.53	21	13.53	22	M	M	M	NA	NA	1005.4	NA	NA		M	NA	NA	NA	NA
2019/08/01 10:10:00	AWS2	10.43	18	13.53	22	M	M	M	NA	NA	1005.2	NA	NA		M	NA	NA	NA	NA
2019/08/01 10:11:00	AWS2	10.21	20	13.53	22	M	M	M	NA	NA	1005.5	NA	NA		M	NA	NA	NA	NA
2019/08/01 10:12:00	AWS2	10.44	24	13.53	22	M	M	M	NA	NA	1005.2	NA	NA		M	NA	NA	NA	NA
2019/08/01 10:13:00	AWS2	10.74	25	12.76	11	M	M	M	NA	NA	1004.7	NA	NA		M	NA	NA	NA	NA
2019/08/01 10:14:00	AWS2	10.72	26	12.60	8	M	M	M	NA	NA	1005.0	NA	NA		M	NA	NA	NA	NA
2019/08/01 10:15:00	AWS2	10.57	25	12.04	10	M	M	M	NA	NA	1005.5	NA	NA		M	NA	NA	NA	NA
2019/08/01 10:16:00	AWS2	10.42	26	11.73	26	M	M	M	NA	NA	1005.3	NA	NA		M	NA	NA	NA	NA
2019/08/01 10:17:00	AWS2	10.72	25	11.73	26	M	M	M	NA	NA	1005.2	NA	NA		M	NA	NA	NA	NA
2019/08/01 10:18:00	AWS2	11.06	24	12.19	19	M	M	M	NA	NA	1005.2	NA	NA		M	NA	NA	NA	NA
2019/08/01 10:19:00	AWS2	10.94	26	12.19	19	M	M	M	NA	NA	1005.5	NA	NA		M	NA	NA	NA	NA
2019/08/01 10:20:00	AWS2	10.49	28	12.19	19	M	M	M	NA	NA	1005.5	NA	NA		M	NA	NA	NA	NA
2019/08/01 10:21:00	AWS2	10.76	28	12.91	28	M	M	M	NA	NA	1005.2	NA	NA		M	NA	NA	NA	NA
2019/08/01 10:22:00	AWS2	10.97	28	12.91	28	M	M	M	NA	NA	1005.2	NA	NA		M	NA	NA	NA	NA
2019/08/01 10:23:00	AWS2	11.09	27	12.91	28	M	M	M	NA	NA	1005.1	NA	NA		M	NA	NA	NA	NA
2019/08/01 10:24:00	AWS2	11.29	25	12.91	28	M	M	M	NA	NA	1004.9	NA	NA		M	NA	NA	NA	NA
2019/08/01 10:25:00	AWS2	11.24	25	12.91	28	M	M	M	NA	NA	1005.2	NA	NA		M	NA	NA	NA	NA
2019/08/01 10:26:00	AWS2	11.47	23	13.48	14	M	M	M	NA	NA	1005.1	NA	NA		M	NA	NA	NA	NA
2019/08/01 10:27:00	AWS2	12.53	21	14.15	25	M	M	M	NA	NA	1004.6	NA	NA		M	NA	NA	NA	NA
2019/08/01 10:28:00	AWS2	12.41	22	14.15	25	M	M	M	NA	NA	1005.1	NA	NA		M	NA	NA	NA	NA
2019/08/01 10:29:00	AWS2	11.97	19	14.15	25	M	M	M	NA	NA	1004.8	NA	NA		M	NA	NA	NA	NA
2019/08/01 10:30:00	AWS2	12.98	21	14.97	23	M	M	M	NA	NA	1005.1	NA	NA		M	NA	NA	NA	NA
2019/08/01 10:31:00	AWS2	12.62	21	14.97	23	M	M	M	NA	NA	1005.1	NA	NA		M	NA	NA	NA	NA
2019/08/01 10:32:00	AWS2	12.01	21	14.97	23	M	M	M	NA	NA	1004.9	NA	NA		M	NA	NA	NA	NA
2019/08/01 10:33:00	AWS2	11.92	22	14.97	23	M	M	M	NA	NA	1005.1	NA	NA		M	NA	NA	NA	NA
2019/08/01 10:34:00	AWS2	11.28	22	14.97	23	M	M	M	NA	NA	1005.1	NA	NA		M	NA	NA	NA	NA
2019/08/01 10:35:00	AWS2	11.22	21	14.97	23	M	M	M	NA	NA	1005.0	NA	NA		M	NA	NA	NA	NA
2019/08/01 10:36:00	AWS2	11.37	22	14.97	23	M	M	M	NA	NA	1005.0	NA	NA		M	NA	NA	NA	NA
2019/08/01 10:37:00	AWS2	11.24	22	14.97	23	M	M	M	NA	NA	1005.0	NA	NA		M	NA	NA	NA	NA
2019/08/01 10:38:00	AWS2	11.25	20	14.97	23	M	M	M	NA	NA	1004.8	NA	NA		M	NA	NA	NA	NA
2019/08/01 10:39:00	AWS2	11.43	22	14.97	23	M	M	M	NA	NA	1004.5	NA	NA		M	NA	NA	NA	NA
2019/08/01 10:40:00	AWS2	11.55	24	13.12	26	M	M	M	NA	NA	1004.8	NA	NA		M	NA	NA	NA	NA
2019/08/01 10:41:00	AWS2	11.50	24	13.12	26	M	M	M	NA	NA	1004.5	NA	NA		M	NA	NA	NA	NA
2019/08/01 10:42:00	AWS2	11.12	23	13.12	26	M	M	M	NA	NA	1004.9	NA	NA		M	NA	NA	NA	NA
2019/08/01 10:43:00	AWS2	10.61	22	13.02	26	M	M	M	NA	NA	1005.0	NA	NA		M	NA	NA	NA	NA
2019/08/01 10:44:00	AWS2	10.93	24	13.02	26	M	M	M	NA	NA	1004.8	NA	NA		M	NA	NA	NA	NA
2019/08/01 10:45:00	AWS2	11.33	22	13.02	26	M	M	M	NA	NA	1004.8	NA	NA		M	NA	NA	NA	NA
2019/08/01 10:46:00	AWS2	11.42	19	13.22	23	M	M	M	NA	NA	1004.8	NA	NA		M	NA	NA	NA	NA
2019/08/01 10:47:00	AWS2	11.52	18	13.22	23	M	M	M	NA	NA	1005.0	NA	NA		M	NA	NA	NA	NA
2019/08/01 10:48:00	AWS2	11.65	16	13.22	23	M	M	M	NA	NA	1004.8	NA	NA		M	NA	NA	NA	NA
2019/08/01 10:49:00	AWS2	12.23	16	13.53	17	M	M	M	NA	NA	1004.4	NA	NA		M	NA	NA	NA	NA
2019/08/01 10:50:00	AWS2	13.02	16	14.82	18	M	M	M	NA	NA	1004.5	NA	NA		M	NA	NA	NA	NA
2019/08/01 10:51:00	AWS2	12.90	18	14.82	18	M	M	M	NA	NA	1004.8	NA	NA		M	NA	NA	NA	NA
2019/08/01 10:52:00	AWS2	12.43	17	14.82	18	M	M	M	NA	NA	1004.6	NA	NA		M	NA	NA	NA	NA
2019/08/01 10:53:00	AWS2	11.90	17	14.82	18	M	M	M	NA	NA	1004.1	NA	NA		M	NA	NA	NA	NA
2019/08/01 10:54:00	AWS2	11.78	19	14.82	18	M	M	M	NA	NA	1004.5	NA	NA		M	NA	NA	NA	NA
2019/08/01 10:55:00	AWS2	12.54	22	14.82	18	M	M	M	NA	NA	1004.4	NA	NA		M	NA	NA	NA	NA
2019/08/01 10:56:00	AWS2	13.07	25	14.82	21	M	M	M	NA	NA	1004.3	NA	NA		M	NA	NA	NA	NA
2019/08/01 10:57:00	AWS2	13.41	22	14.82	21	M	M	M	NA	NA	1004.4	NA	NA		M	NA	NA	NA	NA
2019/08/01 10:58:00	AWS2	12.60	20	14.82	21	M	M	M	NA	NA	1004.6	NA	NA		M	NA	NA	NA	NA
2019/08/01 10:59:00	AWS2	12.53	19	14.82	21	M	M	M	NA	NA	1004.4	NA	NA		M	NA	NA	NA	NA
2019/08/01 11:00:00	AWS2	13.38	20	14.82	21	M	M	M	NA	NA	1004.5	NA	NA		M	NA	NA	NA	NA
2019/08/01 11:01:00	AWS2	12.63	20	14.82	21	M	M	M	NA	NA	1003.9	NA	NA		M	NA	NA	NA	NA
2019/08/01 11:02:00	AWS2	12.65	22	14.92	24	M	M	M	NA	NA	1004.1	NA	NA		M	NA	NA	NA	NA
2019/08/01 11:03:00	AWS2	13.42	25	14.92	24	M	M	M	NA	NA	1004.2	NA	NA		M	NA	NA	NA	NA
2019/08/01 11:04:00	AWS2	12.58	22	14.92	24	M	M	M	NA	NA	1004.4	NA	NA		M	NA	NA	NA	NA
2019/08/01 11:05:01	AWS2	12.95	22	15.95	21	M	M	M	NA	NA	1003.7	NA	NA		M	NA	NA	NA	NA
2019/08/01 11:06:01	AWS2	13.81	23	15.95	21	M	M	M	NA	NA	1004.5	NA	NA		M	NA	NA	NA	NA
2019/08/01 11:07:01	AWS2	13.51	24	15.95	21	M	M	M	NA	NA	1004.3	NA	NA		M	NA	NA	NA	NA
2019/08/01 11:08:01	AWS2	13.72	23	15.95	21	M	M	M	NA	NA	1004.3	NA	NA		M	NA	NA	NA	NA
2019/08/01 11:09:06	AWS2	13.32	20	15.95	21	M	M	M	NA	NA	1004.3	NA	NA		M	NA	NA	NA	NA
2019/08/01 11:10:01	AWS2	12.30	20	15.95	21	M	M	M	NA	NA	1004.6	NA	NA		M	NA	NA	NA	NA
2019/08/01 11:11:01	AWS2	12.78	22	15.95	21	M	M	M	NA	NA	1004.2	NA	NA		M	NA	NA	NA	NA
2019/08/01 11:12:01	AWS2	13.59	24	15.95	21	M	M	M	NA	NA	1004.3	NA	NA		M	NA	NA	NA	NA
2019/08/01 11:13:01	AWS2	13.39	26	15.95	21	M	M	M	NA	NA	1004.4	NA	NA		M	NA	NA	NA	NA
2019/08/01 11:14:01	AWS2	13.80	26	15.95	21	M	M	M	NA	NA	1004.2	NA	NA		M	NA	NA	NA	NA
2019/08/01 11:15:01	AWS2	14.03	25	14.92	26	M	M	M	NA	NA	1004.3	NA	NA		M	NA	NA	NA	NA
2019/08/01 11:16:01	AWS2	13.14	28	14.92	26	M	M	M	NA	NA	1004.8	NA	NA		M	NA	NA	NA	NA
2019/08/01 11:17:01	AWS2	12.91	25	14.92	26	M	M	M	NA	NA	1004.1	NA	NA		M	NA	NA	NA	NA
2019/08/01 11:18:01	AWS2	12.77	26	14.92	26	M	M	M	NA	NA	1004.8	NA	NA		M	NA	NA	NA	NA
2019/08/01 11:19:01	AWS2	12.20	29	14.92	26	M	M	M	NA	NA	1004.7	NA	NA		M	NA	NA	NA	NA
2019/08/01 11:20:01	AWS2	12.86	24	15.43	21	M	M	M	NA	NA	1004.4	NA	NA		M	NA	NA	NA	NA
2019/08/01 11:21:01	AWS2	13.67	21	15.43	21	M	M	M	NA	NA	1004.3	NA	NA		M	NA	NA	NA	NA
2019/08/01 11:22:01	AWS2	12.77	26	15.43	21	M	M	M	NA	NA	1004.6	NA	NA		M	NA	NA	NA	NA
2019/08/01 11:23:01	AWS2	11.84	28	15.43	21	M	M	M	NA	NA	1004.7	NA	NA		M	NA	NA	NA	NA
2019/08/01 11:24:01	AWS2	11.95	27	15.43	21	M	M	M	NA	NA	1004.8	NA	NA		M	NA	NA	NA	NA
2019/08/01 11:25:01	AWS2	11.06	27	15.43	21	M	M	M	NA	NA	1005.1	NA	NA		M	NA	NA	NA	NA
2019/08/01 11:26:01	AWS2	9.85	30	15.43	21	M	M	M	NA	NA	1005.1	NA	NA		M	NA	NA	NA	NA
2019/08/01 11:27:01	AWS2	9.80	33	15.43	21	M	M	M	NA	NA	1005.0	NA	NA		M	NA	NA	NA	NA
2019/08/01 11:28:01	AWS2	9.69	34	15.43	21	M	M	M	NA	NA	1004.8	NA	NA		M	NA	NA	NA	NA
2019/08/01 11:29:01	AWS2	9.36	42	15.43	21	M	M	M	NA	NA	1005.0	NA	NA		M	NA	NA	NA	NA
2019/08/01 11:30:01	AWS2	9.49	46	15.18	25	M	M	M	NA	NA	1005.0	NA	NA		M	NA	NA	NA	NA
2019/08/01 11:31:01	AWS2	9.67	40	13.53	29	M	M	M	NA	NA	1004.9	NA	NA		M	NA	NA	NA	NA
2019/08/01 11:32:01	AWS2	10.38	33	13.53	29	M	M	M	NA	NA	1004.9	NA	NA		M	NA	NA	NA	NA
2019/08/01 11:33:01	AWS2	10.40	29	12.91	24	M	M	M	NA	NA	1004.9	NA	NA		M	NA	NA	NA	NA
2019/08/01 11:34:01	AWS2	9.80	26	12.30	32	M	M	M	NA	NA	1005.0	NA	NA		M	NA	NA	NA	NA
2019/08/01 11:35:00	AWS2	9.34	23	12.30	32	M	M	M	NA	NA	1005.1	NA	NA		M	NA	NA	NA	NA
2019/08/01 11:36:00	AWS2	9.16	25	12.30	32	M	M	M	NA	NA	1005.0	NA	NA		M	NA	NA	NA	NA
2019/08/01 11:37:00	AWS2	9.35	29	12.30	32	M	M	M	NA	NA	1004.8	NA	NA		M	NA	NA	NA	NA
2019/08/01 11:38:00	AWS2	9.50	29	12.30	32	M	M	M	NA	NA	1004.9	NA	NA		M	NA	NA	NA	NA
2019/08/01 11:39:00	AWS2	9.67	26	12.30	32	M	M	M	NA	NA	1004.3	NA	NA		M	NA	NA	NA	NA
2019/08/01 11:40:00	AWS2	9.19	25	12.30	32	M	M	M	NA	NA	1004.4	NA	NA		M	NA	NA	NA	NA
2019/08/01 11:41:00	AWS2	9.13	23	12.30	32	M	M	M	NA	NA	1004.8	NA	NA		M	NA	NA	NA	NA
2019/08/01 11:42:00	AWS2	9.58	25	11.78	30	M	M	M	NA	NA	1004.8	NA	NA		M	NA	NA	NA	NA
2019/08/01 11:43:00	AWS2	10.40	25	13.38	21	M	M	M	NA	NA	1004.6	NA	NA		M	NA	NA	NA	NA
2019/08/01 11:44:00	AWS2	10.45	26	13.38	21	M	M	M	NA	NA	1004.2	NA	NA		M	NA	NA	NA	NA
2019/08/01 11:45:00	AWS2	9.68	29	13.38	21	M	M	M	NA	NA	1004.7	NA	NA		M	NA	NA	NA	NA
2019/08/01 11:46:00	AWS2	9.56	28	13.38	21	M	M	M	NA	NA	1004.4	NA	NA		M	NA	NA	NA	NA
2019/08/01 11:47:01	AWS2	9.28	22	13.38	21	M	M	M	NA	NA	1005.0	NA	NA		M	NA	NA	NA	NA
2019/08/01 11:48:01	AWS2	9.31	20	13.38	21	M	M	M	NA	NA	1004.9	NA	NA		M	NA	NA	NA	NA
2019/08/01 11:49:01	AWS2	9.98	20	13.38	21	M	M	M	NA	NA	1004.9	NA	NA		M	NA	NA	NA	NA
2019/08/01 11:50:01	AWS2	10.58	14	13.38	21	M	M	M	NA	NA	1004.4	NA	NA		M	NA	NA	NA	NA
2019/08/01 11:51:01	AWS2	11.50	13	13.38	21	M	M	M	NA	NA	1004.2	NA	NA		M	NA	NA	NA	NA
2019/08/01 11:52:01	AWS2	11.80	19	13.38	21	M	M	M	NA	NA	1004.2	NA	NA		M	NA	NA	NA	NA
2019/08/01 11:53:01	AWS2	10.93	23	13.22	26	M	M	M	NA	NA	1004.5	NA	NA		M	NA	NA	NA	NA
2019/08/01 11:54:01	AWS2	10.85	25	13.22	26	M	M	M	NA	NA	1004.6	NA	NA		M	NA	NA	NA	NA
2019/08/01 11:55:01	AWS2	10.92	26	13.22	26	M	M	M	NA	NA	1004.7	NA	NA		M	NA	NA	NA	NA
2019/08/01 11:56:01	AWS2	10.20	20	13.22	26	M	M	M	NA	NA	1004.7	NA	NA		M	NA	NA	NA	NA
2019/08/01 11:58:00	AWS2	9.98	21	13.22	26	M	M	M	NA	NA	1004.5	NA	NA		M	NA	NA	NA	NA
2019/08/01 11:59:00	AWS2	9.86	20	13.22	26	M	M	M	NA	NA	1004.6	NA	NA		M	NA	NA	NA	NA
2019/08/01 12:00:00	AWS2	9.90	16	13.22	26	M	M	M	NA	NA	1004.5	NA	NA		M	NA	NA	NA	NA
2019/08/01 12:01:00	AWS2	9.80	19	13.22	26	M	M	M	NA	NA	1004.2	NA	NA		M	NA	NA	NA	NA
2019/08/01 12:02:00	AWS2	9.99	21	12.71	25	M	M	M	NA	NA	1004.3	NA	NA		M	NA	NA	NA	NA
2019/08/01 12:03:00	AWS2	9.92	15	12.71	25	M	M	M	NA	NA	1004.6	NA	NA		M	NA	NA	NA	NA
2019/08/01 12:04:00	AWS2	9.45	16	12.71	25	M	M	M	NA	NA	1004.6	NA	NA		M	NA	NA	NA	NA
2019/08/01 12:05:00	AWS2	9.28	25	11.52	13	M	M	M	NA	NA	1004.5	NA	NA		M	NA	NA	NA	NA
2019/08/01 12:06:00	AWS2	8.93	29	11.52	13	M	M	M	NA	NA	1004.7	NA	NA		M	NA	NA	NA	NA
2019/08/01 12:07:00	AWS2	8.65	24	11.52	13	M	M	M	NA	NA	1004.5	NA	NA		M	NA	NA	NA	NA
2019/08/01 12:08:00	AWS2	9.04	19	11.52	13	M	M	M	NA	NA	1004.5	NA	NA		M	NA	NA	NA	NA
2019/08/01 12:09:00	AWS2	9.53	21	11.52	13	M	M	M	NA	NA	1004.1	NA	NA		M	NA	NA	NA	NA
2019/08/01 12:10:00	AWS2	10.31	23	12.04	16	M	M	M	NA	NA	1004.1	NA	NA		M	NA	NA	NA	NA
2019/08/01 12:11:00	AWS2	10.72	17	12.04	16	M	M	M	NA	NA	1004.5	NA	NA		M	NA	NA	NA	NA
2019/08/01 12:12:00	AWS2	10.11	18	12.04	16	M	M	M	NA	NA	1004.2	NA	NA		M	NA	NA	NA	NA
2019/08/01 12:13:00	AWS2	10.41	20	13.58	16	M	M	M	NA	NA	1003.8	NA	NA		M	NA	NA	NA	NA
2019/08/01 12:14:00	AWS2	12.01	20	14.35	12	M	M	M	NA	NA	1003.8	NA	NA		M	NA	NA	NA	NA
2019/08/01 12:15:00	AWS2	12.58	21	14.35	12	M	M	M	NA	NA	1003.8	NA	NA		M	NA	NA	NA	NA
2019/08/01 12:16:00	AWS2	11.97	19	14.35	12	M	M	M	NA	NA	1003.6	NA	NA		M	NA	NA	NA	NA
2019/08/01 12:17:00	AWS2	12.24	16	15.84	13	M	M	M	NA	NA	1003.7	NA	NA		M	NA	NA	NA	NA
2019/08/01 12:18:00	AWS2	12.65	12	15.84	13	M	M	M	NA	NA	1003.8	NA	NA		M	NA	NA	NA	NA
2019/08/01 12:19:00	AWS2	12.07	15	15.84	13	M	M	M	NA	NA	1003.9	NA	NA		M	NA	NA	NA	NA
2019/08/01 12:20:00	AWS2	11.98	20	15.84	13	M	M	M	NA	NA	1003.8	NA	NA		M	NA	NA	NA	NA
2019/08/01 12:21:00	AWS2	11.90	22	15.84	13	M	M	M	NA	NA	1003.5	NA	NA		M	NA	NA	NA	NA
2019/08/01 12:22:00	AWS2	11.92	20	15.84	13	M	M	M	NA	NA	1003.5	NA	NA		M	NA	NA	NA	NA
2019/08/01 12:23:00	AWS2	12.59	16	15.84	13	M	M	M	NA	NA	1003.5	NA	NA		M	NA	NA	NA	NA
2019/08/01 12:24:00	AWS2	12.45	15	15.84	13	M	M	M	NA	NA	1003.8	NA	NA		M	NA	NA	NA	NA
2019/08/01 12:25:00	AWS2	12.14	16	15.84	13	M	M	M	NA	NA	1003.6	NA	NA		M	NA	NA	NA	NA
2019/08/01 12:26:00	AWS2	11.59	18	15.84	13	M	M	M	NA	NA	1004.0	NA	NA		M	NA	NA	NA	NA
2019/08/01 12:27:00	AWS2	11.10	22	14.71	14	M	M	M	NA	NA	1003.8	NA	NA		M	NA	NA	NA	NA
2019/08/01 12:28:00	AWS2	11.66	23	14.04	19	M	M	M	NA	NA	1003.7	NA	NA		M	NA	NA	NA	NA
2019/08/01 12:29:00	AWS2	12.45	18	14.04	19	M	M	M	NA	NA	1003.6	NA	NA		M	NA	NA	NA	NA
2019/08/01 12:30:00	AWS2	12.60	17	14.04	19	M	M	M	NA	NA	1003.7	NA	NA		M	NA	NA	NA	NA
2019/08/01 12:31:00	AWS2	12.65	18	14.61	11	M	M	M	NA	NA	1003.6	NA	NA		M	NA	NA	NA	NA
2019/08/01 12:32:00	AWS2	13.10	19	14.61	11	M	M	M	NA	NA	1003.6	NA	NA		M	NA	NA	NA	NA
2019/08/01 12:33:00	AWS2	12.39	24	14.61	11	M	M	M	NA	NA	1003.9	NA	NA		M	NA	NA	NA	NA
2019/08/01 12:34:00	AWS2	11.57	28	14.61	11	M	M	M	NA	NA	1003.8	NA	NA		M	NA	NA	NA	NA
2019/08/01 12:35:00	AWS2	11.91	30	14.61	11	M	M	M	NA	NA	1003.6	NA	NA		M	NA	NA	NA	NA
2019/08/01 12:36:00	AWS2	11.81	29	14.61	11	M	M	M	NA	NA	1003.6	NA	NA		M	NA	NA	NA	NA
2019/08/01 12:37:00	AWS2	11.81	29	14.61	11	M	M	M	NA	NA	1003.8	NA	NA		M	NA	NA	NA	NA
2019/08/01 12:38:00	AWS2	12.07	28	14.61	11	M	M	M	NA	NA	1003.6	NA	NA		M	NA	NA	NA	NA
2019/08/01 12:39:00	AWS2	12.40	25	14.61	11	M	M	M	NA	NA	1003.4	NA	NA		M	NA	NA	NA	NA
2019/08/01 12:40:00	AWS2	12.51	25	14.61	11	M	M	M	NA	NA	1003.8	NA	NA		M	NA	NA	NA	NA
2019/08/01 12:41:00	AWS2	11.90	26	14.40	17	M	M	M	NA	NA	1004.0	NA	NA		M	NA	NA	NA	NA
2019/08/01 12:42:00	AWS2	10.78	25	13.68	24	M	M	M	NA	NA	1004.0	NA	NA		M	NA	NA	NA	NA
2019/08/01 12:43:00	AWS2	10.64	24	13.68	24	M	M	M	NA	NA	1003.9	NA	NA		M	NA	NA	NA	NA
2019/08/01 12:44:00	AWS2	11.57	24	13.68	24	M	M	M	NA	NA	1003.9	NA	NA		M	NA	NA	NA	NA
2019/08/01 12:45:00	AWS2	11.79	28	13.68	24	M	M	M	NA	NA	1003.6	NA	NA		M	NA	NA	NA	NA
2019/08/01 12:46:00	AWS2	12.11	26	13.68	24	M	M	M	NA	NA	1003.5	NA	NA		M	NA	NA	NA	NA
2019/08/01 12:47:00	AWS2	11.86	21	13.68	24	M	M	M	NA	NA	1004.2	NA	NA		M	NA	NA	NA	NA
2019/08/01 12:48:00	AWS2	10.32	24	13.68	24	M	M	M	NA	NA	1004.3	NA	NA		M	NA	NA	NA	NA
2019/08/01 12:49:00	AWS2	10.06	29	13.27	26	M	M	M	NA	NA	1003.8	NA	NA		M	NA	NA	NA	NA
2019/08/01 12:50:00	AWS2	10.68	29	13.17	21	M	M	M	NA	NA	1003.8	NA	NA		M	NA	NA	NA	NA
2019/08/01 12:51:00	AWS2	10.21	28	13.17	21	M	M	M	NA	NA	1004.0	NA	NA		M	NA	NA	NA	NA
2019/08/01 12:52:00	AWS2	10.13	28	13.17	21	M	M	M	NA	NA	1004.1	NA	NA		M	NA	NA	NA	NA
2019/08/01 12:53:00	AWS2	10.42	32	13.17	21	M	M	M	NA	NA	1004.1	NA	NA		M	NA	NA	NA	NA
2019/08/01 12:54:00	AWS2	10.02	33	13.17	21	M	M	M	NA	NA	1004.2	NA	NA		M	NA	NA	NA	NA
2019/08/01 12:55:00	AWS2	10.21	23	13.17	21	M	M	M	NA	NA	1004.1	NA	NA		M	NA	NA	NA	NA
2019/08/01 12:56:00	AWS2	10.97	16	12.40	17	M	M	M	NA	NA	1004.1	NA	NA		M	NA	NA	NA	NA
2019/08/01 12:57:00	AWS2	11.03	19	12.40	17	M	M	M	NA	NA	1003.7	NA	NA		M	NA	NA	NA	NA
2019/08/01 12:58:00	AWS2	10.49	21	12.40	17	M	M	M	NA	NA	1003.7	NA	NA		M	NA	NA	NA	NA
2019/08/01 12:59:00	AWS2	10.05	21	12.40	17	M	M	M	NA	NA	1004.2	NA	NA		M	NA	NA	NA	NA
2019/08/01 13:00:00	AWS2	9.66	26	12.40	17	M	M	M	NA	NA	1004.3	NA	NA		M	NA	NA	NA	NA
2019/08/01 13:01:00	AWS2	10.15	23	12.40	17	M	M	M	NA	NA	1004.0	NA	NA		M	NA	NA	NA	NA
2019/08/01 13:02:00	AWS2	11.14	15	12.45	6	M	M	M	NA	NA	1003.9	NA	NA		M	NA	NA	NA	NA
2019/08/01 13:03:00	AWS2	11.66	14	13.79	5	M	M	M	NA	NA	1003.5	NA	NA		M	NA	NA	NA	NA
2019/08/01 13:04:00	AWS2	11.67	20	13.79	5	M	M	M	NA	NA	1003.9	NA	NA		M	NA	NA	NA	NA
2019/08/01 13:05:00	AWS2	11.07	22	13.79	5	M	M	M	NA	NA	1003.8	NA	NA		M	NA	NA	NA	NA
2019/08/01 13:06:00	AWS2	11.83	22	14.61	20	M	M	M	NA	NA	1003.9	NA	NA		M	NA	NA	NA	NA
2019/08/01 13:07:00	AWS2	12.93	21	14.61	20	M	M	M	NA	NA	1003.5	NA	NA		M	NA	NA	NA	NA
2019/08/01 13:08:00	AWS2	12.79	20	14.61	20	M	M	M	NA	NA	1003.3	NA	NA		M	NA	NA	NA	NA
2019/08/01 13:09:00	AWS2	12.56	21	14.61	20	M	M	M	NA	NA	1003.5	NA	NA		M	NA	NA	NA	NA
2019/08/01 13:10:00	AWS2	12.28	20	14.61	20	M	M	M	NA	NA	1003.3	NA	NA		M	NA	NA	NA	NA
2019/08/01 13:11:00	AWS2	12.08	17	14.61	20	M	M	M	NA	NA	1003.6	NA	NA		M	NA	NA	NA	NA
2019/08/01 13:12:00	AWS2	11.94	20	14.61	20	M	M	M	NA	NA	1003.8	NA	NA		M	NA	NA	NA	NA
2019/08/01 13:13:00	AWS2	12.48	22	14.61	20	M	M	M	NA	NA	1003.3	NA	NA		M	NA	NA	NA	NA
2019/08/01 13:14:00	AWS2	13.42	15	15.12	10	M	M	M	NA	NA	1003.0	NA	NA		M	NA	NA	NA	NA
2019/08/01 13:15:00	AWS2	13.66	11	15.12	10	M	M	M	NA	NA	1003.2	NA	NA		M	NA	NA	NA	NA
2019/08/01 13:16:00	AWS2	13.42	16	15.12	10	M	M	M	NA	NA	1003.5	NA	NA		M	NA	NA	NA	NA
2019/08/01 13:17:00	AWS2	12.67	17	15.12	10	M	M	M	NA	NA	1003.2	NA	NA		M	NA	NA	NA	NA
2019/08/01 13:18:00	AWS2	12.71	16	15.12	10	M	M	M	NA	NA	1003.4	NA	NA		M	NA	NA	NA	NA
2019/08/01 13:19:00	AWS2	13.77	19	15.64	11	M	M	M	NA	NA	1002.6	NA	NA		M	NA	NA	NA	NA
2019/08/01 13:20:00	AWS2	14.40	16	16.36	15	M	M	M	NA	NA	1003.0	NA	NA		M	NA	NA	NA	NA
2019/08/01 13:21:00	AWS2	14.41	15	16.36	15	M	M	M	NA	NA	1002.8	NA	NA		M	NA	NA	NA	NA
2019/08/01 13:22:01	AWS2	14.15	14	16.36	15	M	M	M	NA	NA	1002.9	NA	NA		M	NA	NA	NA	NA
2019/08/01 13:23:00	AWS2	14.78	14	16.98	14	M	M	M	NA	NA	1002.3	NA	NA		M	NA	NA	NA	NA
2019/08/01 13:24:00	AWS2	14.93	18	16.98	14	M	M	M	NA	NA	1002.8	NA	NA		M	NA	NA	NA	NA
2019/08/01 13:25:01	AWS2	15.23	18	17.54	12	M	M	M	NA	NA	1002.1	NA	NA		M	NA	NA	NA	NA
2019/08/01 13:26:00	AWS2	14.93	18	17.54	12	M	M	M	NA	NA	1002.7	NA	NA		M	NA	NA	NA	NA
2019/08/01 13:27:00	AWS2	13.40	18	17.54	12	M	M	M	NA	NA	1002.8	NA	NA		M	NA	NA	NA	NA
2019/08/01 13:28:00	AWS2	13.99	14	17.54	12	M	M	M	NA	NA	1002.7	NA	NA		M	NA	NA	NA	NA
2019/08/01 13:29:00	AWS2	14.40	13	17.54	12	M	M	M	NA	NA	1002.6	NA	NA		M	NA	NA	NA	NA
2019/08/01 13:30:01	AWS2	13.19	14	17.54	12	M	M	M	NA	NA	1003.1	NA	NA		M	NA	NA	NA	NA
2019/08/01 13:31:00	AWS2	12.34	18	17.54	12	M	M	M	NA	NA	1002.9	NA	NA		M	NA	NA	NA	NA
2019/08/01 13:32:00	AWS2	13.42	23	17.54	12	M	M	M	NA	NA	1002.6	NA	NA		M	NA	NA	NA	NA
2019/08/01 13:33:00	AWS2	15.11	20	17.54	12	M	M	M	NA	NA	1002.6	NA	NA		M	NA	NA	NA	NA
2019/08/01 13:34:00	AWS2	15.23	15	17.54	12	M	M	M	NA	NA	1002.6	NA	NA		M	NA	NA	NA	NA
2019/08/01 13:35:00	AWS2	14.98	14	17.39	17	M	M	M	NA	NA	1002.6	NA	NA		M	NA	NA	NA	NA
2019/08/01 13:36:00	AWS2	15.27	20	17.85	28	M	M	M	NA	NA	1002.1	NA	NA		M	NA	NA	NA	NA
2019/08/01 13:37:00	AWS2	14.60	25	17.85	28	M	M	M	NA	NA	1002.6	NA	NA		M	NA	NA	NA	NA
2019/08/01 13:38:00	AWS2	13.87	26	17.85	28	M	M	M	NA	NA	1003.0	NA	NA		M	NA	NA	NA	NA
2019/08/01 13:39:00	AWS2	13.76	24	17.85	28	M	M	M	NA	NA	1003.0	NA	NA		M	NA	NA	NA	NA
2019/08/01 13:40:00	AWS2	13.70	18	17.85	28	M	M	M	NA	NA	1002.9	NA	NA		M	NA	NA	NA	NA
2019/08/01 13:41:00	AWS2	13.84	17	17.85	28	M	M	M	NA	NA	1002.9	NA	NA		M	NA	NA	NA	NA
2019/08/01 13:42:00	AWS2	14.52	15	17.85	28	M	M	M	NA	NA	1002.4	NA	NA		M	NA	NA	NA	NA
2019/08/01 13:43:00	AWS2	14.87	11	17.85	28	M	M	M	NA	NA	1002.8	NA	NA		M	NA	NA	NA	NA
2019/08/01 13:44:00	AWS2	14.33	12	17.85	28	M	M	M	NA	NA	1002.9	NA	NA		M	NA	NA	NA	NA
2019/08/01 13:45:00	AWS2	13.44	15	17.85	28	M	M	M	NA	NA	1003.1	NA	NA		M	NA	NA	NA	NA
2019/08/01 13:46:00	AWS2	12.85	15	16.77	12	M	M	M	NA	NA	1003.0	NA	NA		M	NA	NA	NA	NA
2019/08/01 13:47:00	AWS2	12.78	11	16.77	12	M	M	M	NA	NA	1003.0	NA	NA		M	NA	NA	NA	NA
2019/08/01 13:48:00	AWS2	12.63	15	16.77	12	M	M	M	NA	NA	1003.1	NA	NA		M	NA	NA	NA	NA
2019/08/01 13:49:00	AWS2	13.14	22	16.77	12	M	M	M	NA	NA	1002.9	NA	NA		M	NA	NA	NA	NA
2019/08/01 13:50:00	AWS2	14.01	17	16.87	8	M	M	M	NA	NA	1002.5	NA	NA		M	NA	NA	NA	NA
2019/08/01 13:51:00	AWS2	13.96	13	16.87	8	M	M	M	NA	NA	1003.0	NA	NA		M	NA	NA	NA	NA
2019/08/01 13:52:01	AWS2	13.45	16	16.87	8	M	M	M	NA	NA	1002.8	NA	NA		M	NA	NA	NA	NA
2019/08/01 13:53:01	AWS2	13.57	14	16.87	8	M	M	M	NA	NA	1002.7	NA	NA		M	NA	NA	NA	NA
2019/08/01 13:54:01	AWS2	13.88	15	16.87	8	M	M	M	NA	NA	1002.8	NA	NA		M	NA	NA	NA	NA
2019/08/01 13:55:01	AWS2	14.34	21	16.87	8	M	M	M	NA	NA	1002.7	NA	NA		M	NA	NA	NA	NA
2019/08/01 13:56:01	AWS2	15.35	22	16.93	19	M	M	M	NA	NA	1002.3	NA	NA		M	NA	NA	NA	NA
2019/08/01 13:57:01	AWS2	15.84	23	16.98	21	M	M	M	NA	NA	1002.3	NA	NA		M	NA	NA	NA	NA
2019/08/01 13:58:01	AWS2	15.39	21	17.34	19	M	M	M	NA	NA	1002.3	NA	NA		M	NA	NA	NA	NA
2019/08/01 13:59:01	AWS2	15.45	19	17.75	19	M	M	M	NA	NA	1002.3	NA	NA		M	NA	NA	NA	NA
2019/08/01 14:00:01	AWS2	15.88	18	17.75	8	M	M	M	NA	NA	1002.5	NA	NA		M	NA	NA	NA	NA
2019/08/01 14:01:01	AWS2	15.56	16	17.75	8	M	M	M	NA	NA	1002.5	NA	NA		M	NA	NA	NA	NA
2019/08/01 14:02:01	AWS2	14.98	17	17.75	8	M	M	M	NA	NA	1002.5	NA	NA		M	NA	NA	NA	NA
2019/08/01 14:03:01	AWS2	15.00	19	17.75	8	M	M	M	NA	NA	1002.5	NA	NA		M	NA	NA	NA	NA
2019/08/01 14:04:01	AWS2	15.13	17	17.75	8	M	M	M	NA	NA	1002.5	NA	NA		M	NA	NA	NA	NA
2019/08/01 14:05:01	AWS2	15.00	16	17.75	8	M	M	M	NA	NA	1002.7	NA	NA		M	NA	NA	NA	NA
2019/08/01 14:06:01	AWS2	15.06	16	17.75	8	M	M	M	NA	NA	1002.4	NA	NA		M	NA	NA	NA	NA
2019/08/01 14:07:01	AWS2	15.80	17	17.75	8	M	M	M	NA	NA	1002.1	NA	NA		M	NA	NA	NA	NA
2019/08/01 14:08:01	AWS2	15.81	20	17.75	8	M	M	M	NA	NA	1002.5	NA	NA		M	NA	NA	NA	NA
2019/08/01 14:09:01	AWS2	15.21	19	17.75	8	M	M	M	NA	NA	1002.1	NA	NA		M	NA	NA	NA	NA
2019/08/01 14:10:01	AWS2	14.75	17	17.54	15	M	M	M	NA	NA	1002.2	NA	NA		M	NA	NA	NA	NA
2019/08/01 14:11:01	AWS2	14.67	19	17.54	15	M	M	M	NA	NA	1002.4	NA	NA		M	NA	NA	NA	NA
2019/08/01 14:12:01	AWS2	15.25	20	17.54	15	M	M	M	NA	NA	1002.1	NA	NA		M	NA	NA	NA	NA
2019/08/01 14:13:01	AWS2	14.92	18	17.54	15	M	M	M	NA	NA	1002.5	NA	NA		M	NA	NA	NA	NA
2019/08/01 14:14:01	AWS2	15.00	13	17.54	15	M	M	M	NA	NA	1002.0	NA	NA		M	NA	NA	NA	NA
2019/08/01 14:15:01	AWS2	15.20	13	17.54	15	M	M	M	NA	NA	1002.4	NA	NA		M	NA	NA	NA	NA
2019/08/01 14:16:01	AWS2	15.51	19	18.06	22	M	M	M	NA	NA	1002.3	NA	NA		M	NA	NA	NA	NA
2019/08/01 14:17:01	AWS2	16.10	22	18.06	22	M	M	M	NA	NA	1002.3	NA	NA		M	NA	NA	NA	NA
2019/08/01 14:18:01	AWS2	14.73	19	18.06	22	M	M	M	NA	NA	1002.8	NA	NA		M	NA	NA	NA	NA
2019/08/01 14:19:01	AWS2	14.38	19	18.06	22	M	M	M	NA	NA	1002.6	NA	NA		M	NA	NA	NA	NA
2019/08/01 14:20:01	AWS2	14.75	21	18.06	22	M	M	M	NA	NA	1002.4	NA	NA		M	NA	NA	NA	NA
2019/08/01 14:21:01	AWS2	14.55	20	18.06	22	M	M	M	NA	NA	1002.7	NA	NA		M	NA	NA	NA	NA
2019/08/01 14:22:01	AWS2	15.12	18	18.06	22	M	M	M	NA	NA	1002.3	NA	NA		M	NA	NA	NA	NA
2019/08/01 14:23:01	AWS2	15.40	19	18.06	22	M	M	M	NA	NA	1001.8	NA	NA		M	NA	NA	NA	NA
2019/08/01 14:24:01	AWS2	14.85	18	18.06	22	M	M	M	NA	NA	1001.6	NA	NA		M	NA	NA	NA	NA
2019/08/01 14:25:01	AWS2	15.01	15	18.06	22	M	M	M	NA	NA	1002.2	NA	NA		M	NA	NA	NA	NA
2019/08/01 14:26:01	AWS2	15.03	15	17.49	11	M	M	M	NA	NA	1002.4	NA	NA		M	NA	NA	NA	NA
2019/08/01 14:27:01	AWS2	14.69	16	17.34	15	M	M	M	NA	NA	1002.2	NA	NA		M	NA	NA	NA	NA
2019/08/01 14:28:01	AWS2	14.59	18	17.34	15	M	M	M	NA	NA	1002.4	NA	NA		M	NA	NA	NA	NA
2019/08/01 14:29:01	AWS2	14.47	20	17.34	15	M	M	M	NA	NA	1002.1	NA	NA		M	NA	NA	NA	NA
2019/08/01 14:30:01	AWS2	15.05	21	17.34	15	M	M	M	NA	NA	1001.9	NA	NA		M	NA	NA	NA	NA
2019/08/01 14:31:01	AWS2	14.85	20	17.34	15	M	M	M	NA	NA	1002.3	NA	NA		M	NA	NA	NA	NA
2019/08/01 14:32:01	AWS2	13.86	22	17.23	16	M	M	M	NA	NA	1002.6	NA	NA		M	NA	NA	NA	NA
2019/08/01 14:33:01	AWS2	13.68	23	17.23	16	M	M	M	NA	NA	1002.3	NA	NA		M	NA	NA	NA	NA
2019/08/01 14:34:01	AWS2	13.47	21	17.23	16	M	M	M	NA	NA	1002.8	NA	NA		M	NA	NA	NA	NA
2019/08/01 14:35:01	AWS2	12.80	22	16.98	27	M	M	M	NA	NA	1002.7	NA	NA		M	NA	NA	NA	NA
2019/08/01 14:36:01	AWS2	13.54	20	16.98	27	M	M	M	NA	NA	1002.5	NA	NA		M	NA	NA	NA	NA
2019/08/01 14:37:01	AWS2	15.04	19	16.98	27	M	M	M	NA	NA	1001.6	NA	NA		M	NA	NA	NA	NA
2019/08/01 14:38:01	AWS2	15.11	21	16.98	27	M	M	M	NA	NA	1002.6	NA	NA		M	NA	NA	NA	NA
2019/08/01 14:39:01	AWS2	14.60	20	16.31	29	M	M	M	NA	NA	1002.2	NA	NA		M	NA	NA	NA	NA
2019/08/01 14:40:01	AWS2	14.49	19	16.20	21	M	M	M	NA	NA	1002.2	NA	NA		M	NA	NA	NA	NA
2019/08/01 14:41:01	AWS2	13.59	21	16.20	21	M	M	M	NA	NA	1002.5	NA	NA		M	NA	NA	NA	NA
2019/08/01 14:42:01	AWS2	12.60	20	16.20	21	M	M	M	NA	NA	1002.5	NA	NA		M	NA	NA	NA	NA
2019/08/01 14:43:01	AWS2	12.60	19	16.20	21	M	M	M	NA	NA	1002.6	NA	NA		M	NA	NA	NA	NA
2019/08/01 14:44:01	AWS2	12.80	17	16.20	21	M	M	M	NA	NA	1002.4	NA	NA		M	NA	NA	NA	NA
2019/08/01 14:45:01	AWS2	13.72	18	16.82	18	M	M	M	NA	NA	1002.0	NA	NA		M	NA	NA	NA	NA
2019/08/01 14:46:01	AWS2	15.53	19	17.54	20	M	M	M	NA	NA	1001.5	NA	NA		M	NA	NA	NA	NA
2019/08/01 14:47:01	AWS2	15.62	17	17.54	20	M	M	M	NA	NA	1001.7	NA	NA		M	NA	NA	NA	NA
2019/08/01 14:48:01	AWS2	15.09	20	17.54	20	M	M	M	NA	NA	1001.8	NA	NA		M	NA	NA	NA	NA
2019/08/01 14:49:01	AWS2	14.75	19	17.54	20	M	M	M	NA	NA	1002.0	NA	NA		M	NA	NA	NA	NA
2019/08/01 14:50:01	AWS2	14.04	17	17.54	20	M	M	M	NA	NA	1001.9	NA	NA		M	NA	NA	NA	NA
2019/08/01 14:51:01	AWS2	14.38	19	17.54	20	M	M	M	NA	NA	1001.6	NA	NA		M	NA	NA	NA	NA
2019/08/01 14:52:01	AWS2	15.71	18	17.80	17	M	M	M	NA	NA	1001.3	NA	NA		M	NA	NA	NA	NA
2019/08/01 14:53:01	AWS2	16.15	18	17.80	17	M	M	M	NA	NA	1001.5	NA	NA		M	NA	NA	NA	NA
2019/08/01 14:54:01	AWS2	16.04	19	18.57	20	M	M	M	NA	NA	1001.3	NA	NA		M	NA	NA	NA	NA
2019/08/01 14:55:01	AWS2	16.67	19	18.57	20	M	M	M	NA	NA	1001.1	NA	NA		M	NA	NA	NA	NA
2019/08/01 14:56:01	AWS2	16.16	18	18.57	20	M	M	M	NA	NA	1001.6	NA	NA		M	NA	NA	NA	NA
2019/08/01 14:57:01	AWS2	15.98	16	18.57	20	M	M	M	NA	NA	1001.2	NA	NA		M	NA	NA	NA	NA
2019/08/01 14:58:01	AWS2	16.35	15	18.57	20	M	M	M	NA	NA	1001.5	NA	NA		M	NA	NA	NA	NA
2019/08/01 14:59:01	AWS2	14.91	16	18.57	20	M	M	M	NA	NA	1002.1	NA	NA		M	NA	NA	NA	NA
2019/08/01 15:00:01	AWS2	14.19	13	18.57	20	M	M	M	NA	NA	1001.9	NA	NA		M	NA	NA	NA	NA
2019/08/01 15:01:01	AWS2	14.26	12	18.57	20	M	M	M	NA	NA	1002.0	NA	NA		M	NA	NA	NA	NA
2019/08/01 15:02:01	AWS2	15.07	14	18.57	20	M	M	M	NA	NA	1001.3	NA	NA		M	NA	NA	NA	NA
2019/08/01 15:03:01	AWS2	15.83	15	18.57	20	M	M	M	NA	NA	1001.6	NA	NA		M	NA	NA	NA	NA
2019/08/01 15:04:01	AWS2	14.87	14	18.42	12	M	M	M	NA	NA	1001.8	NA	NA		M	NA	NA	NA	NA
2019/08/01 15:05:01	AWS2	14.52	16	17.85	8	M	M	M	NA	NA	1001.7	NA	NA		M	NA	NA	NA	NA
2019/08/01 15:06:01	AWS2	14.35	18	17.85	8	M	M	M	NA	NA	1001.8	NA	NA		M	NA	NA	NA	NA
2019/08/01 15:07:01	AWS2	13.98	17	17.29	20	M	M	M	NA	NA	1002.1	NA	NA		M	NA	NA	NA	NA
2019/08/01 15:08:01	AWS2	14.04	17	17.29	20	M	M	M	NA	NA	1001.6	NA	NA		M	NA	NA	NA	NA
2019/08/01 15:09:01	AWS2	14.69	18	17.29	20	M	M	M	NA	NA	1001.6	NA	NA		M	NA	NA	NA	NA
2019/08/01 15:10:00	AWS2	15.45	18	17.44	25	M	M	M	NA	NA	1001.4	NA	NA		M	NA	NA	NA	NA
2019/08/01 15:11:01	AWS2	15.89	15	17.44	25	M	M	M	NA	NA	1000.9	NA	NA		M	NA	NA	NA	NA
2019/08/01 15:12:01	AWS2	15.77	13	17.44	25	M	M	M	NA	NA	1001.1	NA	NA		M	NA	NA	NA	NA
2019/08/01 15:13:01	AWS2	15.19	12	17.44	25	M	M	M	NA	NA	1000.8	NA	NA		M	NA	NA	NA	NA
2019/08/01 15:14:01	AWS2	15.16	12	17.44	25	M	M	M	NA	NA	1001.0	NA	NA		M	NA	NA	NA	NA
2019/08/01 15:15:01	AWS2	15.66	15	17.54	16	M	M	M	NA	NA	1000.9	NA	NA		M	NA	NA	NA	NA
2019/08/01 15:16:01	AWS2	15.98	14	17.54	16	M	M	M	NA	NA	1000.8	NA	NA		M	NA	NA	NA	NA
2019/08/01 15:17:01	AWS2	15.67	11	17.54	16	M	M	M	NA	NA	1000.8	NA	NA		M	NA	NA	NA	NA
2019/08/01 15:18:01	AWS2	15.44	11	17.54	16	M	M	M	NA	NA	1000.5	NA	NA		M	NA	NA	NA	NA
2019/08/01 15:19:01	AWS2	15.36	15	17.54	16	M	M	M	NA	NA	1000.9	NA	NA		M	NA	NA	NA	NA
2019/08/01 15:20:01	AWS2	16.31	15	17.85	9	M	M	M	NA	NA	1000.5	NA	NA		M	NA	NA	NA	NA
2019/08/01 15:21:01	AWS2	16.45	9	17.85	9	M	M	M	NA	NA	1001.0	NA	NA		M	NA	NA	NA	NA
2019/08/01 15:22:01	AWS2	15.54	11	18.88	20	M	M	M	NA	NA	1000.9	NA	NA		M	NA	NA	NA	NA
2019/08/01 15:23:01	AWS2	16.46	13	18.88	20	M	M	M	NA	NA	1000.1	NA	NA		M	NA	NA	NA	NA
2019/08/01 15:24:01	AWS2	16.67	14	18.88	20	M	M	M	NA	NA	1000.5	NA	NA		M	NA	NA	NA	NA
2019/08/01 15:25:01	AWS2	15.90	14	18.88	20	M	M	M	NA	NA	1000.8	NA	NA		M	NA	NA	NA	NA
2019/08/01 15:26:01	AWS2	15.73	13	18.88	20	M	M	M	NA	NA	1000.9	NA	NA		M	NA	NA	NA	NA
2019/08/01 15:27:01	AWS2	15.12	16	18.88	20	M	M	M	NA	NA	1001.0	NA	NA		M	NA	NA	NA	NA
2019/08/01 15:28:01	AWS2	14.92	17	18.88	20	M	M	M	NA	NA	1000.7	NA	NA		M	NA	NA	NA	NA
2019/08/01 15:29:01	AWS2	14.98	18	18.88	20	M	M	M	NA	NA	1000.9	NA	NA		M	NA	NA	NA	NA
2019/08/01 15:30:01	AWS2	14.32	18	18.88	20	M	M	M	NA	NA	1001.2	NA	NA		M	NA	NA	NA	NA
2019/08/01 15:31:01	AWS2	14.11	16	18.88	20	M	M	M	NA	NA	1001.1	NA	NA		M	NA	NA	NA	NA
2019/08/01 15:32:01	AWS2	14.11	20	18.88	20	M	M	M	NA	NA	1001.4	NA	NA		M	NA	NA	NA	NA
2019/08/01 15:33:01	AWS2	12.99	19	17.54	13	M	M	M	NA	NA	1001.8	NA	NA		M	NA	NA	NA	NA
2019/08/01 15:34:01	AWS2	11.68	17	17.23	7	M	M	M	NA	NA	1001.6	NA	NA		M	NA	NA	NA	NA
2019/08/01 15:35:01	AWS2	11.70	18	16.98	17	M	M	M	NA	NA	1001.4	NA	NA		M	NA	NA	NA	NA
2019/08/01 15:36:01	AWS2	12.98	20	16.98	17	M	M	M	NA	NA	1001.0	NA	NA		M	NA	NA	NA	NA
2019/08/01 15:37:01	AWS2	13.71	23	16.98	17	M	M	M	NA	NA	1001.4	NA	NA		M	NA	NA	NA	NA
2019/08/01 15:38:01	AWS2	13.04	19	16.10	11	M	M	M	NA	NA	1001.1	NA	NA		M	NA	NA	NA	NA
2019/08/01 15:39:00	AWS2	13.33	21	16.10	11	M	M	M	NA	NA	1001.5	NA	NA		M	NA	NA	NA	NA
2019/08/01 15:40:00	AWS2	13.88	20	15.38	23	M	M	M	NA	NA	1001.4	NA	NA		M	NA	NA	NA	NA
2019/08/01 15:41:00	AWS2	13.33	16	15.38	23	M	M	M	NA	NA	1000.9	NA	NA		M	NA	NA	NA	NA
2019/08/01 15:42:01	AWS2	13.17	20	15.28	10	M	M	M	NA	NA	1001.5	NA	NA		M	NA	NA	NA	NA
2019/08/01 15:43:00	AWS2	14.10	21	15.74	33	M	M	M	NA	NA	1001.2	NA	NA		M	NA	NA	NA	NA
2019/08/01 15:44:01	AWS2	15.18	19	16.36	28	M	M	M	NA	NA	1001.1	NA	NA		M	NA	NA	NA	NA
2019/08/01 15:45:00	AWS2	15.42	22	16.36	28	M	M	M	NA	NA	1000.6	NA	NA		M	NA	NA	NA	NA
2019/08/01 15:46:01	AWS2	15.08	21	16.41	23	M	M	M	NA	NA	1000.7	NA	NA		M	NA	NA	NA	NA
2019/08/01 15:47:00	AWS2	14.02	15	16.41	23	M	M	M	NA	NA	1001.3	NA	NA		M	NA	NA	NA	NA
2019/08/01 15:48:01	AWS2	13.82	12	16.41	23	M	M	M	NA	NA	1000.7	NA	NA		M	NA	NA	NA	NA
2019/08/01 15:49:01	AWS2	15.15	11	17.29	11	M	M	M	NA	NA	1000.7	NA	NA		M	NA	NA	NA	NA
2019/08/01 15:50:01	AWS2	15.66	13	17.29	11	M	M	M	NA	NA	1000.1	NA	NA		M	NA	NA	NA	NA
2019/08/01 15:51:00	AWS2	15.01	12	17.29	11	M	M	M	NA	NA	1000.6	NA	NA		M	NA	NA	NA	NA
2019/08/01 15:52:01	AWS2	14.29	12	17.29	11	M	M	M	NA	NA	1000.4	NA	NA		M	NA	NA	NA	NA
2019/08/01 15:53:00	AWS2	14.94	15	17.95	16	M	M	M	NA	NA	1000.5	NA	NA		M	NA	NA	NA	NA
2019/08/01 15:54:01	AWS2	16.23	15	19.14	13	M	M	M	NA	NA	999.7	NA	NA		M	NA	NA	NA	NA
2019/08/01 15:55:01	AWS2	17.42	13	19.14	13	M	M	M	NA	NA	999.7	NA	NA		M	NA	NA	NA	NA
2019/08/01 15:56:01	AWS2	16.90	13	19.14	13	M	M	M	NA	NA	1000.6	NA	NA		M	NA	NA	NA	NA
2019/08/01 15:57:01	AWS2	17.16	12	20.78	8	M	M	M	NA	NA	999.2	NA	NA		M	NA	NA	NA	NA
2019/08/01 15:58:00	AWS2	17.90	12	20.78	8	M	M	M	NA	NA	999.8	NA	NA		M	NA	NA	NA	NA
2019/08/01 15:59:01	AWS2	17.36	16	20.78	8	M	M	M	NA	NA	999.6	NA	NA		M	NA	NA	NA	NA
2019/08/01 16:00:00	AWS2	18.14	16	20.78	8	M	M	M	NA	NA	999.1	NA	NA		M	NA	NA	NA	NA
2019/08/01 16:01:00	AWS2	18.93	14	21.71	11	M	M	M	NA	NA	999.5	NA	NA		M	NA	NA	NA	NA
2019/08/01 16:02:01	AWS2	19.65	16	21.71	11	M	M	M	NA	NA	998.7	NA	NA		M	NA	NA	NA	NA
2019/08/01 16:03:00	AWS2	19.64	16	21.71	11	M	M	M	NA	NA	999.3	NA	NA		M	NA	NA	NA	NA
2019/08/01 16:04:01	AWS2	19.38	15	21.81	15	M	M	M	NA	NA	999.3	NA	NA		M	NA	NA	NA	NA
2019/08/01 16:05:00	AWS2	19.64	11	23.30	12	M	M	M	NA	NA	998.9	NA	NA		M	NA	NA	NA	NA
2019/08/01 16:06:00	AWS2	20.01	9	23.30	12	M	M	M	NA	NA	999.2	NA	NA		M	NA	NA	NA	NA
2019/08/01 16:07:00	AWS2	18.20	13	23.30	12	M	M	M	NA	NA	1000.2	NA	NA		M	NA	NA	NA	NA
2019/08/01 16:08:00	AWS2	17.29	11	23.30	12	M	M	M	NA	NA	999.6	NA	NA		M	NA	NA	NA	NA
2019/08/01 16:09:00	AWS2	18.15	13	23.30	12	M	M	M	NA	NA	999.5	NA	NA		M	NA	NA	NA	NA
2019/08/01 16:10:00	AWS2	19.38	16	23.30	12	M	M	M	NA	NA	999.3	NA	NA		M	NA	NA	NA	NA
2019/08/01 16:11:00	AWS2	19.78	17	23.30	12	M	M	M	NA	NA	1000.1	NA	NA		M	NA	NA	NA	NA
2019/08/01 16:12:00	AWS2	17.18	23	23.30	12	M	M	M	NA	NA	1001.0	NA	NA		M	NA	NA	NA	NA
2019/08/01 16:13:00	AWS2	15.07	22	23.30	12	M	M	M	NA	NA	1001.2	NA	NA		M	NA	NA	NA	NA
2019/08/01 16:14:00	AWS2	15.24	16	23.30	12	M	M	M	NA	NA	1000.5	NA	NA		M	NA	NA	NA	NA
2019/08/01 16:15:00	AWS2	16.40	17	22.53	5	M	M	M	NA	NA	1000.8	NA	NA		M	NA	NA	NA	NA
2019/08/01 16:16:01	AWS2	15.92	18	21.92	16	M	M	M	NA	NA	1001.4	NA	NA		M	NA	NA	NA	NA
2019/08/01 16:17:00	AWS2	15.73	17	21.92	16	M	M	M	NA	NA	1000.7	NA	NA		M	NA	NA	NA	NA
2019/08/01 16:18:01	AWS2	14.68	21	21.92	16	M	M	M	NA	NA	1001.2	NA	NA		M	NA	NA	NA	NA
2019/08/01 16:19:00	AWS2	14.21	22	21.92	16	M	M	M	NA	NA	1000.9	NA	NA		M	NA	NA	NA	NA
2019/08/01 16:20:00	AWS2	15.45	24	20.89	19	M	M	M	NA	NA	1001.0	NA	NA		M	NA	NA	NA	NA
2019/08/01 16:21:00	AWS2	15.84	26	19.75	12	M	M	M	NA	NA	1000.9	NA	NA		M	NA	NA	NA	NA
2019/08/01 16:22:00	AWS2	15.16	25	19.75	12	M	M	M	NA	NA	1001.5	NA	NA		M	NA	NA	NA	NA
2019/08/01 16:23:00	AWS2	13.74	25	19.75	12	M	M	M	NA	NA	1001.7	NA	NA		M	NA	NA	NA	NA
2019/08/01 16:24:00	AWS2	13.58	25	19.75	12	M	M	M	NA	NA	1001.6	NA	NA		M	NA	NA	NA	NA
2019/08/01 16:25:00	AWS2	13.75	25	18.57	12	M	M	M	NA	NA	1001.4	NA	NA		M	NA	NA	NA	NA
2019/08/01 16:26:01	AWS2	15.24	24	18.98	22	M	M	M	NA	NA	1000.4	NA	NA		M	NA	NA	NA	NA
2019/08/01 16:27:00	AWS2	16.02	22	18.98	22	M	M	M	NA	NA	1001.1	NA	NA		M	NA	NA	NA	NA
2019/08/01 16:28:00	AWS2	15.60	24	18.98	22	M	M	M	NA	NA	1000.9	NA	NA		M	NA	NA	NA	NA
2019/08/01 16:29:00	AWS2	16.01	25	18.98	22	M	M	M	NA	NA	1001.2	NA	NA		M	NA	NA	NA	NA
2019/08/01 16:30:00	AWS2	16.26	25	18.98	22	M	M	M	NA	NA	1000.6	NA	NA		M	NA	NA	NA	NA
2019/08/01 16:31:00	AWS2	16.97	26	18.98	22	M	M	M	NA	NA	1000.7	NA	NA		M	NA	NA	NA	NA
2019/08/01 16:32:00	AWS2	16.80	23	18.98	22	M	M	M	NA	NA	1000.5	NA	NA		M	NA	NA	NA	NA
2019/08/01 16:33:00	AWS2	16.53	22	18.98	22	M	M	M	NA	NA	1000.4	NA	NA		M	NA	NA	NA	NA
2019/08/01 16:34:00	AWS2	16.49	21	18.98	22	M	M	M	NA	NA	1000.5	NA	NA		M	NA	NA	NA	NA
2019/08/01 16:35:00	AWS2	15.52	18	18.98	22	M	M	M	NA	NA	1000.6	NA	NA		M	NA	NA	NA	NA
2019/08/01 16:36:00	AWS2	15.19	18	18.67	23	M	M	M	NA	NA	1000.5	NA	NA		M	NA	NA	NA	NA
2019/08/01 16:37:00	AWS2	15.10	25	18.67	23	M	M	M	NA	NA	1001.0	NA	NA		M	NA	NA	NA	NA
2019/08/01 16:38:00	AWS2	14.40	28	18.67	23	M	M	M	NA	NA	1001.0	NA	NA		M	NA	NA	NA	NA
2019/08/01 16:39:00	AWS2	13.30	29	18.67	23	M	M	M	NA	NA	1001.1	NA	NA		M	NA	NA	NA	NA
2019/08/01 16:40:00	AWS2	13.03	29	18.67	23	M	M	M	NA	NA	1000.9	NA	NA		M	NA	NA	NA	NA
2019/08/01 16:41:00	AWS2	13.32	26	18.16	26	M	M	M	NA	NA	1001.0	NA	NA		M	NA	NA	NA	NA
2019/08/01 16:42:00	AWS2	13.33	27	18.16	26	M	M	M	NA	NA	1000.9	NA	NA		M	NA	NA	NA	NA
2019/08/01 16:43:00	AWS2	14.14	29	18.16	26	M	M	M	NA	NA	1000.9	NA	NA		M	NA	NA	NA	NA
2019/08/01 16:44:00	AWS2	13.52	30	17.90	33	M	M	M	NA	NA	1001.3	NA	NA		M	NA	NA	NA	NA
2019/08/01 16:45:00	AWS2	12.08	30	17.90	33	M	M	M	NA	NA	1001.3	NA	NA		M	NA	NA	NA	NA
2019/08/01 16:46:00	AWS2	11.79	32	17.90	33	M	M	M	NA	NA	1001.4	NA	NA		M	NA	NA	NA	NA
2019/08/01 16:47:00	AWS2	13.07	45	17.90	33	M	M	M	NA	NA	1000.5	NA	NA		M	NA	NA	NA	NA
2019/08/01 16:48:00	AWS2	12.45	64	17.90	33	M	M	M	NA	NA	1001.4	NA	NA		M	NA	NA	NA	NA
2019/08/01 16:49:00	AWS2	10.65	70	17.90	33	M	M	M	NA	NA	1001.5	NA	NA		M	NA	NA	NA	NA
2019/08/01 16:50:00	AWS2	11.84	69	17.90	33	M	M	M	NA	NA	1001.3	NA	NA		M	NA	NA	NA	NA
2019/08/01 16:51:00	AWS2	12.58	56	17.90	33	M	M	M	NA	NA	1001.1	NA	NA		M	NA	NA	NA	NA
2019/08/01 16:52:01	AWS2	11.52	44	17.90	33	M	M	M	NA	NA	1001.3	NA	NA		M	NA	NA	NA	NA
2019/08/01 16:53:00	AWS2	12.11	49	17.03	45	M	M	M	NA	NA	1000.5	NA	NA		M	NA	NA	NA	NA
2019/08/01 16:54:00	AWS2	13.08	50	17.03	45	M	M	M	NA	NA	1000.2	NA	NA		M	NA	NA	NA	NA
2019/08/01 16:55:00	AWS2	13.34	49	17.03	45	M	M	M	NA	NA	999.8	NA	NA		M	NA	NA	NA	NA
2019/08/01 16:56:00	AWS2	12.40	43	16.67	66	M	M	M	NA	NA	1000.6	NA	NA		M	NA	NA	NA	NA
2019/08/01 16:57:00	AWS2	10.92	35	15.84	45	M	M	M	NA	NA	1001.0	NA	NA		M	NA	NA	NA	NA
2019/08/01 16:58:01	AWS2	10.30	36	15.84	45	M	M	M	NA	NA	1000.7	NA	NA		M	NA	NA	NA	NA
2019/08/01 16:59:00	AWS2	9.52	46	15.84	45	M	M	M	NA	NA	1000.8	NA	NA		M	NA	NA	NA	NA
2019/08/01 17:00:00	AWS2	10.12	44	15.84	45	M	M	M	NA	NA	1000.6	NA	NA		M	NA	NA	NA	NA
2019/08/01 17:01:00	AWS2	10.55	39	15.84	45	M	M	M	NA	NA	1000.9	NA	NA		M	NA	NA	NA	NA
2019/08/01 17:02:01	AWS2	11.00	41	15.84	45	M	M	M	NA	NA	1000.5	NA	NA		M	NA	NA	NA	NA
2019/08/01 17:03:00	AWS2	12.23	44	15.84	45	M	M	M	NA	NA	1000.3	NA	NA		M	NA	NA	NA	NA
2019/08/01 17:04:00	AWS2	13.02	37	15.84	45	M	M	M	NA	NA	999.8	NA	NA		M	NA	NA	NA	NA
2019/08/01 17:05:00	AWS2	12.81	32	15.07	47	M	M	M	NA	NA	1000.4	NA	NA		M	NA	NA	NA	NA
2019/08/01 17:06:00	AWS2	12.81	39	15.38	28	M	M	M	NA	NA	999.7	NA	NA		M	NA	NA	NA	NA
2019/08/01 17:07:00	AWS2	13.33	36	15.38	28	M	M	M	NA	NA	999.6	NA	NA		M	NA	NA	NA	NA
2019/08/01 17:08:00	AWS2	11.65	32	15.38	28	M	M	M	NA	NA	1000.2	NA	NA		M	NA	NA	NA	NA
2019/08/01 17:09:00	AWS2	11.48	40	16.46	59	M	M	M	NA	NA	1000.0	NA	NA		M	NA	NA	NA	NA
2019/08/01 17:10:00	AWS2	14.17	47	18.52	48	M	M	M	NA	NA	999.6	NA	NA		M	NA	NA	NA	NA
2019/08/01 17:11:00	AWS2	14.64	41	18.52	48	M	M	M	NA	NA	999.6	NA	NA		M	NA	NA	NA	NA
2019/08/01 17:12:00	AWS2	14.39	32	18.52	48	M	M	M	NA	NA	999.7	NA	NA		M	NA	NA	NA	NA
2019/08/01 17:13:00	AWS2	14.21	28	18.52	48	M	M	M	NA	NA	1000.0	NA	NA		M	NA	NA	NA	NA
2019/08/01 17:14:00	AWS2	12.62	31	18.52	48	M	M	M	NA	NA	999.8	NA	NA		M	NA	NA	NA	NA
2019/08/01 17:15:00	AWS2	12.28	39	18.52	48	M	M	M	NA	NA	999.7	NA	NA		M	NA	NA	NA	NA
2019/08/01 17:16:00	AWS2	12.96	37	18.52	48	M	M	M	NA	NA	1000.0	NA	NA		M	NA	NA	NA	NA
2019/08/01 17:17:00	AWS2	12.65	34	18.52	48	M	M	M	NA	NA	999.8	NA	NA		M	NA	NA	NA	NA
2019/08/01 17:18:00	AWS2	13.19	32	18.52	48	M	M	M	NA	NA	999.8	NA	NA		M	NA	NA	NA	NA
2019/08/01 17:19:00	AWS2	15.73	37	20.78	56	M	M	M	NA	NA	998.6	NA	NA		M	NA	NA	NA	NA
2019/08/01 17:20:00	AWS2	15.68	33	20.78	56	M	M	M	NA	NA	999.8	NA	NA		M	NA	NA	NA	NA
2019/08/01 17:21:00	AWS2	14.77	29	20.78	56	M	M	M	NA	NA	999.3	NA	NA		M	NA	NA	NA	NA
2019/08/01 17:22:00	AWS2	14.17	36	20.78	56	M	M	M	NA	NA	999.5	NA	NA		M	NA	NA	NA	NA
2019/08/01 17:23:00	AWS2	15.04	31	20.78	56	M	M	M	NA	NA	998.7	NA	NA		M	NA	NA	NA	NA
2019/08/01 17:24:00	AWS2	15.95	21	20.78	56	M	M	M	NA	NA	999.9	NA	NA		M	NA	NA	NA	NA
2019/08/01 17:25:00	AWS2	14.24	30	20.78	56	M	M	M	NA	NA	999.9	NA	NA		M	NA	NA	NA	NA
2019/08/01 17:26:00	AWS2	14.65	45	20.78	56	M	M	M	NA	NA	999.9	NA	NA		M	NA	NA	NA	NA
2019/08/01 17:27:00	AWS2	15.82	48	20.78	56	M	M	M	NA	NA	999.8	NA	NA		M	NA	NA	NA	NA
2019/08/01 17:28:00	AWS2	15.79	46	20.78	56	M	M	M	NA	NA	999.7	NA	NA		M	NA	NA	NA	NA
2019/08/01 17:29:00	AWS2	16.11	44	19.86	30	M	M	M	NA	NA	999.3	NA	NA		M	NA	NA	NA	NA
2019/08/01 17:30:00	AWS2	16.41	46	19.14	50	M	M	M	NA	NA	999.5	NA	NA		M	NA	NA	NA	NA
2019/08/01 17:31:01	AWS2	16.13	49	19.14	50	M	M	M	NA	NA	999.5	NA	NA		M	NA	NA	NA	NA
2019/08/01 17:32:00	AWS2	15.89	50	19.14	50	M	M	M	NA	NA	999.9	NA	NA		M	NA	NA	NA	NA
2019/08/01 17:33:00	AWS2	16.58	49	20.47	53	M	M	M	NA	NA	999.3	NA	NA		M	NA	NA	NA	NA
2019/08/01 17:34:00	AWS2	14.48	47	20.47	53	M	M	M	NA	NA	1000.8	NA	NA		M	NA	NA	NA	NA
2019/08/01 17:35:00	AWS2	13.65	49	20.47	53	M	M	M	NA	NA	999.8	NA	NA		M	NA	NA	NA	NA
2019/08/01 17:36:00	AWS2	14.26	54	20.47	53	M	M	M	NA	NA	1000.6	NA	NA		M	NA	NA	NA	NA
2019/08/01 17:37:01	AWS2	12.26	59	20.47	53	M	M	M	NA	NA	1000.7	NA	NA		M	NA	NA	NA	NA
2019/08/01 17:38:00	AWS2	11.34	62	20.47	53	M	M	M	NA	NA	1000.6	NA	NA		M	NA	NA	NA	NA
2019/08/01 17:39:00	AWS2	10.81	67	20.47	53	M	M	M	NA	NA	1000.9	NA	NA		M	NA	NA	NA	NA
2019/08/01 17:40:00	AWS2	12.36	62	20.47	53	M	M	M	NA	NA	999.8	NA	NA		M	NA	NA	NA	NA
2019/08/01 17:41:00	AWS2	13.25	56	20.47	53	M	M	M	NA	NA	1000.1	NA	NA		M	NA	NA	NA	NA
2019/08/01 17:42:00	AWS2	14.63	61	20.47	53	M	M	M	NA	NA	999.3	NA	NA		M	NA	NA	NA	NA
2019/08/01 17:43:00	AWS2	13.04	58	20.37	62	M	M	M	NA	NA	1000.4	NA	NA		M	NA	NA	NA	NA
2019/08/01 17:44:00	AWS2	11.70	52	20.37	62	M	M	M	NA	NA	1000.0	NA	NA		M	NA	NA	NA	NA
2019/08/01 17:45:00	AWS2	11.81	51	18.47	62	M	M	M	NA	NA	1000.8	NA	NA		M	NA	NA	NA	NA
2019/08/01 17:46:00	AWS2	12.34	57	18.47	62	M	M	M	NA	NA	999.9	NA	NA		M	NA	NA	NA	NA
2019/08/01 17:47:00	AWS2	12.96	55	18.47	62	M	M	M	NA	NA	1000.5	NA	NA		M	NA	NA	NA	NA
2019/08/01 17:48:00	AWS2	9.34	45	18.47	62	M	M	M	NA	NA	1000.6	NA	NA		M	NA	NA	NA	NA
2019/08/01 17:49:00	AWS2	9.55	50	18.47	62	M	M	M	NA	NA	1000.1	NA	NA		M	NA	NA	NA	NA
2019/08/01 17:50:00	AWS2	13.14	62	18.47	62	M	M	M	NA	NA	999.5	NA	NA		M	NA	NA	NA	NA
2019/08/01 17:51:00	AWS2	12.75	59	18.47	62	M	M	M	NA	NA	1000.2	NA	NA		M	NA	NA	NA	NA
2019/08/01 17:52:00	AWS2	10.56	49	17.34	62	M	M	M	NA	NA	1000.2	NA	NA		M	NA	NA	NA	NA
2019/08/01 17:53:00	AWS2	10.84	50	17.34	62	M	M	M	NA	NA	1000.1	NA	NA		M	NA	NA	NA	NA
2019/08/01 17:54:00	AWS2	12.21	57	17.34	62	M	M	M	NA	NA	1000.0	NA	NA		M	NA	NA	NA	NA
2019/08/01 17:55:00	AWS2	12.68	55	17.34	62	M	M	M	NA	NA	1000.0	NA	NA		M	NA	NA	NA	NA
2019/08/01 17:56:00	AWS2	11.87	57	15.84	75	M	M	M	NA	NA	1000.1	NA	NA		M	NA	NA	NA	NA
2019/08/01 17:57:00	AWS2	12.32	64	15.84	75	M	M	M	NA	NA	999.8	NA	NA		M	NA	NA	NA	NA
2019/08/01 17:58:00	AWS2	12.25	64	15.84	75	M	M	M	NA	NA	1000.5	NA	NA		M	NA	NA	NA	NA
2019/08/01 17:59:00	AWS2	11.13	65	15.84	75	M	M	M	NA	NA	1000.4	NA	NA		M	NA	NA	NA	NA
2019/08/01 18:00:00	AWS2	11.13	67	15.84	75	M	M	M	NA	NA	1000.0	NA	NA		M	NA	NA	NA	NA
2019/08/01 18:01:00	AWS2	12.12	68	15.84	75	M	M	M	NA	NA	1000.0	NA	NA		M	NA	NA	NA	NA
2019/08/01 18:02:00	AWS2	11.79	65	15.84	75	M	M	M	NA	NA	1000.3	NA	NA		M	NA	NA	NA	NA
2019/08/01 18:03:00	AWS2	10.26	60	15.84	75	M	M	M	NA	NA	1000.4	NA	NA		M	NA	NA	NA	NA
2019/08/01 18:04:00	AWS2	10.29	61	15.84	75	M	M	M	NA	NA	1000.2	NA	NA		M	NA	NA	NA	NA
2019/08/01 18:05:00	AWS2	10.76	56	15.84	75	M	M	M	NA	NA	1000.2	NA	NA		M	NA	NA	NA	NA
2019/08/01 18:06:00	AWS2	10.29	52	14.87	73	M	M	M	NA	NA	999.8	NA	NA		M	NA	NA	NA	NA
2019/08/01 18:07:00	AWS2	10.09	63	14.87	73	M	M	M	NA	NA	1000.4	NA	NA		M	NA	NA	NA	NA
2019/08/01 18:08:00	AWS2	10.75	68	14.87	73	M	M	M	NA	NA	1000.4	NA	NA		M	NA	NA	NA	NA
2019/08/01 18:09:00	AWS2	11.44	62	14.87	73	M	M	M	NA	NA	999.9	NA	NA		M	NA	NA	NA	NA
2019/08/01 18:10:00	AWS2	9.64	56	14.87	73	M	M	M	NA	NA	1000.0	NA	NA		M	NA	NA	NA	NA
2019/08/01 18:11:00	AWS2	9.74	60	14.15	81	M	M	M	NA	NA	999.8	NA	NA		M	NA	NA	NA	NA
2019/08/01 18:12:00	AWS2	11.28	63	14.15	81	M	M	M	NA	NA	1000.0	NA	NA		M	NA	NA	NA	NA
2019/08/01 18:13:00	AWS2	11.36	60	14.15	81	M	M	M	NA	NA	999.9	NA	NA		M	NA	NA	NA	NA
2019/08/01 18:14:00	AWS2	11.20	64	14.15	81	M	M	M	NA	NA	1000.3	NA	NA		M	NA	NA	NA	NA
2019/08/01 18:15:00	AWS2	10.05	63	14.15	81	M	M	M	NA	NA	1000.3	NA	NA		M	NA	NA	NA	NA
2019/08/01 18:16:00	AWS2	8.92	56	14.15	81	M	M	M	NA	NA	1000.4	NA	NA		M	NA	NA	NA	NA
2019/08/01 18:17:00	AWS2	8.26	61	14.15	81	M	M	M	NA	NA	1000.3	NA	NA		M	NA	NA	NA	NA
2019/08/01 18:18:00	AWS2	8.69	59	14.15	81	M	M	M	NA	NA	999.7	NA	NA		M	NA	NA	NA	NA
2019/08/01 18:19:00	AWS2	9.63	60	14.15	81	M	M	M	NA	NA	1000.1	NA	NA		M	NA	NA	NA	NA
2019/08/01 18:20:00	AWS2	10.66	66	14.15	81	M	M	M	NA	NA	1000.1	NA	NA		M	NA	NA	NA	NA
2019/08/01 18:21:00	AWS2	10.05	62	13.32	66	M	M	M	NA	NA	1000.0	NA	NA		M	NA	NA	NA	NA
2019/08/01 18:22:00	AWS2	8.45	57	13.32	66	M	M	M	NA	NA	1000.1	NA	NA		M	NA	NA	NA	NA
2019/08/01 18:23:00	AWS2	8.20	56	13.32	66	M	M	M	NA	NA	1000.1	NA	NA		M	NA	NA	NA	NA
2019/08/01 18:24:01	AWS2	8.99	60	11.83	63	M	M	M	NA	NA	999.9	NA	NA		M	NA	NA	NA	NA
2019/08/01 18:25:00	AWS2	9.27	63	11.83	63	M	M	M	NA	NA	999.9	NA	NA		M	NA	NA	NA	NA
2019/08/01 18:26:00	AWS2	8.68	62	11.83	63	M	M	M	NA	NA	1000.1	NA	NA		M	NA	NA	NA	NA
2019/08/01 18:27:00	AWS2	8.94	61	12.14	68	M	M	M	NA	NA	999.9	NA	NA		M	NA	NA	NA	NA
2019/08/01 18:28:00	AWS2	9.89	63	12.14	68	M	M	M	NA	NA	999.6	NA	NA		M	NA	NA	NA	NA
2019/08/01 18:29:00	AWS2	11.77	65	17.90	62	M	M	M	NA	NA	999.3	NA	NA		M	NA	NA	NA	NA
2019/08/01 18:30:00	AWS2	13.06	56	17.90	62	M	M	M	NA	NA	999.2	NA	NA		M	NA	NA	NA	NA
2019/08/01 18:31:00	AWS2	10.66	49	17.90	62	M	M	M	NA	NA	1000.1	NA	NA		M	NA	NA	NA	NA
2019/08/01 18:32:00	AWS2	8.97	49	17.90	62	M	M	M	NA	NA	999.7	NA	NA		M	NA	NA	NA	NA
2019/08/01 18:33:00	AWS2	10.14	47	17.90	62	M	M	M	NA	NA	999.5	NA	NA		M	NA	NA	NA	NA
2019/08/01 18:34:00	AWS2	10.81	46	17.90	62	M	M	M	NA	NA	999.7	NA	NA		M	NA	NA	NA	NA
2019/08/01 18:35:00	AWS2	10.44	49	17.90	62	M	M	M	NA	NA	999.8	NA	NA		M	NA	NA	NA	NA
2019/08/01 18:36:00	AWS2	9.67	55	17.90	62	M	M	M	NA	NA	999.9	NA	NA		M	NA	NA	NA	NA
2019/08/01 18:37:00	AWS2	9.52	55	17.90	62	M	M	M	NA	NA	999.2	NA	NA		M	NA	NA	NA	NA
2019/08/01 18:38:00	AWS2	9.98	50	17.90	62	M	M	M	NA	NA	999.8	NA	NA		M	NA	NA	NA	NA
2019/08/01 18:39:00	AWS2	9.73	46	15.18	52	M	M	M	NA	NA	1000.0	NA	NA		M	NA	NA	NA	NA
2019/08/01 18:40:00	AWS2	9.23	48	12.91	42	M	M	M	NA	NA	999.9	NA	NA		M	NA	NA	NA	NA
2019/08/01 18:41:00	AWS2	8.75	53	12.91	42	M	M	M	NA	NA	999.2	NA	NA		M	NA	NA	NA	NA
2019/08/01 18:42:01	AWS2	9.03	50	12.91	42	M	M	M	NA	NA	999.5	NA	NA		M	NA	NA	NA	NA
2019/08/01 18:43:00	AWS2	9.53	46	12.40	41	M	M	M	NA	NA	1000.2	NA	NA		M	NA	NA	NA	NA
2019/08/01 18:44:00	AWS2	9.98	45	12.40	41	M	M	M	NA	NA	999.7	NA	NA		M	NA	NA	NA	NA
2019/08/01 18:45:00	AWS2	9.55	42	12.40	41	M	M	M	NA	NA	999.7	NA	NA		M	NA	NA	NA	NA
2019/08/01 18:46:00	AWS2	9.27	46	12.40	41	M	M	M	NA	NA	999.8	NA	NA		M	NA	NA	NA	NA
2019/08/01 18:47:00	AWS2	10.15	49	11.73	56	M	M	M	NA	NA	1000.3	NA	NA		M	NA	NA	NA	NA
2019/08/01 18:48:00	AWS2	9.67	44	11.73	56	M	M	M	NA	NA	999.4	NA	NA		M	NA	NA	NA	NA
2019/08/01 18:49:00	AWS2	8.22	45	11.73	56	M	M	M	NA	NA	1000.2	NA	NA		M	NA	NA	NA	NA
2019/08/01 18:50:00	AWS2	8.42	50	11.73	56	M	M	M	NA	NA	999.8	NA	NA		M	NA	NA	NA	NA
2019/08/01 18:51:00	AWS2	9.65	49	11.73	56	M	M	M	NA	NA	999.5	NA	NA		M	NA	NA	NA	NA
2019/08/01 18:52:00	AWS2	10.23	48	11.83	45	M	M	M	NA	NA	999.8	NA	NA		M	NA	NA	NA	NA
2019/08/01 18:53:00	AWS2	10.34	49	11.83	45	M	M	M	NA	NA	999.4	NA	NA		M	NA	NA	NA	NA
2019/08/01 18:54:00	AWS2	11.50	49	13.94	48	M	M	M	NA	NA	998.9	NA	NA		M	NA	NA	NA	NA
2019/08/01 18:55:00	AWS2	11.44	46	13.94	48	M	M	M	NA	NA	1000.1	NA	NA		M	NA	NA	NA	NA
2019/08/01 18:56:00	AWS2	11.24	42	13.94	40	M	M	M	NA	NA	999.6	NA	NA		M	NA	NA	NA	NA
2019/08/01 18:57:00	AWS2	11.55	45	13.94	40	M	M	M	NA	NA	999.2	NA	NA		M	NA	NA	NA	NA
2019/08/01 18:58:00	AWS2	10.75	48	13.94	40	M	M	M	NA	NA	999.5	NA	NA		M	NA	NA	NA	NA
2019/08/01 18:59:00	AWS2	10.99	47	13.94	40	M	M	M	NA	NA	999.1	NA	NA		M	NA	NA	NA	NA
2019/08/01 19:00:00	AWS2	11.06	48	13.94	40	M	M	M	NA	NA	999.0	NA	NA		M	NA	NA	NA	NA
2019/08/01 19:01:00	AWS2	11.11	46	13.94	40	M	M	M	NA	NA	999.4	NA	NA		M	NA	NA	NA	NA
2019/08/01 19:02:00	AWS2	11.46	43	13.94	40	M	M	M	NA	NA	998.4	NA	NA		M	NA	NA	NA	NA
2019/08/01 19:03:00	AWS2	11.59	44	13.94	40	M	M	M	NA	NA	999.6	NA	NA		M	NA	NA	NA	NA
2019/08/01 19:04:01	AWS2	12.04	48	13.94	40	M	M	M	NA	NA	998.9	NA	NA		M	NA	NA	NA	NA
2019/08/01 19:05:00	AWS2	12.29	50	13.94	40	M	M	M	NA	NA	999.1	NA	NA		M	NA	NA	NA	NA
2019/08/01 19:06:00	AWS2	12.17	51	13.38	48	M	M	M	NA	NA	999.0	NA	NA		M	NA	NA	NA	NA
2019/08/01 19:07:00	AWS2	11.75	48	13.48	43	M	M	M	NA	NA	998.8	NA	NA		M	NA	NA	NA	NA
2019/08/01 19:08:00	AWS2	11.14	45	13.48	43	M	M	M	NA	NA	998.6	NA	NA		M	NA	NA	NA	NA
2019/08/01 19:09:00	AWS2	11.63	46	13.48	43	M	M	M	NA	NA	999.2	NA	NA		M	NA	NA	NA	NA
2019/08/01 19:10:00	AWS2	11.90	47	13.48	43	M	M	M	NA	NA	999.1	NA	NA		M	NA	NA	NA	NA
2019/08/01 19:11:00	AWS2	11.87	40	14.35	31	M	M	M	NA	NA	998.5	NA	NA		M	NA	NA	NA	NA
2019/08/01 19:12:00	AWS2	12.92	30	16.10	26	M	M	M	NA	NA	998.9	NA	NA		M	NA	NA	NA	NA
2019/08/01 19:13:00	AWS2	12.96	25	16.10	26	M	M	M	NA	NA	998.8	NA	NA		M	NA	NA	NA	NA
2019/08/01 19:14:00	AWS2	12.45	29	16.10	26	M	M	M	NA	NA	998.8	NA	NA		M	NA	NA	NA	NA
2019/08/01 19:15:00	AWS2	12.44	29	16.10	26	M	M	M	NA	NA	999.1	NA	NA		M	NA	NA	NA	NA
2019/08/01 19:16:00	AWS2	12.74	26	16.10	26	M	M	M	NA	NA	998.6	NA	NA		M	NA	NA	NA	NA
2019/08/01 19:17:00	AWS2	13.19	23	16.10	26	M	M	M	NA	NA	998.7	NA	NA		M	NA	NA	NA	NA
2019/08/01 19:18:00	AWS2	13.19	22	16.10	26	M	M	M	NA	NA	998.3	NA	NA		M	NA	NA	NA	NA
2019/08/01 19:19:00	AWS2	15.35	23	19.50	21	M	M	M	NA	NA	997.7	NA	NA		M	NA	NA	NA	NA
2019/08/01 19:20:00	AWS2	16.27	25	19.50	21	M	M	M	NA	NA	998.1	NA	NA		M	NA	NA	NA	NA
2019/08/01 19:21:00	AWS2	15.40	27	19.50	21	M	M	M	NA	NA	998.1	NA	NA		M	NA	NA	NA	NA
2019/08/01 19:22:00	AWS2	15.51	29	19.50	21	M	M	M	NA	NA	997.5	NA	NA		M	NA	NA	NA	NA
2019/08/01 19:23:00	AWS2	15.10	28	19.50	21	M	M	M	NA	NA	998.3	NA	NA		M	NA	NA	NA	NA
2019/08/01 19:24:00	AWS2	14.87	29	19.50	21	M	M	M	NA	NA	998.4	NA	NA		M	NA	NA	NA	NA
2019/08/01 19:25:00	AWS2	14.09	27	19.50	21	M	M	M	NA	NA	998.1	NA	NA		M	NA	NA	NA	NA
2019/08/01 19:26:00	AWS2	13.29	22	19.50	21	M	M	M	NA	NA	998.4	NA	NA		M	NA	NA	NA	NA
2019/08/01 19:27:00	AWS2	12.57	23	19.50	21	M	M	M	NA	NA	998.7	NA	NA		M	NA	NA	NA	NA
2019/08/01 19:28:00	AWS2	12.09	30	19.50	21	M	M	M	NA	NA	998.2	NA	NA		M	NA	NA	NA	NA
2019/08/01 19:29:00	AWS2	12.87	33	17.44	26	M	M	M	NA	NA	998.2	NA	NA		M	NA	NA	NA	NA
2019/08/01 19:30:00	AWS2	13.94	31	17.23	29	M	M	M	NA	NA	997.3	NA	NA		M	NA	NA	NA	NA
2019/08/01 19:31:00	AWS2	15.57	31	19.34	28	M	M	M	NA	NA	997.1	NA	NA		M	NA	NA	NA	NA
2019/08/01 19:32:00	AWS2	16.91	29	19.34	28	M	M	M	NA	NA	997.6	NA	NA		M	NA	NA	NA	NA
2019/08/01 19:33:00	AWS2	16.27	29	19.34	28	M	M	M	NA	NA	997.6	NA	NA		M	NA	NA	NA	NA
2019/08/01 19:34:00	AWS2	16.51	32	20.53	27	M	M	M	NA	NA	997.6	NA	NA		M	NA	NA	NA	NA
2019/08/01 19:35:00	AWS2	16.82	32	20.53	27	M	M	M	NA	NA	997.8	NA	NA		M	NA	NA	NA	NA
2019/08/01 19:36:00	AWS2	15.20	36	20.53	27	M	M	M	NA	NA	997.8	NA	NA		M	NA	NA	NA	NA
2019/08/01 19:37:00	AWS2	14.60	37	20.53	27	M	M	M	NA	NA	997.8	NA	NA		M	NA	NA	NA	NA
2019/08/01 19:38:00	AWS2	14.60	38	20.53	27	M	M	M	NA	NA	997.8	NA	NA		M	NA	NA	NA	NA
2019/08/01 19:39:00	AWS2	14.93	39	20.53	27	M	M	M	NA	NA	997.2	NA	NA		M	NA	NA	NA	NA
2019/08/01 19:40:00	AWS2	15.84	35	20.53	27	M	M	M	NA	NA	997.8	NA	NA		M	NA	NA	NA	NA
2019/08/01 19:41:00	AWS2	15.08	37	20.53	27	M	M	M	NA	NA	998.1	NA	NA		M	NA	NA	NA	NA
2019/08/01 19:42:00	AWS2	14.71	41	20.53	27	M	M	M	NA	NA	997.5	NA	NA		M	NA	NA	NA	NA
2019/08/01 19:43:00	AWS2	15.52	42	20.53	27	M	M	M	NA	NA	997.9	NA	NA		M	NA	NA	NA	NA
2019/08/01 19:44:00	AWS2	16.24	41	18.73	28	M	M	M	NA	NA	997.5	NA	NA		M	NA	NA	NA	NA
2019/08/01 19:45:00	AWS2	15.75	40	18.73	28	M	M	M	NA	NA	998.0	NA	NA		M	NA	NA	NA	NA
2019/08/01 19:46:00	AWS2	14.95	41	18.73	28	M	M	M	NA	NA	997.5	NA	NA		M	NA	NA	NA	NA
2019/08/01 19:47:00	AWS2	15.96	39	18.67	39	M	M	M	NA	NA	997.7	NA	NA		M	NA	NA	NA	NA
2019/08/01 19:48:00	AWS2	16.53	35	18.67	37	M	M	M	NA	NA	997.3	NA	NA		M	NA	NA	NA	NA
2019/08/01 19:49:00	AWS2	16.40	38	18.67	37	M	M	M	NA	NA	997.2	NA	NA		M	NA	NA	NA	NA
2019/08/01 19:50:00	AWS2	16.10	40	18.67	37	M	M	M	NA	NA	998.1	NA	NA		M	NA	NA	NA	NA
2019/08/01 19:51:00	AWS2	15.20	44	18.67	37	M	M	M	NA	NA	998.5	NA	NA		M	NA	NA	NA	NA
2019/08/01 19:52:00	AWS2	14.68	52	18.67	37	M	M	M	NA	NA	997.9	NA	NA		M	NA	NA	NA	NA
2019/08/01 19:53:00	AWS2	14.98	55	18.67	37	M	M	M	NA	NA	997.6	NA	NA		M	NA	NA	NA	NA
2019/08/01 19:54:00	AWS2	16.90	63	19.70	66	M	M	M	NA	NA	998.2	NA	NA		M	NA	NA	NA	NA
2019/08/01 19:55:00	AWS2	18.47	68	19.70	66	M	M	M	NA	NA	998.2	NA	NA		M	NA	NA	NA	NA
2019/08/01 19:56:00	AWS2	17.79	70	19.70	66	M	M	M	NA	NA	998.6	NA	NA		M	NA	NA	NA	NA
2019/08/01 19:57:00	AWS2	16.96	71	19.70	66	M	M	M	NA	NA	998.4	NA	NA		M	NA	NA	NA	NA
2019/08/01 19:58:00	AWS2	16.85	69	19.70	66	M	M	M	NA	NA	998.0	NA	NA		M	NA	NA	NA	NA
2019/08/01 19:59:00	AWS2	15.89	68	19.70	66	M	M	M	NA	NA	998.1	NA	NA		M	NA	NA	NA	NA
2019/08/01 20:00:00	AWS2	15.17	65	19.70	66	M	M	M	NA	NA	998.5	NA	NA		M	NA	NA	NA	NA
2019/08/01 20:01:00	AWS2	15.12	60	19.70	66	M	M	M	NA	NA	998.0	NA	NA		M	NA	NA	NA	NA
2019/08/01 20:02:00	AWS2	14.82	52	19.70	66	M	M	M	NA	NA	997.6	NA	NA		M	NA	NA	NA	NA
2019/08/01 20:03:00	AWS2	14.81	47	19.70	66	M	M	M	NA	NA	997.3	NA	NA		M	NA	NA	NA	NA
2019/08/01 20:04:00	AWS2	14.20	41	19.45	75	M	M	M	NA	NA	998.0	NA	NA		M	NA	NA	NA	NA
2019/08/01 20:05:00	AWS2	13.68	36	19.03	80	M	M	M	NA	NA	997.7	NA	NA		M	NA	NA	NA	NA
2019/08/01 20:06:00	AWS2	13.50	40	18.16	74	M	M	M	NA	NA	997.7	NA	NA		M	NA	NA	NA	NA
2019/08/01 20:07:00	AWS2	14.14	46	18.16	74	M	M	M	NA	NA	997.7	NA	NA		M	NA	NA	NA	NA
2019/08/01 20:08:00	AWS2	14.81	46	17.65	62	M	M	M	NA	NA	997.5	NA	NA		M	NA	NA	NA	NA
2019/08/01 20:09:00	AWS2	14.98	39	20.32	28	M	M	M	NA	NA	997.7	NA	NA		M	NA	NA	NA	NA
2019/08/01 20:10:00	AWS2	16.07	31	20.32	28	M	M	M	NA	NA	997.3	NA	NA		M	NA	NA	NA	NA
2019/08/01 20:11:00	AWS2	16.84	28	20.32	28	M	M	M	NA	NA	997.5	NA	NA		M	NA	NA	NA	NA
2019/08/01 20:12:00	AWS2	17.42	28	20.32	28	M	M	M	NA	NA	997.4	NA	NA		M	NA	NA	NA	NA
2019/08/01 20:13:00	AWS2	17.38	28	20.32	28	M	M	M	NA	NA	997.7	NA	NA		M	NA	NA	NA	NA
2019/08/01 20:14:00	AWS2	17.25	28	20.32	28	M	M	M	NA	NA	997.3	NA	NA		M	NA	NA	NA	NA
2019/08/01 20:15:00	AWS2	18.10	28	20.32	28	M	M	M	NA	NA	997.2	NA	NA		M	NA	NA	NA	NA
2019/08/01 20:16:00	AWS2	18.10	25	20.32	28	M	M	M	NA	NA	997.0	NA	NA		M	NA	NA	NA	NA
2019/08/01 20:17:00	AWS2	18.22	24	20.32	28	M	M	M	NA	NA	997.0	NA	NA		M	NA	NA	NA	NA
2019/08/01 20:18:00	AWS2	18.60	26	20.32	28	M	M	M	NA	NA	997.1	NA	NA		M	NA	NA	NA	NA
2019/08/01 20:19:00	AWS2	17.92	22	20.27	26	M	M	M	NA	NA	997.0	NA	NA		M	NA	NA	NA	NA
2019/08/01 20:20:00	AWS2	18.07	22	20.58	25	M	M	M	NA	NA	996.9	NA	NA		M	NA	NA	NA	NA
2019/08/01 20:21:00	AWS2	18.61	28	20.58	25	M	M	M	NA	NA	997.2	NA	NA		M	NA	NA	NA	NA
2019/08/01 20:22:00	AWS2	17.59	29	20.58	25	M	M	M	NA	NA	997.3	NA	NA		M	NA	NA	NA	NA
2019/08/01 20:23:00	AWS2	17.64	28	20.58	25	M	M	M	NA	NA	996.8	NA	NA		M	NA	NA	NA	NA
2019/08/01 20:24:00	AWS2	17.45	28	20.58	25	M	M	M	NA	NA	997.3	NA	NA		M	NA	NA	NA	NA
2019/08/01 20:25:00	AWS2	15.83	30	20.58	25	M	M	M	NA	NA	997.7	NA	NA		M	NA	NA	NA	NA
2019/08/01 20:26:00	AWS2	15.07	36	20.58	25	M	M	M	NA	NA	997.6	NA	NA		M	NA	NA	NA	NA
2019/08/01 20:27:00	AWS2	14.77	35	20.58	25	M	M	M	NA	NA	997.8	NA	NA		M	NA	NA	NA	NA
2019/08/01 20:28:00	AWS2	14.79	30	20.58	25	M	M	M	NA	NA	997.8	NA	NA		M	NA	NA	NA	NA
2019/08/01 20:29:00	AWS2	14.27	33	20.58	25	M	M	M	NA	NA	998.2	NA	NA		M	NA	NA	NA	NA
2019/08/01 20:30:00	AWS2	14.67	34	20.17	28	M	M	M	NA	NA	997.4	NA	NA		M	NA	NA	NA	NA
2019/08/01 20:31:00	AWS2	15.07	36	20.17	28	M	M	M	NA	NA	997.7	NA	NA		M	NA	NA	NA	NA
2019/08/01 20:32:00	AWS2	14.56	40	20.17	28	M	M	M	NA	NA	997.8	NA	NA		M	NA	NA	NA	NA
2019/08/01 20:33:00	AWS2	14.35	38	17.90	26	M	M	M	NA	NA	998.1	NA	NA		M	NA	NA	NA	NA
2019/08/01 20:34:00	AWS2	13.94	42	17.29	34	M	M	M	NA	NA	997.7	NA	NA		M	NA	NA	NA	NA
2019/08/01 20:35:00	AWS2	14.47	45	16.62	33	M	M	M	NA	NA	997.8	NA	NA		M	NA	NA	NA	NA
2019/08/01 20:36:00	AWS2	15.16	46	17.39	51	M	M	M	NA	NA	997.4	NA	NA		M	NA	NA	NA	NA
2019/08/01 20:37:00	AWS2	14.75	45	17.39	51	M	M	M	NA	NA	998.0	NA	NA		M	NA	NA	NA	NA
2019/08/01 20:38:00	AWS2	14.33	47	17.39	51	M	M	M	NA	NA	997.8	NA	NA		M	NA	NA	NA	NA
2019/08/01 20:39:00	AWS2	13.96	49	17.39	51	M	M	M	NA	NA	998.2	NA	NA		M	NA	NA	NA	NA
2019/08/01 20:40:00	AWS2	13.97	50	17.39	51	M	M	M	NA	NA	997.4	NA	NA		M	NA	NA	NA	NA
2019/08/01 20:41:00	AWS2	14.88	53	17.39	51	M	M	M	NA	NA	997.6	NA	NA		M	NA	NA	NA	NA
2019/08/01 20:42:00	AWS2	15.25	56	17.39	51	M	M	M	NA	NA	997.3	NA	NA		M	NA	NA	NA	NA
2019/08/01 20:43:00	AWS2	15.16	55	17.39	51	M	M	M	NA	NA	997.5	NA	NA		M	NA	NA	NA	NA
2019/08/01 20:44:00	AWS2	14.87	54	17.39	51	M	M	M	NA	NA	997.3	NA	NA		M	NA	NA	NA	NA
2019/08/01 20:45:00	AWS2	14.51	54	17.39	51	M	M	M	NA	NA	997.8	NA	NA		M	NA	NA	NA	NA
2019/08/01 20:46:00	AWS2	14.84	54	17.08	53	M	M	M	NA	NA	997.9	NA	NA		M	NA	NA	NA	NA
2019/08/01 20:47:00	AWS2	15.34	54	17.08	55	M	M	M	NA	NA	997.3	NA	NA		M	NA	NA	NA	NA
2019/08/01 20:48:00	AWS2	14.74	53	17.08	55	M	M	M	NA	NA	997.5	NA	NA		M	NA	NA	NA	NA
2019/08/01 20:49:00	AWS2	14.79	55	17.08	55	M	M	M	NA	NA	997.5	NA	NA		M	NA	NA	NA	NA
2019/08/01 20:50:00	AWS2	15.55	55	18.52	48	M	M	M	NA	NA	997.0	NA	NA		M	NA	NA	NA	NA
2019/08/01 20:51:00	AWS2	15.42	58	18.52	48	M	M	M	NA	NA	997.7	NA	NA		M	NA	NA	NA	NA
2019/08/01 20:52:00	AWS2	15.73	64	18.52	48	M	M	M	NA	NA	996.7	NA	NA		M	NA	NA	NA	NA
2019/08/01 20:53:00	AWS2	16.85	64	18.52	48	M	M	M	NA	NA	997.6	NA	NA		M	NA	NA	NA	NA
2019/08/01 20:54:00	AWS2	17.08	61	18.52	48	M	M	M	NA	NA	996.6	NA	NA		M	NA	NA	NA	NA
2019/08/01 20:55:00	AWS2	15.67	59	18.52	48	M	M	M	NA	NA	997.2	NA	NA		M	NA	NA	NA	NA
2019/08/01 20:56:00	AWS2	14.04	58	18.52	48	M	M	M	NA	NA	997.6	NA	NA		M	NA	NA	NA	NA
2019/08/01 20:57:00	AWS2	14.01	55	18.52	48	M	M	M	NA	NA	997.2	NA	NA		M	NA	NA	NA	NA
2019/08/01 20:58:00	AWS2	14.66	53	18.52	48	M	M	M	NA	NA	997.1	NA	NA		M	NA	NA	NA	NA
2019/08/01 20:59:00	AWS2	14.77	55	18.52	48	M	M	M	NA	NA	996.8	NA	NA		M	NA	NA	NA	NA
2019/08/01 21:00:00	AWS2	14.97	60	18.21	64	M	M	M	NA	NA	996.9	NA	NA		M	NA	NA	NA	NA
2019/08/01 21:01:00	AWS2	17.52	66	22.58	68	M	M	M	NA	NA	996.9	NA	NA		M	NA	NA	NA	NA
2019/08/01 21:02:00	AWS2	19.38	61	22.58	68	M	M	M	NA	NA	995.7	NA	NA		M	NA	NA	NA	NA
2019/08/01 21:03:00	AWS2	18.56	51	22.58	68	M	M	M	NA	NA	996.3	NA	NA		M	NA	NA	NA	NA
2019/08/01 21:04:00	AWS2	18.22	49	22.58	68	M	M	M	NA	NA	996.2	NA	NA		M	NA	NA	NA	NA
2019/08/01 21:05:00	AWS2	18.32	51	22.58	68	M	M	M	NA	NA	995.4	NA	NA		M	NA	NA	NA	NA
2019/08/01 21:06:00	AWS2	16.86	54	22.58	68	M	M	M	NA	NA	996.7	NA	NA		M	NA	NA	NA	NA
2019/08/01 21:07:00	AWS2	15.62	55	22.58	68	M	M	M	NA	NA	996.9	NA	NA		M	NA	NA	NA	NA
2019/08/01 21:08:00	AWS2	15.75	59	22.58	68	M	M	M	NA	NA	996.8	NA	NA		M	NA	NA	NA	NA
2019/08/01 21:09:00	AWS2	15.78	63	22.58	68	M	M	M	NA	NA	996.7	NA	NA		M	NA	NA	NA	NA
2019/08/01 21:10:00	AWS2	15.63	65	22.58	68	M	M	M	NA	NA	997.3	NA	NA		M	NA	NA	NA	NA
2019/08/01 21:11:00	AWS2	15.36	63	21.76	57	M	M	M	NA	NA	995.3	NA	NA		M	NA	NA	NA	NA
2019/08/01 21:12:00	AWS2	14.39	57	21.50	48	M	M	M	NA	NA	995.5	NA	NA		M	NA	NA	NA	NA
2019/08/01 21:13:00	AWS2	14.25	54	19.60	52	M	M	M	NA	NA	996.7	NA	NA		M	NA	NA	NA	NA
2019/08/01 21:14:00	AWS2	14.68	54	19.60	52	M	M	M	NA	NA	996.6	NA	NA		M	NA	NA	NA	NA
2019/08/01 21:15:00	AWS2	14.61	58	19.34	68	M	M	M	NA	NA	997.9	NA	NA		M	NA	NA	NA	NA
2019/08/01 21:16:00	AWS2	16.65	61	20.22	66	M	M	M	NA	NA	996.3	NA	NA		M	NA	NA	NA	NA
2019/08/01 21:17:00	AWS2	16.23	60	20.22	66	M	M	M	NA	NA	997.0	NA	NA		M	NA	NA	NA	NA
2019/08/01 21:18:00	AWS2	14.89	63	20.22	66	M	M	M	NA	NA	997.0	NA	NA		M	NA	NA	NA	NA
2019/08/01 21:19:00	AWS2	15.87	64	20.22	66	M	M	M	NA	NA	997.7	NA	NA		M	NA	NA	NA	NA
2019/08/01 21:20:00	AWS2	15.13	66	20.22	66	M	M	M	NA	NA	997.7	NA	NA		M	NA	NA	NA	NA
2019/08/01 21:21:00	AWS2	14.08	65	20.22	66	M	M	M	NA	NA	997.5	NA	NA		M	NA	NA	NA	NA
2019/08/01 21:22:00	AWS2	14.38	65	20.22	66	M	M	M	NA	NA	997.9	NA	NA		M	NA	NA	NA	NA
2019/08/01 21:23:00	AWS2	15.25	71	20.22	66	M	M	M	NA	NA	997.7	NA	NA		M	NA	NA	NA	NA
2019/08/01 21:24:00	AWS2	16.11	65	20.22	66	M	M	M	NA	NA	995.8	NA	NA		M	NA	NA	NA	NA
2019/08/01 21:25:00	AWS2	16.54	62	20.22	66	M	M	M	NA	NA	996.9	NA	NA		M	NA	NA	NA	NA
2019/08/01 21:26:00	AWS2	16.71	63	19.14	69	M	M	M	NA	NA	996.1	NA	NA		M	NA	NA	NA	NA
2019/08/01 21:27:00	AWS2	15.15	56	19.14	69	M	M	M	NA	NA	996.5	NA	NA		M	NA	NA	NA	NA
2019/08/01 21:28:00	AWS2	14.33	49	19.96	48	M	M	M	NA	NA	997.3	NA	NA		M	NA	NA	NA	NA
2019/08/01 21:29:00	AWS2	15.16	50	19.96	48	M	M	M	NA	NA	996.9	NA	NA		M	NA	NA	NA	NA
2019/08/01 21:30:00	AWS2	15.00	58	19.96	48	M	M	M	NA	NA	996.7	NA	NA		M	NA	NA	NA	NA
2019/08/01 21:31:00	AWS2	16.28	61	22.28	60	M	M	M	NA	NA	996.7	NA	NA		M	NA	NA	NA	NA
2019/08/01 21:32:00	AWS2	16.60	60	22.28	60	M	M	M	NA	NA	996.5	NA	NA		M	NA	NA	NA	NA
2019/08/01 21:33:00	AWS2	15.17	57	22.28	60	M	M	M	NA	NA	996.7	NA	NA		M	NA	NA	NA	NA
2019/08/01 21:34:00	AWS2	14.87	58	22.28	60	M	M	M	NA	NA	997.3	NA	NA		M	NA	NA	NA	NA
2019/08/01 21:35:00	AWS2	16.09	64	22.28	60	M	M	M	NA	NA	997.7	NA	NA		M	NA	NA	NA	NA
2019/08/01 21:36:00	AWS2	15.13	66	22.28	60	M	M	M	NA	NA	997.1	NA	NA		M	NA	NA	NA	NA
2019/08/01 21:37:00	AWS2	12.95	66	22.28	60	M	M	M	NA	NA	997.3	NA	NA		M	NA	NA	NA	NA
2019/08/01 21:38:00	AWS2	14.30	67	22.28	60	M	M	M	NA	NA	996.9	NA	NA		M	NA	NA	NA	NA
2019/08/01 21:39:00	AWS2	14.56	69	22.28	60	M	M	M	NA	NA	997.1	NA	NA		M	NA	NA	NA	NA
2019/08/01 21:40:00	AWS2	14.08	62	22.28	60	M	M	M	NA	NA	997.2	NA	NA		M	NA	NA	NA	NA
2019/08/01 21:41:00	AWS2	14.49	64	19.19	66	M	M	M	NA	NA	997.5	NA	NA		M	NA	NA	NA	NA
2019/08/01 21:42:00	AWS2	14.45	66	19.19	66	M	M	M	NA	NA	996.6	NA	NA		M	NA	NA	NA	NA
2019/08/01 21:43:00	AWS2	14.94	61	19.19	66	M	M	M	NA	NA	997.0	NA	NA		M	NA	NA	NA	NA
2019/08/01 21:44:00	AWS2	15.05	65	19.19	66	M	M	M	NA	NA	997.4	NA	NA		M	NA	NA	NA	NA
2019/08/01 21:45:00	AWS2	15.63	69	19.14	69	M	M	M	NA	NA	997.2	NA	NA		M	NA	NA	NA	NA
2019/08/01 21:46:00	AWS2	15.95	66	21.45	54	M	M	M	NA	NA	996.4	NA	NA		M	NA	NA	NA	NA
2019/08/01 21:47:00	AWS2	14.83	60	21.45	54	M	M	M	NA	NA	996.5	NA	NA		M	NA	NA	NA	NA
2019/08/01 21:48:00	AWS2	14.17	58	21.45	54	M	M	M	NA	NA	996.8	NA	NA		M	NA	NA	NA	NA
2019/08/01 21:49:00	AWS2	13.89	60	21.45	54	M	M	M	NA	NA	996.8	NA	NA		M	NA	NA	NA	NA
2019/08/01 21:50:00	AWS2	14.34	61	21.45	54	M	M	M	NA	NA	997.0	NA	NA		M	NA	NA	NA	NA
2019/08/01 21:51:00	AWS2	15.84	61	21.45	54	M	M	M	NA	NA	996.3	NA	NA		M	NA	NA	NA	NA
2019/08/01 21:52:00	AWS2	15.51	60	21.45	54	M	M	M	NA	NA	996.4	NA	NA		M	NA	NA	NA	NA
2019/08/01 21:53:00	AWS2	14.07	56	21.45	54	M	M	M	NA	NA	996.6	NA	NA		M	NA	NA	NA	NA
2019/08/01 21:54:00	AWS2	14.10	58	21.45	54	M	M	M	NA	NA	996.6	NA	NA		M	NA	NA	NA	NA
2019/08/01 21:55:00	AWS2	13.67	63	21.45	54	M	M	M	NA	NA	996.5	NA	NA		M	NA	NA	NA	NA
2019/08/01 21:56:00	AWS2	13.28	62	17.90	62	M	M	M	NA	NA	996.8	NA	NA		M	NA	NA	NA	NA
2019/08/01 21:57:00	AWS2	13.70	56	17.90	62	M	M	M	NA	NA	996.0	NA	NA		M	NA	NA	NA	NA
2019/08/01 21:58:00	AWS2	13.23	55	17.90	62	M	M	M	NA	NA	996.7	NA	NA		M	NA	NA	NA	NA
2019/08/01 21:59:00	AWS2	12.90	61	17.90	62	M	M	M	NA	NA	996.5	NA	NA		M	NA	NA	NA	NA
2019/08/01 22:00:00	AWS2	13.51	65	17.90	62	M	M	M	NA	NA	996.6	NA	NA		M	NA	NA	NA	NA
2019/08/01 22:01:00	AWS2	13.96	66	17.54	63	M	M	M	NA	NA	996.7	NA	NA		M	NA	NA	NA	NA
2019/08/01 22:02:00	AWS2	14.26	64	17.54	63	M	M	M	NA	NA	996.3	NA	NA		M	NA	NA	NA	NA
2019/08/01 22:03:00	AWS2	14.27	61	17.54	63	M	M	M	NA	NA	996.6	NA	NA		M	NA	NA	NA	NA
2019/08/01 22:04:00	AWS2	14.87	61	18.57	73	M	M	M	NA	NA	996.2	NA	NA		M	NA	NA	NA	NA
2019/08/01 22:05:00	AWS2	16.83	64	20.42	66	M	M	M	NA	NA	996.5	NA	NA		M	NA	NA	NA	NA
2019/08/01 22:06:00	AWS2	17.66	67	24.54	67	M	M	M	NA	NA	996.2	NA	NA		M	NA	NA	NA	NA
2019/08/01 22:07:00	AWS2	17.98	62	24.54	67	M	M	M	NA	NA	995.6	NA	NA		M	NA	NA	NA	NA
2019/08/01 22:08:00	AWS2	18.04	59	24.54	67	M	M	M	NA	NA	995.5	NA	NA		M	NA	NA	NA	NA
2019/08/01 22:09:00	AWS2	17.83	60	24.54	67	M	M	M	NA	NA	994.6	NA	NA		M	NA	NA	NA	NA
2019/08/01 22:10:00	AWS2	18.04	56	24.54	67	M	M	M	NA	NA	995.1	NA	NA		M	NA	NA	NA	NA
2019/08/01 22:11:00	AWS2	16.22	51	24.54	67	M	M	M	NA	NA	996.4	NA	NA		M	NA	NA	NA	NA
2019/08/01 22:12:00	AWS2	15.40	58	24.54	67	M	M	M	NA	NA	995.8	NA	NA		M	NA	NA	NA	NA
2019/08/01 22:13:00	AWS2	15.59	62	24.54	67	M	M	M	NA	NA	995.8	NA	NA		M	NA	NA	NA	NA
2019/08/01 22:14:00	AWS2	14.56	62	24.54	67	M	M	M	NA	NA	995.8	NA	NA		M	NA	NA	NA	NA
2019/08/01 22:15:00	AWS2	15.07	62	24.54	67	M	M	M	NA	NA	995.7	NA	NA		M	NA	NA	NA	NA
2019/08/01 22:16:00	AWS2	15.32	60	20.89	51	M	M	M	NA	NA	995.7	NA	NA		M	NA	NA	NA	NA
2019/08/01 22:17:00	AWS2	14.86	65	20.89	51	M	M	M	NA	NA	996.8	NA	NA		M	NA	NA	NA	NA
2019/08/01 22:18:00	AWS2	14.62	64	20.89	51	M	M	M	NA	NA	996.6	NA	NA		M	NA	NA	NA	NA
2019/08/01 22:19:00	AWS2	14.37	57	20.89	51	M	M	M	NA	NA	995.5	NA	NA		M	NA	NA	NA	NA
2019/08/01 22:20:00	AWS2	14.81	56	20.83	56	M	M	M	NA	NA	995.9	NA	NA		M	NA	NA	NA	NA
2019/08/01 22:21:00	AWS2	15.45	53	20.83	56	M	M	M	NA	NA	995.2	NA	NA		M	NA	NA	NA	NA
2019/08/01 22:22:00	AWS2	13.72	51	19.65	50	M	M	M	NA	NA	996.5	NA	NA		M	NA	NA	NA	NA
2019/08/01 22:23:00	AWS2	10.77	60	19.65	50	M	M	M	NA	NA	996.9	NA	NA		M	NA	NA	NA	NA
2019/08/01 22:24:00	AWS2	12.13	65	19.65	50	M	M	M	NA	NA	996.2	NA	NA		M	NA	NA	NA	NA
2019/08/01 22:25:00	AWS2	13.01	61	18.67	64	M	M	M	NA	NA	996.8	NA	NA		M	NA	NA	NA	NA
2019/08/01 22:26:00	AWS2	10.46	63	18.67	64	M	M	M	NA	NA	996.3	NA	NA		M	NA	NA	NA	NA
2019/08/01 22:27:00	AWS2	11.56	60	18.67	64	M	M	M	NA	NA	995.8	NA	NA		M	NA	NA	NA	NA
2019/08/01 22:28:00	AWS2	13.26	53	18.67	64	M	M	M	NA	NA	995.9	NA	NA		M	NA	NA	NA	NA
2019/08/01 22:29:00	AWS2	11.69	53	18.67	64	M	M	M	NA	NA	995.8	NA	NA		M	NA	NA	NA	NA
2019/08/01 22:30:00	AWS2	12.16	51	18.57	54	M	M	M	NA	NA	995.7	NA	NA		M	NA	NA	NA	NA
2019/08/01 22:31:00	AWS2	12.47	55	15.95	50	M	M	M	NA	NA	996.0	NA	NA		M	NA	NA	NA	NA
2019/08/01 22:32:00	AWS2	11.54	55	15.95	50	M	M	M	NA	NA	995.8	NA	NA		M	NA	NA	NA	NA
2019/08/01 22:33:00	AWS2	12.35	50	15.95	50	M	M	M	NA	NA	995.9	NA	NA		M	NA	NA	NA	NA
2019/08/01 22:34:00	AWS2	11.37	45	15.79	57	M	M	M	NA	NA	996.2	NA	NA		M	NA	NA	NA	NA
2019/08/01 22:35:00	AWS2	9.70	45	15.79	57	M	M	M	NA	NA	996.4	NA	NA		M	NA	NA	NA	NA
2019/08/01 22:36:00	AWS2	11.17	50	15.79	57	M	M	M	NA	NA	996.1	NA	NA		M	NA	NA	NA	NA
2019/08/01 22:37:00	AWS2	13.26	54	17.08	50	M	M	M	NA	NA	995.4	NA	NA		M	NA	NA	NA	NA
2019/08/01 22:38:00	AWS2	12.99	53	17.08	50	M	M	M	NA	NA	995.6	NA	NA		M	NA	NA	NA	NA
2019/08/01 22:39:00	AWS2	11.85	43	17.08	50	M	M	M	NA	NA	996.5	NA	NA		M	NA	NA	NA	NA
2019/08/01 22:40:00	AWS2	11.30	42	17.08	50	M	M	M	NA	NA	996.5	NA	NA		M	NA	NA	NA	NA
2019/08/01 22:41:00	AWS2	11.10	44	17.08	50	M	M	M	NA	NA	995.3	NA	NA		M	NA	NA	NA	NA
2019/08/01 22:42:00	AWS2	11.14	42	17.08	50	M	M	M	NA	NA	995.7	NA	NA		M	NA	NA	NA	NA
2019/08/01 22:43:00	AWS2	11.75	43	17.08	50	M	M	M	NA	NA	995.7	NA	NA		M	NA	NA	NA	NA
2019/08/01 22:44:00	AWS2	12.12	45	17.08	50	M	M	M	NA	NA	996.4	NA	NA		M	NA	NA	NA	NA
2019/08/01 22:45:00	AWS2	12.97	49	17.49	51	M	M	M	NA	NA	995.7	NA	NA		M	NA	NA	NA	NA
2019/08/01 22:46:00	AWS2	13.75	52	17.49	51	M	M	M	NA	NA	995.8	NA	NA		M	NA	NA	NA	NA
2019/08/01 22:47:00	AWS2	12.19	51	17.49	51	M	M	M	NA	NA	995.8	NA	NA		M	NA	NA	NA	NA
2019/08/01 22:48:00	AWS2	11.27	47	17.49	51	M	M	M	NA	NA	995.8	NA	NA		M	NA	NA	NA	NA
2019/08/01 22:49:00	AWS2	11.47	41	17.49	51	M	M	M	NA	NA	996.2	NA	NA		M	NA	NA	NA	NA
2019/08/01 22:50:00	AWS2	11.29	46	17.49	51	M	M	M	NA	NA	995.8	NA	NA		M	NA	NA	NA	NA
2019/08/01 22:51:00	AWS2	11.19	49	17.49	51	M	M	M	NA	NA	996.4	NA	NA		M	NA	NA	NA	NA
2019/08/01 22:52:00	AWS2	11.08	43	17.49	51	M	M	M	NA	NA	995.7	NA	NA		M	NA	NA	NA	NA
2019/08/01 22:53:00	AWS2	10.93	46	17.49	51	M	M	M	NA	NA	996.3	NA	NA		M	NA	NA	NA	NA
2019/08/01 22:54:00	AWS2	10.98	55	17.49	51	M	M	M	NA	NA	996.3	NA	NA		M	NA	NA	NA	NA
2019/08/01 22:55:00	AWS2	12.16	55	17.34	64	M	M	M	NA	NA	996.0	NA	NA		M	NA	NA	NA	NA
2019/08/01 22:56:00	AWS2	12.49	43	16.26	65	M	M	M	NA	NA	995.4	NA	NA		M	NA	NA	NA	NA
2019/08/01 22:57:00	AWS2	11.31	42	16.26	65	M	M	M	NA	NA	995.6	NA	NA		M	NA	NA	NA	NA
2019/08/01 22:58:00	AWS2	10.93	50	16.26	65	M	M	M	NA	NA	996.1	NA	NA		M	NA	NA	NA	NA
2019/08/01 22:59:00	AWS2	11.91	56	16.26	65	M	M	M	NA	NA	995.8	NA	NA		M	NA	NA	NA	NA
2019/08/01 23:00:00	AWS2	12.19	55	16.26	65	M	M	M	NA	NA	996.0	NA	NA		M	NA	NA	NA	NA
2019/08/01 23:01:00	AWS2	11.65	51	16.26	65	M	M	M	NA	NA	996.1	NA	NA		M	NA	NA	NA	NA
2019/08/01 23:02:00	AWS2	11.16	49	16.26	65	M	M	M	NA	NA	996.0	NA	NA		M	NA	NA	NA	NA
2019/08/01 23:03:00	AWS2	10.63	49	16.26	65	M	M	M	NA	NA	996.2	NA	NA		M	NA	NA	NA	NA
2019/08/01 23:04:00	AWS2	10.87	49	14.76	63	M	M	M	NA	NA	995.9	NA	NA		M	NA	NA	NA	NA
2019/08/01 23:05:00	AWS2	10.56	49	14.76	63	M	M	M	NA	NA	996.5	NA	NA		M	NA	NA	NA	NA
2019/08/01 23:06:00	AWS2	9.81	50	14.76	63	M	M	M	NA	NA	996.5	NA	NA		M	NA	NA	NA	NA
2019/08/01 23:07:00	AWS2	10.24	50	14.76	63	M	M	M	NA	NA	996.3	NA	NA		M	NA	NA	NA	NA
2019/08/01 23:08:00	AWS2	11.88	50	14.51	56	M	M	M	NA	NA	995.6	NA	NA		M	NA	NA	NA	NA
2019/08/01 23:09:00	AWS2	13.62	50	15.38	54	M	M	M	NA	NA	995.2	NA	NA		M	NA	NA	NA	NA
2019/08/01 23:10:00	AWS2	14.45	50	15.48	56	M	M	M	NA	NA	994.6	NA	NA		M	NA	NA	NA	NA
2019/08/01 23:11:00	AWS2	15.02	50	16.36	48	M	M	M	NA	NA	995.6	NA	NA		M	NA	NA	NA	NA
2019/08/01 23:12:00	AWS2	16.33	52	18.57	65	M	M	M	NA	NA	995.0	NA	NA		M	NA	NA	NA	NA
2019/08/01 23:13:00	AWS2	16.90	51	19.50	45	M	M	M	NA	NA	994.4	NA	NA		M	NA	NA	NA	NA
2019/08/01 23:14:00	AWS2	15.20	52	19.50	45	M	M	M	NA	NA	995.3	NA	NA		M	NA	NA	NA	NA
2019/08/01 23:15:00	AWS2	14.00	61	19.50	45	M	M	M	NA	NA	995.6	NA	NA		M	NA	NA	NA	NA
2019/08/01 23:16:00	AWS2	15.49	63	19.50	45	M	M	M	NA	NA	995.0	NA	NA		M	NA	NA	NA	NA
2019/08/01 23:17:00	AWS2	15.57	58	19.50	45	M	M	M	NA	NA	995.6	NA	NA		M	NA	NA	NA	NA
2019/08/01 23:18:00	AWS2	14.22	61	19.50	45	M	M	M	NA	NA	995.8	NA	NA		M	NA	NA	NA	NA
2019/08/01 23:19:00	AWS2	13.75	65	19.50	45	M	M	M	NA	NA	995.5	NA	NA		M	NA	NA	NA	NA
2019/08/01 23:20:00	AWS2	14.19	61	19.50	45	M	M	M	NA	NA	995.1	NA	NA		M	NA	NA	NA	NA
2019/08/01 23:21:00	AWS2	13.88	59	19.50	45	M	M	M	NA	NA	994.5	NA	NA		M	NA	NA	NA	NA
2019/08/01 23:22:00	AWS2	12.70	64	19.50	45	M	M	M	NA	NA	995.8	NA	NA		M	NA	NA	NA	NA
2019/08/01 23:23:00	AWS2	13.46	64	18.57	61	M	M	M	NA	NA	995.6	NA	NA		M	NA	NA	NA	NA
2019/08/01 23:24:00	AWS2	13.17	65	18.57	61	M	M	M	NA	NA	995.5	NA	NA		M	NA	NA	NA	NA
2019/08/01 23:25:00	AWS2	11.99	68	18.57	61	M	M	M	NA	NA	995.8	NA	NA		M	NA	NA	NA	NA
2019/08/01 23:26:00	AWS2	11.66	67	17.18	73	M	M	M	NA	NA	995.5	NA	NA		M	NA	NA	NA	NA
2019/08/01 23:27:00	AWS2	11.80	69	17.18	73	M	M	M	NA	NA	995.5	NA	NA		M	NA	NA	NA	NA
2019/08/01 23:28:00	AWS2	12.35	70	16.31	48	M	M	M	NA	NA	995.9	NA	NA		M	NA	NA	NA	NA
2019/08/01 23:29:00	AWS2	12.63	70	16.26	58	M	M	M	NA	NA	995.3	NA	NA		M	NA	NA	NA	NA
2019/08/01 23:30:00	AWS2	12.83	70	15.79	62	M	M	M	NA	NA	995.6	NA	NA		M	NA	NA	NA	NA
2019/08/01 23:31:00	AWS2	13.29	66	15.79	62	M	M	M	NA	NA	994.9	NA	NA		M	NA	NA	NA	NA
2019/08/01 23:32:00	AWS2	13.67	68	16.41	68	M	M	M	NA	NA	995.8	NA	NA		M	NA	NA	NA	NA
2019/08/01 23:33:00	AWS2	14.00	68	18.21	75	M	M	M	NA	NA	995.4	NA	NA		M	NA	NA	NA	NA
2019/08/01 23:34:00	AWS2	14.54	60	18.21	75	M	M	M	NA	NA	994.8	NA	NA		M	NA	NA	NA	NA
2019/08/01 23:35:00	AWS2	13.80	62	18.21	75	M	M	M	NA	NA	995.4	NA	NA		M	NA	NA	NA	NA
2019/08/01 23:36:00	AWS2	12.99	66	18.21	75	M	M	M	NA	NA	995.6	NA	NA		M	NA	NA	NA	NA
2019/08/01 23:37:00	AWS2	11.94	68	18.21	75	M	M	M	NA	NA	995.7	NA	NA		M	NA	NA	NA	NA
2019/08/01 23:38:00	AWS2	10.05	70	18.21	75	M	M	M	NA	NA	995.9	NA	NA		M	NA	NA	NA	NA
2019/08/01 23:39:00	AWS2	11.06	65	18.21	75	M	M	M	NA	NA	995.3	NA	NA		M	NA	NA	NA	NA
2019/08/01 23:40:00	AWS2	13.27	60	18.21	75	M	M	M	NA	NA	994.4	NA	NA		M	NA	NA	NA	NA
2019/08/01 23:41:00	AWS2	13.83	63	18.21	75	M	M	M	NA	NA	995.1	NA	NA		M	NA	NA	NA	NA
2019/08/01 23:42:00	AWS2	12.75	63	18.21	75	M	M	M	NA	NA	995.5	NA	NA		M	NA	NA	NA	NA
2019/08/01 23:43:00	AWS2	12.43	56	18.01	64	M	M	M	NA	NA	994.8	NA	NA		M	NA	NA	NA	NA
2019/08/01 23:44:00	AWS2	12.16	34	17.34	22	M	M	M	NA	NA	995.0	NA	NA		M	NA	NA	NA	NA
2019/08/01 23:45:00	AWS2	10.82	29	17.34	22	M	M	M	NA	NA	995.4	NA	NA		M	NA	NA	NA	NA
2019/08/01 23:46:00	AWS2	11.82	50	17.75	40	M	M	M	NA	NA	995.3	NA	NA		M	NA	NA	NA	NA
2019/08/01 23:47:00	AWS2	14.15	54	17.75	40	M	M	M	NA	NA	994.7	NA	NA		M	NA	NA	NA	NA
2019/08/01 23:48:00	AWS2	14.93	48	18.88	44	M	M	M	NA	NA	994.8	NA	NA		M	NA	NA	NA	NA
2019/08/01 23:49:00	AWS2	12.52	48	18.88	44	M	M	M	NA	NA	995.9	NA	NA		M	NA	NA	NA	NA
2019/08/01 23:50:00	AWS2	11.51	53	18.88	44	M	M	M	NA	NA	994.5	NA	NA		M	NA	NA	NA	NA
2019/08/01 23:51:00	AWS2	12.99	54	18.88	44	M	M	M	NA	NA	994.3	NA	NA		M	NA	NA	NA	NA
2019/08/01 23:52:00	AWS2	13.64	48	18.88	44	M	M	M	NA	NA	994.4	NA	NA		M	NA	NA	NA	NA
2019/08/01 23:53:00	AWS2	14.13	46	19.14	50	M	M	M	NA	NA	994.2	NA	NA		M	NA	NA	NA	NA
2019/08/01 23:54:00	AWS2	13.38	44	19.45	53	M	M	M	NA	NA	994.9	NA	NA		M	NA	NA	NA	NA
2019/08/01 23:55:00	AWS2	11.48	47	19.45	53	M	M	M	NA	NA	995.0	NA	NA		M	NA	NA	NA	NA
2019/08/01 23:56:00	AWS2	11.33	55	19.45	53	M	M	M	NA	NA	995.0	NA	NA		M	NA	NA	NA	NA
2019/08/01 23:57:00	AWS2	14.97	52	21.81	46	M	M	M	NA	NA	993.8	NA	NA		M	NA	NA	NA	NA
2019/08/01 23:58:00	AWS2	14.24	43	21.81	46	M	M	M	NA	NA	995.0	NA	NA		M	NA	NA	NA	NA
2019/08/01 23:59:00	AWS2	12.17	45	21.81	46	M	M	M	NA	NA	994.3	NA	NA		M	NA	NA	NA	NA